Darstellungsparameter: Aktuell verwendete Einstellungen:
Skalierung der Graphiken ... ?
xyx+y,   Skalierungsfaktor:      Skalierung: Modus: x, Faktor: 1
Darstellungszeitraum ... ?
Vom - - bis: - -   Zeitraum: 19.01.2010 - 19.07.2010
Min/Max/Avg-Anzeige ... ?
Zeige MMA aktuell
Zeige MMA Monat
Zeige MMA alles
Zeige --A aktuell
Zeige --A Monat
Zeige --A alles
Keine MMA-Anzeige
MMA:
Minimum Maximum Average (ber die Originaldaten)
MMA-Basis: 19.01.2010 - 19.07.2010
Quicknavigation für Darstellung... ?
Tage:      1T, 2T, 3T, 5T -1T -2T -3T -5T +1T +2T +3T +5T
Wochen: 1W, 2W, 3W -1W -2W -3W +1W +2W +3W
Monate: 1M, 3M, 6M -1M -3M -6M +1M +3M +6M
Jahre:    1J, 3J, 5J, 10J -1J -3J -5J -10J +1J +3J +5J +10J
Nutze für die Darstellung ... ?
Originaldaten oder Mittelwerte auf ...
Stundenbasis Tagesbasis Wochenbasis
Monatsbasis Jahresbasis      Datenbasis: Original-Daten
Darstellen als:
Statistik (Auto) Statistik J:M      Darstellung:
Zur Graphik,    zurück zur Übersicht aller Sensoren.
 
Tabellarische Datenbersicht: ?
 
Sensor: Nr:Datum:Temp:Abs-Feuchte:Windchill:Wind:
Aussen-T/F 1 19-01-2010 00:10:03 2.7 C 4.72 g/m*3 2.7 C 0 km/h
2 19-01-2010 00:22:03 2.7 C 4.78 g/m*3 2.7 C 0 km/h
3 19-01-2010 00:34:03 2.5 C 4.77 g/m*3 2.5 C 0 km/h
4 19-01-2010 00:46:03 2.4 C 4.85 g/m*3 2.4 C 0 km/h
5 19-01-2010 00:58:03 2.3 C 4.88 g/m*3 2.3 C 0 km/h
6 19-01-2010 01:10:03 2.2 C 4.96 g/m*3 2.2 C 0 km/h
7 19-01-2010 01:22:03 2.2 C 5.01 g/m*3 2.2 C 0 km/h
8 19-01-2010 01:34:03 2.2 C 5.07 g/m*3 2.2 C 0 km/h
9 19-01-2010 01:46:03 2.2 C 5.07 g/m*3 2.2 C 0 km/h
10 19-01-2010 01:58:03 2.2 C 5.07 g/m*3 2.2 C 0 km/h
11 19-01-2010 02:10:03 2.2 C 5.07 g/m*3 2.2 C 0 km/h
12 19-01-2010 02:22:03 2.2 C 5.07 g/m*3 2.2 C 0 km/h
13 19-01-2010 02:34:03 2.1 C 4.98 g/m*3 2.1 C 0 km/h
14 19-01-2010 02:46:03 1.7 C 4.85 g/m*3 1.7 C 0 km/h
15 19-01-2010 02:58:03 1.5 C 4.83 g/m*3 1.5 C 0 km/h
16 19-01-2010 03:10:03 1.6 C 4.87 g/m*3 1.6 C 0 km/h
17 19-01-2010 03:22:03 1.4 C 4.85 g/m*3 1.4 C 0 km/h
18 19-01-2010 03:34:03 1.3 C 4.82 g/m*3 1.3 C 0 km/h
19 19-01-2010 03:46:04 1.4 C 4.85 g/m*3 1.4 C 0 km/h
20 19-01-2010 03:58:04 1.3 C 4.82 g/m*3 1.3 C 0 km/h
21 19-01-2010 04:10:04 1.3 C 4.82 g/m*3 1.3 C 0 km/h
22 19-01-2010 04:22:04 1.4 C 4.91 g/m*3 1.4 C 0 km/h
23 19-01-2010 04:34:04 1.5 C 4.94 g/m*3 1.5 C 0 km/h
24 19-01-2010 04:46:04 1.6 C 4.97 g/m*3 1.6 C 0 km/h
25 19-01-2010 04:58:04 1.7 C 5.01 g/m*3 1.7 C 0 km/h
Sensor: Nr:Datum:Temp:Abs-Feuchte:Windchill:Wind:
Aussen-T/F 26 19-01-2010 05:10:04 1.8 C 5.04 g/m*3 1.8 C 0 km/h
27 19-01-2010 05:22:04 1.8 C 5.04 g/m*3 1.8 C 0 km/h
28 19-01-2010 05:34:04 1.6 C 4.92 g/m*3 1.6 C 0 km/h
29 19-01-2010 05:46:04 1.5 C 4.89 g/m*3 1.5 C 0 km/h
30 19-01-2010 05:58:04 1.3 C 4.82 g/m*3 1.3 C 0 km/h
31 19-01-2010 06:10:04 1.3 C 4.82 g/m*3 1.3 C 0 km/h
32 19-01-2010 06:22:04 1.4 C 4.91 g/m*3 1.4 C 0 km/h
33 19-01-2010 06:34:04 1.6 C 4.97 g/m*3 1.6 C 0 km/h
34 19-01-2010 06:46:04 1.6 C 4.97 g/m*3 1.6 C 0 km/h
35 19-01-2010 06:58:04 1.6 C 4.97 g/m*3 1.6 C 0 km/h
36 19-01-2010 07:10:02 1.7 C 5.06 g/m*3 1.7 C 0 km/h
37 19-01-2010 07:22:03 1.7 C 5.06 g/m*3 1.7 C 0 km/h
38 19-01-2010 07:34:03 1.7 C 5.06 g/m*3 1.7 C 0 km/h
39 19-01-2010 07:46:02 1.7 C 5.06 g/m*3 1.7 C 0 km/h
40 19-01-2010 07:58:02 1.8 C 5.1 g/m*3 1.8 C 0 km/h
41 19-01-2010 08:10:02 1.8 C 5.1 g/m*3 1.8 C 0 km/h
42 19-01-2010 08:22:02 1.8 C 5.1 g/m*3 1.8 C 0 km/h
43 19-01-2010 08:34:02 1.8 C 5.1 g/m*3 1.8 C 0 km/h
44 19-01-2010 08:46:01 1.8 C 5.1 g/m*3 1.8 C 0 km/h
45 19-01-2010 08:58:01 2.3 C 5.22 g/m*3 2.3 C 0 km/h
46 19-01-2010 09:10:02 1.9 C 5.08 g/m*3 1.9 C 0 km/h
47 19-01-2010 09:22:01 1.9 C 5.08 g/m*3 1.9 C 0 km/h
48 19-01-2010 09:34:01 2 C 5.06 g/m*3 2 C 0 km/h
49 19-01-2010 09:46:01 2.1 C 5.09 g/m*3 2.1 C 0 km/h
50 19-01-2010 09:58:01 2.2 C 5.13 g/m*3 2.2 C 0 km/h
Sensor: Nr:Datum:Temp:Abs-Feuchte:Windchill:Wind:
Aussen-T/F 51 19-01-2010 10:10:02 2.2 C 5.07 g/m*3 2.2 C 0 km/h
52 19-01-2010 10:22:01 2.3 C 5.1 g/m*3 2.3 C 0 km/h
53 19-01-2010 10:34:02 2.3 C 5.1 g/m*3 2.3 C 0 km/h
54 19-01-2010 10:46:01 2.4 C 5.14 g/m*3 2.4 C 0 km/h
55 19-01-2010 10:58:01 2.5 C 5.17 g/m*3 2.5 C 0 km/h
56 19-01-2010 11:10:02 2.7 C 5.24 g/m*3 2.7 C 0 km/h
57 19-01-2010 11:22:02 2.8 C 5.22 g/m*3 2.8 C 0 km/h
58 19-01-2010 11:34:01 2.8 C 5.16 g/m*3 2.8 C 0 km/h
59 19-01-2010 11:46:02 2.7 C 5.13 g/m*3 2.7 C 0 km/h
60 19-01-2010 11:58:02 2.8 C 5.16 g/m*3 2.8 C 0 km/h
61 19-01-2010 12:10:01 2.9 C 5.2 g/m*3 2.9 C 0 km/h
62 19-01-2010 12:22:02 3 C 5.17 g/m*3 3 C 0 km/h
63 19-01-2010 12:34:01 3.1 C 5.21 g/m*3 3.1 C 0 km/h
64 19-01-2010 12:46:03 3.2 C 5.24 g/m*3 3.2 C 0 km/h
65 19-01-2010 12:58:03 3.2 C 5.24 g/m*3 3.2 C 0 km/h
66 19-01-2010 13:10:02 3.2 C 5.24 g/m*3 3.2 C 0 km/h
67 19-01-2010 13:22:02 3.1 C 5.21 g/m*3 3.1 C 0 km/h
68 19-01-2010 13:34:02 2.9 C 5.2 g/m*3 2.9 C 0 km/h
69 19-01-2010 13:46:02 2.9 C 5.2 g/m*3 2.9 C 0 km/h
70 19-01-2010 13:58:02 2.8 C 5.22 g/m*3 2.8 C 0 km/h
71 19-01-2010 14:10:02 2.9 C 5.26 g/m*3 2.9 C 0 km/h
72 19-01-2010 14:22:02 2.9 C 5.32 g/m*3 2.9 C 0 km/h
73 19-01-2010 14:34:02 2.9 C 5.32 g/m*3 2.9 C 0 km/h
74 19-01-2010 14:46:02 3 C 5.35 g/m*3 3 C 0 km/h
75 19-01-2010 14:58:03 3.2 C 5.42 g/m*3 3.2 C 0 km/h
Sensor: Nr:Datum:Temp:Abs-Feuchte:Windchill:Wind:
Aussen-T/F 76 19-01-2010 15:10:01 3.4 C 5.5 g/m*3 3.4 C 0 km/h
77 19-01-2010 15:22:01 3.4 C 5.5 g/m*3 3.4 C 0 km/h
78 19-01-2010 15:34:02 3.3 C 5.4 g/m*3 3.3 C 0 km/h
79 19-01-2010 15:46:02 3.3 C 5.4 g/m*3 3.3 C 0 km/h
80 19-01-2010 15:58:02 3.3 C 5.4 g/m*3 3.3 C 0 km/h
81 19-01-2010 16:10:02 3.2 C 5.36 g/m*3 3.2 C 0 km/h
82 19-01-2010 16:22:02 3.2 C 5.36 g/m*3 3.2 C 0 km/h
83 19-01-2010 16:34:02 3.1 C 5.33 g/m*3 3.1 C 0 km/h
84 19-01-2010 16:46:02 3.1 C 5.33 g/m*3 3.1 C 0 km/h
85 19-01-2010 16:58:02 2.9 C 5.32 g/m*3 2.9 C 0 km/h
86 19-01-2010 17:10:01 2.8 C 5.28 g/m*3 2.8 C 0 km/h
87 19-01-2010 17:22:02 2.7 C 5.24 g/m*3 2.7 C 0 km/h
88 19-01-2010 17:34:01 2.7 C 5.24 g/m*3 2.7 C 0 km/h
89 19-01-2010 17:46:02 2.7 C 5.24 g/m*3 2.7 C 0 km/h
90 19-01-2010 17:58:02 2.7 C 5.24 g/m*3 2.7 C 0 km/h
91 19-01-2010 18:10:02 2.6 C 5.21 g/m*3 2.6 C 0 km/h
92 19-01-2010 18:22:02 2.5 C 5.17 g/m*3 2.5 C 0 km/h
93 19-01-2010 18:34:03 2.4 C 5.14 g/m*3 2.4 C 0 km/h
94 19-01-2010 18:46:02 2.3 C 5.16 g/m*3 2.3 C 0 km/h
95 19-01-2010 18:58:02 2.2 C 5.13 g/m*3 2.2 C 0 km/h
96 19-01-2010 19:10:01 2 C 5.06 g/m*3 2 C 0 km/h
97 19-01-2010 19:22:02 2 C 5.06 g/m*3 2 C 0 km/h
98 19-01-2010 19:34:02 2 C 5.06 g/m*3 2 C 0 km/h
99 19-01-2010 19:46:02 2 C 5.06 g/m*3 2 C 0 km/h
100 19-01-2010 19:58:02 2 C 5.06 g/m*3 2 C 0 km/h
Sensor: Nr:Datum:Temp:Abs-Feuchte:Windchill:Wind:
Aussen-T/F 101 19-01-2010 20:10:02 2 C 5.06 g/m*3 2 C 0 km/h
102 19-01-2010 20:22:02 2 C 5.06 g/m*3 2 C 0 km/h
103 19-01-2010 20:34:02 2 C 5.11 g/m*3 2 C 0 km/h
104 19-01-2010 20:46:01 2 C 5.11 g/m*3 2 C 0 km/h
105 19-01-2010 20:58:01 2 C 5.11 g/m*3 2 C 0 km/h
106 19-01-2010 21:10:02 2.2 C 5.18 g/m*3 2.2 C 0 km/h
107 19-01-2010 21:22:01 2 C 5.11 g/m*3 2 C 0 km/h
108 19-01-2010 21:34:01 2 C 5.11 g/m*3 2 C 0 km/h
109 19-01-2010 21:46:01 2 C 5.11 g/m*3 2 C 0 km/h
110 19-01-2010 21:58:01 2 C 5.11 g/m*3 2 C 0 km/h
111 19-01-2010 22:11:02 2 C 5.11 g/m*3 2 C 0 km/h
112 19-01-2010 22:23:02 2 C 5.11 g/m*3 2 C 0 km/h
113 19-01-2010 22:35:02 1.9 C 5.08 g/m*3 1.9 C 0 km/h
114 19-01-2010 22:47:02 1.8 C 5.04 g/m*3 1.8 C 0 km/h
115 19-01-2010 22:59:02 1.8 C 5.04 g/m*3 1.8 C 0 km/h
116 19-01-2010 23:11:02 1.9 C 5.13 g/m*3 1.9 C 0 km/h
117 19-01-2010 23:23:02 1.9 C 5.13 g/m*3 1.9 C 0 km/h
118 19-01-2010 23:35:02 2 C 5.11 g/m*3 2 C 0 km/h
119 19-01-2010 23:47:03 2 C 5.11 g/m*3 2 C 0 km/h
120 19-01-2010 23:59:03 2 C 5.11 g/m*3 2 C 0 km/h
121 20-01-2010 00:11:03 2 C 5.11 g/m*3 2 C 0 km/h
122 20-01-2010 00:23:03 2 C 5.11 g/m*3 2 C 0 km/h
123 20-01-2010 00:35:03 2 C 5.11 g/m*3 2 C 0 km/h
124 20-01-2010 00:47:03 2 C 5.11 g/m*3 2 C 0 km/h
125 20-01-2010 00:59:03 2.1 C 5.15 g/m*3 2.1 C 0 km/h
Sensor: Nr:Datum:Temp:Abs-Feuchte:Windchill:Wind:
Aussen-T/F 126 20-01-2010 01:11:03 2.1 C 5.15 g/m*3 2.1 C 0 km/h
127 20-01-2010 01:23:03 2.1 C 5.15 g/m*3 2.1 C 0 km/h
128 20-01-2010 01:35:03 2.2 C 5.18 g/m*3 2.2 C 0 km/h
129 20-01-2010 01:47:03 2.2 C 5.18 g/m*3 2.2 C 0 km/h
130 20-01-2010 01:59:03 2.2 C 5.18 g/m*3 2.2 C 0 km/h
131 20-01-2010 02:11:03 2.2 C 5.18 g/m*3 2.2 C 0 km/h
132 20-01-2010 02:23:03 2 C 5.11 g/m*3 2 C 0 km/h
133 20-01-2010 02:35:03 2 C 5.11 g/m*3 2 C 0 km/h
134 20-01-2010 02:47:03 2.1 C 5.15 g/m*3 2.1 C 0 km/h
135 20-01-2010 02:59:03 2 C 5.11 g/m*3 2 C 0 km/h
136 20-01-2010 03:11:03 2 C 5.11 g/m*3 2 C 0 km/h
137 20-01-2010 03:23:03 2 C 5.11 g/m*3 2 C 0 km/h
138 20-01-2010 03:35:03 1.9 C 5.08 g/m*3 1.9 C 0 km/h
139 20-01-2010 03:47:04 1.9 C 5.08 g/m*3 1.9 C 0 km/h
140 20-01-2010 03:59:04 1.8 C 5.04 g/m*3 1.8 C 0 km/h
141 20-01-2010 04:11:04 1.8 C 5.04 g/m*3 1.8 C 0 km/h
142 20-01-2010 04:23:04 1.8 C 5.04 g/m*3 1.8 C 0 km/h
143 20-01-2010 04:35:04 1.8 C 5.04 g/m*3 1.8 C 0 km/h
144 20-01-2010 04:47:04 1.8 C 5.04 g/m*3 1.8 C 0 km/h
145 20-01-2010 04:59:04 1.8 C 5.04 g/m*3 1.8 C 0 km/h
146 20-01-2010 05:11:04 1.8 C 5.04 g/m*3 1.8 C 0 km/h
147 20-01-2010 05:23:04 1.8 C 5.04 g/m*3 1.8 C 0 km/h
148 20-01-2010 05:35:04 1.7 C 5.01 g/m*3 1.7 C 0 km/h
149 20-01-2010 05:47:04 1.7 C 5.01 g/m*3 1.7 C 0 km/h
150 20-01-2010 05:59:04 1.6 C 4.97 g/m*3 1.6 C 0 km/h
Sensor: Nr:Datum:Temp:Abs-Feuchte:Windchill:Wind:
Aussen-T/F 151 20-01-2010 06:11:04 1.3 C 4.82 g/m*3 1.3 C 0 km/h
152 20-01-2010 06:23:04 0.6 C 4.6 g/m*3 0.6 C 0 km/h
153 20-01-2010 06:35:04 0.4 C 4.53 g/m*3 0.4 C 0 km/h
154 20-01-2010 06:47:04 0.3 C 4.5 g/m*3 0.3 C 0 km/h
155 20-01-2010 06:59:04 0.4 C 4.58 g/m*3 0.4 C 0 km/h
156 20-01-2010 07:11:02 0.5 C 4.61 g/m*3 0.5 C 0 km/h
157 20-01-2010 07:23:02 0.2 C 4.52 g/m*3 0.2 C 0 km/h
158 20-01-2010 07:35:03 -0.2 C 4.4 g/m*3 -0.2 C 0 km/h
159 20-01-2010 07:47:02 -0.4 C 4.34 g/m*3 -0.4 C 0 km/h
160 20-01-2010 07:59:02 -0.4 C 4.34 g/m*3 -0.4 C 0 km/h
161 20-01-2010 08:11:02 -0.6 C 4.28 g/m*3 -0.6 C 0 km/h
162 20-01-2010 08:23:02 -0.7 C 4.25 g/m*3 -0.7 C 0 km/h
163 20-01-2010 08:35:02 -0.8 C 4.22 g/m*3 -0.8 C 0 km/h
164 20-01-2010 08:47:02 -0.9 C 4.19 g/m*3 -0.9 C 0 km/h
165 20-01-2010 08:59:02 -0.9 C 4.19 g/m*3 -0.9 C 0 km/h
166 20-01-2010 09:11:02 -0.9 C 4.23 g/m*3 -0.9 C 0 km/h
167 20-01-2010 09:23:02 -0.8 C 4.26 g/m*3 -0.8 C 0 km/h
168 20-01-2010 09:35:02 -0.8 C 4.26 g/m*3 -0.8 C 0 km/h
169 20-01-2010 09:47:02 -0.6 C 4.32 g/m*3 -0.6 C 0 km/h
170 20-01-2010 09:59:02 0 C 4.55 g/m*3 0 C 0 km/h
171 20-01-2010 10:11:02 0.5 C 4.71 g/m*3 0.5 C 0 km/h
172 20-01-2010 10:23:02 0.9 C 4.9 g/m*3 0.9 C 0 km/h
173 20-01-2010 10:35:02 1.3 C 5.03 g/m*3 1.3 C 0 km/h
174 20-01-2010 10:47:02 1.7 C 5.17 g/m*3 1.7 C 0 km/h
175 20-01-2010 10:59:02 2 C 5.28 g/m*3 2 C 0 km/h
Sensor: Nr:Datum:Temp:Abs-Feuchte:Windchill:Wind:
Aussen-T/F 176 20-01-2010 11:11:01 2.3 C 5.33 g/m*3 2.3 C 0 km/h
177 20-01-2010 11:23:01 2.5 C 5.4 g/m*3 2.5 C 0 km/h
178 20-01-2010 11:35:02 2.7 C 5.42 g/m*3 2.7 C 0 km/h
179 20-01-2010 11:47:02 3 C 5.41 g/m*3 3 C 0 km/h
180 20-01-2010 11:59:02 3.2 C 5.3 g/m*3 3.2 C 0 km/h
181 20-01-2010 12:11:02 3.1 C 4.91 g/m*3 3.1 C 0 km/h
182 20-01-2010 12:23:02 3.2 C 4.7 g/m*3 3.2 C 0 km/h
183 20-01-2010 12:35:02 3.3 C 4.67 g/m*3 3.3 C 0 km/h
184 20-01-2010 12:47:02 3.4 C 4.64 g/m*3 3.4 C 0 km/h
185 20-01-2010 12:59:02 3.5 C 4.61 g/m*3 3.5 C 0 km/h
186 20-01-2010 13:11:02 3.6 C 4.52 g/m*3 3.6 C 0 km/h
187 20-01-2010 13:23:02 3.8 C 4.52 g/m*3 3.8 C 0 km/h
188 20-01-2010 13:35:02 3.8 C 4.45 g/m*3 3.8 C 0 km/h
189 20-01-2010 13:47:02 3.8 C 4.45 g/m*3 3.8 C 0 km/h
190 20-01-2010 13:59:02 3.8 C 4.39 g/m*3 3.8 C 0 km/h
191 20-01-2010 14:11:02 4 C 4.39 g/m*3 4 C 0 km/h
192 20-01-2010 14:23:02 4.1 C 4.35 g/m*3 4.1 C 0 km/h
193 20-01-2010 14:35:02 4.1 C 4.35 g/m*3 4.1 C 0 km/h
194 20-01-2010 14:47:02 4.2 C 4.38 g/m*3 4.2 C 0 km/h
195 20-01-2010 14:59:02 3.9 C 4.36 g/m*3 3.9 C 0 km/h
196 20-01-2010 15:11:02 3.9 C 4.42 g/m*3 3.9 C 0 km/h
197 20-01-2010 15:23:03 3.8 C 4.45 g/m*3 3.8 C 0 km/h
198 20-01-2010 15:35:02 3.8 C 4.39 g/m*3 3.8 C 0 km/h
199 20-01-2010 15:47:02 3.7 C 4.49 g/m*3 3.7 C 0 km/h
200 20-01-2010 15:59:02 3.6 C 4.39 g/m*3 3.6 C 0 km/h
Sensor: Nr:Datum:Temp:Abs-Feuchte:Windchill:Wind:
Aussen-T/F 201 20-01-2010 16:11:02 3.6 C 4.39 g/m*3 3.6 C 0 km/h
202 20-01-2010 16:23:02 3.5 C 4.43 g/m*3 3.5 C 0 km/h
203 20-01-2010 16:35:02 3.4 C 4.4 g/m*3 3.4 C 0 km/h
204 20-01-2010 16:47:02 3.2 C 4.4 g/m*3 3.2 C 0 km/h
205 20-01-2010 16:59:02 3 C 4.4 g/m*3 3 C 0 km/h
206 20-01-2010 17:11:02 2.8 C 4.46 g/m*3 2.8 C 0 km/h
207 20-01-2010 17:23:02 2.8 C 4.52 g/m*3 2.8 C 0 km/h
208 20-01-2010 17:35:01 2.6 C 4.46 g/m*3 2.6 C 0 km/h
209 20-01-2010 17:47:02 2.4 C 4.45 g/m*3 2.4 C 0 km/h
210 20-01-2010 17:59:02 2.3 C 4.48 g/m*3 2.3 C 0 km/h
211 20-01-2010 18:11:01 2.2 C 4.45 g/m*3 2.2 C 0 km/h
212 20-01-2010 18:23:01 2.2 C 4.51 g/m*3 2.2 C 0 km/h
213 20-01-2010 18:35:01 2 C 4.45 g/m*3 2 C 0 km/h
214 20-01-2010 18:47:02 1.7 C 4.41 g/m*3 1.7 C 0 km/h
215 20-01-2010 18:59:02 1.7 C 4.46 g/m*3 1.7 C 0 km/h
216 20-01-2010 19:11:01 1.7 C 4.52 g/m*3 1.7 C 0 km/h
217 20-01-2010 19:23:02 1.8 C 4.55 g/m*3 1.8 C 0 km/h
218 20-01-2010 19:35:02 2 C 4.56 g/m*3 2 C 0 km/h
219 20-01-2010 19:47:02 2.2 C 4.62 g/m*3 2.2 C 0 km/h
220 20-01-2010 19:59:02 2.3 C 4.65 g/m*3 2.3 C 0 km/h
221 20-01-2010 20:11:01 2.4 C 4.62 g/m*3 2.4 C 0 km/h
222 20-01-2010 20:23:01 2.6 C 4.51 g/m*3 2.6 C 0 km/h
223 20-01-2010 20:35:01 2.6 C 4.46 g/m*3 2.6 C 0 km/h
224 20-01-2010 20:47:02 2.5 C 4.31 g/m*3 2.5 C 0 km/h
225 20-01-2010 20:59:02 2.1 C 4.2 g/m*3 2.1 C 0 km/h
Sensor: Nr:Datum:Temp:Abs-Feuchte:Windchill:Wind:
Aussen-T/F 226 20-01-2010 21:11:02 1.6 C 4.11 g/m*3 1.6 C 0 km/h
227 20-01-2010 21:23:02 1.4 C 4.16 g/m*3 1.4 C 0 km/h
228 20-01-2010 21:35:02 1.7 C 4.25 g/m*3 1.7 C 0 km/h
229 20-01-2010 21:47:01 1.7 C 4.25 g/m*3 1.7 C 0 km/h
230 20-01-2010 21:59:01 1.7 C 4.25 g/m*3 1.7 C 0 km/h
231 20-01-2010 22:11:02 1.8 C 4.28 g/m*3 1.8 C 0 km/h
232 20-01-2010 22:23:02 1.8 C 4.22 g/m*3 1.8 C 0 km/h
233 20-01-2010 22:35:01 1.9 C 4.19 g/m*3 1.9 C 0 km/h
234 20-01-2010 22:47:02 2 C 4.11 g/m*3 2 C 0 km/h
235 20-01-2010 22:59:02 1.9 C 4.14 g/m*3 1.9 C 0 km/h
236 20-01-2010 23:11:01 1.9 C 4.19 g/m*3 1.9 C 0 km/h
237 20-01-2010 23:23:02 1.9 C 4.19 g/m*3 1.9 C 0 km/h
238 20-01-2010 23:35:01 1.8 C 4.17 g/m*3 1.8 C 0 km/h
239 20-01-2010 23:47:02 1.8 C 4.11 g/m*3 1.8 C 0 km/h
240 20-01-2010 23:59:02 1.8 C 4.17 g/m*3 1.8 C 0 km/h
241 21-01-2010 00:11:02 1.8 C 4.11 g/m*3 1.8 C 0 km/h
242 21-01-2010 00:23:02 1.8 C 4.11 g/m*3 1.8 C 0 km/h
243 21-01-2010 00:35:03 1.9 C 4.03 g/m*3 1.9 C 0 km/h
244 21-01-2010 00:47:02 1.8 C 4 g/m*3 1.8 C 0 km/h
245 21-01-2010 00:59:02 1.8 C 3.95 g/m*3 1.8 C 0 km/h
246 21-01-2010 01:11:02 1.8 C 3.84 g/m*3 1.8 C 0 km/h
247 21-01-2010 01:23:02 1.7 C 3.81 g/m*3 1.7 C 0 km/h
248 21-01-2010 01:35:02 1.7 C 3.81 g/m*3 1.7 C 0 km/h
249 21-01-2010 01:47:02 1.8 C 3.84 g/m*3 1.8 C 0 km/h
250 21-01-2010 01:59:02 1.8 C 3.78 g/m*3 1.8 C 0 km/h
Sensor: Nr:Datum:Temp:Abs-Feuchte:Windchill:Wind:
Aussen-T/F 251 21-01-2010 02:11:03 1.8 C 3.84 g/m*3 1.8 C 0 km/h
252 21-01-2010 02:23:02 1.7 C 3.87 g/m*3 1.7 C 0 km/h
253 21-01-2010 02:35:02 1.7 C 3.92 g/m*3 1.7 C 0 km/h
254 21-01-2010 02:47:01 1.7 C 3.92 g/m*3 1.7 C 0 km/h
255 21-01-2010 02:59:01 1.7 C 3.92 g/m*3 1.7 C 0 km/h
256 21-01-2010 03:11:02 1.7 C 3.92 g/m*3 1.7 C 0 km/h
257 21-01-2010 03:23:02 1.7 C 3.97 g/m*3 1.7 C 0 km/h
258 21-01-2010 03:35:01 1.7 C 4.03 g/m*3 1.7 C 0 km/h
259 21-01-2010 03:47:01 1.7 C 4.03 g/m*3 1.7 C 0 km/h
260 21-01-2010 03:59:01 1.8 C 4 g/m*3 1.8 C 0 km/h
261 21-01-2010 04:11:02 1.7 C 3.97 g/m*3 1.7 C 0 km/h
262 21-01-2010 04:23:01 1.7 C 4.03 g/m*3 1.7 C 0 km/h
263 21-01-2010 04:35:02 1.8 C 4 g/m*3 1.8 C 0 km/h
264 21-01-2010 04:47:01 1.8 C 3.89 g/m*3 1.8 C 0 km/h
265 21-01-2010 04:59:01 1.8 C 3.89 g/m*3 1.8 C 0 km/h
266 21-01-2010 05:11:02 1.8 C 3.95 g/m*3 1.8 C 0 km/h
267 21-01-2010 05:23:01 1.7 C 3.97 g/m*3 1.7 C 0 km/h
268 21-01-2010 05:35:01 1.7 C 4.03 g/m*3 1.7 C 0 km/h
269 21-01-2010 05:47:01 1.7 C 4.03 g/m*3 1.7 C 0 km/h
270 21-01-2010 05:59:01 1.6 C 3.95 g/m*3 1.6 C 0 km/h
271 21-01-2010 06:11:01 1.6 C 4 g/m*3 1.6 C 0 km/h
272 21-01-2010 06:23:01 1.6 C 4.06 g/m*3 1.6 C 0 km/h
273 21-01-2010 06:35:01 1.5 C 4.03 g/m*3 1.5 C 0 km/h
274 21-01-2010 06:47:01 1.5 C 4.08 g/m*3 1.5 C 0 km/h
275 21-01-2010 06:59:01 1.4 C 4.11 g/m*3 1.4 C 0 km/h
Sensor: Nr:Datum:Temp:Abs-Feuchte:Windchill:Wind:
Aussen-T/F 276 21-01-2010 07:11:01 1.4 C 4.16 g/m*3 1.4 C 0 km/h
277 21-01-2010 07:23:02 1.4 C 4.21 g/m*3 1.4 C 0 km/h
278 21-01-2010 07:35:01 1.3 C 4.19 g/m*3 1.3 C 0 km/h
279 21-01-2010 07:47:02 1.4 C 4.21 g/m*3 1.4 C 0 km/h
280 21-01-2010 07:59:02 1.4 C 4.21 g/m*3 1.4 C 0 km/h
281 21-01-2010 08:11:01 1.3 C 4.24 g/m*3 1.3 C 0 km/h
282 21-01-2010 08:23:02 1.3 C 4.24 g/m*3 1.3 C 0 km/h
283 21-01-2010 08:35:01 1.4 C 4.27 g/m*3 1.4 C 0 km/h
284 21-01-2010 08:47:02 1.3 C 4.24 g/m*3 1.3 C 0 km/h
285 21-01-2010 08:59:02 1.5 C 4.3 g/m*3 1.5 C 0 km/h
286 21-01-2010 09:11:01 1.6 C 4.33 g/m*3 1.6 C 0 km/h
287 21-01-2010 09:23:01 1.8 C 4.33 g/m*3 1.8 C 0 km/h
288 21-01-2010 09:35:01 2 C 4.33 g/m*3 2 C 0 km/h
289 21-01-2010 09:47:01 2.1 C 4.25 g/m*3 2.1 C 0 km/h
290 21-01-2010 09:59:02 2.1 C 3.97 g/m*3 2.1 C 0 km/h
291 21-01-2010 10:11:01 2.3 C 3.97 g/m*3 2.3 C 0 km/h
292 21-01-2010 10:23:01 2.5 C 3.97 g/m*3 2.5 C 0 km/h
293 21-01-2010 10:35:02 2.6 C 3.88 g/m*3 2.6 C 0 km/h
294 21-01-2010 10:47:01 2.9 C 4.02 g/m*3 2.9 C 0 km/h
295 21-01-2010 10:59:01 3.1 C 3.95 g/m*3 3.1 C 0 km/h
296 21-01-2010 11:11:02 3.2 C 3.86 g/m*3 3.2 C 0 km/h
297 21-01-2010 11:23:01 3.2 C 3.8 g/m*3 3.2 C 0 km/h
298 21-01-2010 11:35:02 3 C 3.75 g/m*3 3 C 0 km/h
299 21-01-2010 11:47:01 3.3 C 3.88 g/m*3 3.3 C 0 km/h
300 21-01-2010 11:59:01 3.4 C 3.73 g/m*3 3.4 C 0 km/h
Sensor: Nr:Datum:Temp:Abs-Feuchte:Windchill:Wind:
Aussen-T/F 301 21-01-2010 12:11:02 3.4 C 3.79 g/m*3 3.4 C 0 km/h
302 21-01-2010 12:23:01 3.6 C 3.84 g/m*3 3.6 C 0 km/h
303 21-01-2010 12:35:01 3.5 C 3.75 g/m*3 3.5 C 0 km/h
304 21-01-2010 12:47:01 3.6 C 3.71 g/m*3 3.6 C 0 km/h
305 21-01-2010 12:59:01 3.7 C 3.74 g/m*3 3.7 C 0 km/h
306 21-01-2010 13:11:01 3.8 C 3.76 g/m*3 3.8 C 0 km/h
307 21-01-2010 13:23:01 3.7 C 3.74 g/m*3 3.7 C 0 km/h
308 21-01-2010 13:35:01 4 C 3.81 g/m*3 4 C 0 km/h
309 21-01-2010 13:47:01 3.8 C 3.7 g/m*3 3.8 C 0 km/h
310 21-01-2010 13:59:01 3.8 C 3.76 g/m*3 3.8 C 0 km/h
311 21-01-2010 14:11:01 3.8 C 3.76 g/m*3 3.8 C 0 km/h
312 21-01-2010 14:23:02 3.8 C 3.76 g/m*3 3.8 C 0 km/h
313 21-01-2010 14:35:01 3.7 C 3.74 g/m*3 3.7 C 0 km/h
314 21-01-2010 14:47:02 3.4 C 3.91 g/m*3 3.4 C 0 km/h
315 21-01-2010 14:59:02 3.3 C 4 g/m*3 3.3 C 0 km/h
316 21-01-2010 15:11:01 3.3 C 4.06 g/m*3 3.3 C 0 km/h
317 21-01-2010 15:23:02 3.4 C 4.09 g/m*3 3.4 C 0 km/h
318 21-01-2010 15:35:01 3.4 C 4.09 g/m*3 3.4 C 0 km/h
319 21-01-2010 15:47:02 3.4 C 4.09 g/m*3 3.4 C 0 km/h
320 21-01-2010 15:59:02 3.3 C 4.06 g/m*3 3.3 C 0 km/h
321 21-01-2010 16:11:01 3.2 C 4.04 g/m*3 3.2 C 0 km/h
322 21-01-2010 16:23:01 3.2 C 4.04 g/m*3 3.2 C 0 km/h
323 21-01-2010 16:35:01 3.2 C 4.04 g/m*3 3.2 C 0 km/h
324 21-01-2010 16:47:01 3.1 C 3.95 g/m*3 3.1 C 0 km/h
325 21-01-2010 16:59:02 3 C 3.98 g/m*3 3 C 0 km/h
Sensor: Nr:Datum:Temp:Abs-Feuchte:Windchill:Wind:
Aussen-T/F 326 21-01-2010 17:11:01 3 C 4.04 g/m*3 3 C 0 km/h
327 21-01-2010 17:23:01 2.9 C 4.02 g/m*3 2.9 C 0 km/h
328 21-01-2010 17:35:02 2.8 C 3.99 g/m*3 2.8 C 0 km/h
329 21-01-2010 17:47:01 2.9 C 4.07 g/m*3 2.9 C 0 km/h
330 21-01-2010 17:59:01 2.9 C 4.13 g/m*3 2.9 C 0 km/h
331 21-01-2010 18:11:02 2.8 C 4.11 g/m*3 2.8 C 0 km/h
332 21-01-2010 18:23:01 2.8 C 4.11 g/m*3 2.8 C 0 km/h
333 21-01-2010 18:35:01 2.8 C 4.05 g/m*3 2.8 C 0 km/h
334 21-01-2010 18:47:01 2.7 C 4.02 g/m*3 2.7 C 0 km/h
335 21-01-2010 18:59:01 2.7 C 4.02 g/m*3 2.7 C 0 km/h
336 21-01-2010 19:11:02 2.8 C 4.05 g/m*3 2.8 C 0 km/h
337 21-01-2010 19:23:01 2.7 C 4.08 g/m*3 2.7 C 0 km/h
338 21-01-2010 19:35:01 2.7 C 4.02 g/m*3 2.7 C 0 km/h
339 21-01-2010 19:47:01 2.7 C 4.08 g/m*3 2.7 C 0 km/h
340 21-01-2010 19:59:01 2.7 C 4.14 g/m*3 2.7 C 0 km/h
341 21-01-2010 20:11:01 2.6 C 4.05 g/m*3 2.6 C 0 km/h
342 21-01-2010 20:23:01 2.6 C 4.05 g/m*3 2.6 C 0 km/h
343 21-01-2010 20:35:01 2.6 C 4.05 g/m*3 2.6 C 0 km/h
344 21-01-2010 20:47:01 2.6 C 4.05 g/m*3 2.6 C 0 km/h
345 21-01-2010 20:59:01 2.7 C 4.08 g/m*3 2.7 C 0 km/h
346 21-01-2010 21:11:01 2.7 C 4.08 g/m*3 2.7 C 0 km/h
347 21-01-2010 21:23:02 2.6 C 3.99 g/m*3 2.6 C 0 km/h
348 21-01-2010 21:35:01 2.6 C 3.99 g/m*3 2.6 C 0 km/h
349 21-01-2010 21:47:02 2.6 C 4.05 g/m*3 2.6 C 0 km/h
350 21-01-2010 21:59:02 2.6 C 4.05 g/m*3 2.6 C 0 km/h
Sensor: Nr:Datum:Temp:Abs-Feuchte:Windchill:Wind:
Aussen-T/F 351 21-01-2010 22:11:02 2.6 C 4.11 g/m*3 2.6 C 0 km/h
352 21-01-2010 22:24:02 2.6 C 4.11 g/m*3 2.6 C 0 km/h
353 21-01-2010 22:36:02 2.6 C 4.17 g/m*3 2.6 C 0 km/h
354 21-01-2010 22:48:02 2.6 C 4.22 g/m*3 2.6 C 0 km/h
355 21-01-2010 23:00:02 2.6 C 4.22 g/m*3 2.6 C 0 km/h
356 21-01-2010 23:12:02 2.6 C 4.22 g/m*3 2.6 C 0 km/h
357 21-01-2010 23:24:02 2.6 C 4.28 g/m*3 2.6 C 0 km/h
358 21-01-2010 23:36:02 2.6 C 4.28 g/m*3 2.6 C 0 km/h
359 21-01-2010 23:48:02 2.6 C 4.28 g/m*3 2.6 C 0 km/h
360 22-01-2010 00:00:02 2.6 C 4.28 g/m*3 2.6 C 0 km/h
361 22-01-2010 00:12:02 2.5 C 4.25 g/m*3 2.5 C 0 km/h
362 22-01-2010 00:24:02 2.6 C 4.28 g/m*3 2.6 C 0 km/h
363 22-01-2010 00:36:03 2.5 C 4.25 g/m*3 2.5 C 0 km/h
364 22-01-2010 00:48:03 2.5 C 4.25 g/m*3 2.5 C 0 km/h
365 22-01-2010 01:00:03 2.5 C 4.25 g/m*3 2.5 C 0 km/h
366 22-01-2010 01:12:03 2.5 C 4.25 g/m*3 2.5 C 0 km/h
367 22-01-2010 01:24:03 2.5 C 4.31 g/m*3 2.5 C 0 km/h
368 22-01-2010 01:36:03 2.5 C 4.31 g/m*3 2.5 C 0 km/h
369 22-01-2010 01:48:03 2.5 C 4.31 g/m*3 2.5 C 0 km/h
370 22-01-2010 02:00:03 2.5 C 4.37 g/m*3 2.5 C 0 km/h
371 22-01-2010 02:12:03 2.4 C 4.34 g/m*3 2.4 C 0 km/h
372 22-01-2010 02:24:03 2.4 C 4.34 g/m*3 2.4 C 0 km/h
373 22-01-2010 02:36:03 2.3 C 4.31 g/m*3 2.3 C 0 km/h
374 22-01-2010 02:48:03 2.4 C 4.34 g/m*3 2.4 C 0 km/h
375 22-01-2010 03:00:03 2.4 C 4.34 g/m*3 2.4 C 0 km/h
Sensor: Nr:Datum:Temp:Abs-Feuchte:Windchill:Wind:
Aussen-T/F 376 22-01-2010 03:12:03 2.4 C 4.4 g/m*3 2.4 C 0 km/h
377 22-01-2010 03:24:03 2.4 C 4.4 g/m*3 2.4 C 0 km/h
378 22-01-2010 03:36:03 2.4 C 4.4 g/m*3 2.4 C 0 km/h
379 22-01-2010 03:48:03 2.4 C 4.4 g/m*3 2.4 C 0 km/h
380 22-01-2010 04:00:03 2.3 C 4.37 g/m*3 2.3 C 0 km/h
381 22-01-2010 04:12:03 2.3 C 4.37 g/m*3 2.3 C 0 km/h
382 22-01-2010 04:24:04 2.3 C 4.37 g/m*3 2.3 C 0 km/h
383 22-01-2010 04:36:04 2.4 C 4.4 g/m*3 2.4 C 0 km/h
384 22-01-2010 04:48:04 2.3 C 4.37 g/m*3 2.3 C 0 km/h
385 22-01-2010 05:00:04 2.3 C 4.37 g/m*3 2.3 C 0 km/h
386 22-01-2010 05:12:04 2.3 C 4.37 g/m*3 2.3 C 0 km/h
387 22-01-2010 05:24:04 2.3 C 4.37 g/m*3 2.3 C 0 km/h
388 22-01-2010 05:36:04 2.2 C 4.34 g/m*3 2.2 C 0 km/h
389 22-01-2010 05:48:04 2.3 C 4.37 g/m*3 2.3 C 0 km/h
390 22-01-2010 06:00:04 2.2 C 4.34 g/m*3 2.2 C 0 km/h
391 22-01-2010 06:12:04 2.2 C 4.34 g/m*3 2.2 C 0 km/h
392 22-01-2010 06:24:04 2.2 C 4.34 g/m*3 2.2 C 0 km/h
393 22-01-2010 06:36:04 2.2 C 4.34 g/m*3 2.2 C 0 km/h
394 22-01-2010 06:48:04 2.2 C 4.34 g/m*3 2.2 C 0 km/h
395 22-01-2010 07:00:04 2.2 C 4.34 g/m*3 2.2 C 0 km/h
396 22-01-2010 07:12:01 2.2 C 4.39 g/m*3 2.2 C 0 km/h
397 22-01-2010 07:24:02 2.2 C 4.39 g/m*3 2.2 C 0 km/h
398 22-01-2010 07:36:02 2.1 C 4.36 g/m*3 2.1 C 0 km/h
399 22-01-2010 07:48:01 2.1 C 4.36 g/m*3 2.1 C 0 km/h
400 22-01-2010 08:00:01 2.1 C 4.36 g/m*3 2.1 C 0 km/h
Sensor: Nr:Datum:Temp:Abs-Feuchte:Windchill:Wind:
Aussen-T/F 401 22-01-2010 08:12:02 2 C 4.33 g/m*3 2 C 0 km/h
402 22-01-2010 08:24:01 2 C 4.33 g/m*3 2 C 0 km/h
403 22-01-2010 08:36:01 1.9 C 4.36 g/m*3 1.9 C 0 km/h
404 22-01-2010 08:48:01 1.9 C 4.36 g/m*3 1.9 C 0 km/h
405 22-01-2010 09:00:01 2.1 C 4.36 g/m*3 2.1 C 0 km/h
406 22-01-2010 09:12:02 2.2 C 4.39 g/m*3 2.2 C 0 km/h
407 22-01-2010 09:24:01 2.3 C 4.37 g/m*3 2.3 C 0 km/h
408 22-01-2010 09:36:02 2.5 C 4.37 g/m*3 2.5 C 0 km/h
409 22-01-2010 09:48:01 2.6 C 4.34 g/m*3 2.6 C 0 km/h
410 22-01-2010 10:00:01 2.8 C 4.4 g/m*3 2.8 C 0 km/h
411 22-01-2010 10:12:02 2.8 C 4.16 g/m*3 2.8 C 0 km/h
412 22-01-2010 10:24:01 3 C 4.16 g/m*3 3 C 0 km/h
413 22-01-2010 10:36:01 3.1 C 4.07 g/m*3 3.1 C 0 km/h
414 22-01-2010 10:48:01 3.2 C 4.1 g/m*3 3.2 C 0 km/h
415 22-01-2010 11:00:01 3.5 C 4.12 g/m*3 3.5 C 0 km/h
416 22-01-2010 11:12:02 3.8 C 4.14 g/m*3 3.8 C 0 km/h
417 22-01-2010 11:24:02 4 C 4.07 g/m*3 4 C 0 km/h
418 22-01-2010 11:36:01 4 C 4.01 g/m*3 4 C 0 km/h
419 22-01-2010 11:48:02 4.2 C 4.06 g/m*3 4.2 C 0 km/h
420 22-01-2010 12:00:02 4.1 C 3.97 g/m*3 4.1 C 0 km/h
421 22-01-2010 12:12:01 4.2 C 3.99 g/m*3 4.2 C 0 km/h
422 22-01-2010 12:24:02 4.4 C 4.05 g/m*3 4.4 C 0 km/h
423 22-01-2010 12:36:01 4.7 C 4.06 g/m*3 4.7 C 0 km/h
424 22-01-2010 12:48:02 4.9 C 4.12 g/m*3 4.9 C 0 km/h
425 22-01-2010 13:00:02 4.9 C 4.05 g/m*3 4.9 C 0 km/h
Sensor: Nr:Datum:Temp:Abs-Feuchte:Windchill:Wind:
Aussen-T/F 426 22-01-2010 13:12:02 4.9 C 4.05 g/m*3 4.9 C 0 km/h
427 22-01-2010 13:24:02 4.8 C 4.09 g/m*3 4.8 C 0 km/h
428 22-01-2010 13:36:02 4.8 C 4.16 g/m*3 4.8 C 0 km/h
429 22-01-2010 13:48:02 4.7 C 4.06 g/m*3 4.7 C 0 km/h
430 22-01-2010 14:00:02 4.7 C 4.13 g/m*3 4.7 C 0 km/h
431 22-01-2010 14:12:01 4.4 C 4.05 g/m*3 4.4 C 0 km/h
432 22-01-2010 14:24:01 4.4 C 4.11 g/m*3 4.4 C 0 km/h
433 22-01-2010 14:36:02 4.7 C 4.26 g/m*3 4.7 C 0 km/h
434 22-01-2010 14:48:02 4.8 C 4.16 g/m*3 4.8 C 0 km/h
435 22-01-2010 15:00:02 4.7 C 4.13 g/m*3 4.7 C 0 km/h
436 22-01-2010 15:12:02 4.6 C 4.17 g/m*3 4.6 C 0 km/h
437 22-01-2010 15:24:02 4.8 C 4.16 g/m*3 4.8 C 0 km/h
438 22-01-2010 15:36:02 4.8 C 4.16 g/m*3 4.8 C 0 km/h
439 22-01-2010 15:48:02 4.2 C 4.06 g/m*3 4.2 C 0 km/h
440 22-01-2010 16:00:02 3.8 C 4.14 g/m*3 3.8 C 0 km/h
441 22-01-2010 16:12:02 3.8 C 4.27 g/m*3 3.8 C 0 km/h
442 22-01-2010 16:24:02 3.9 C 4.29 g/m*3 3.9 C 0 km/h
443 22-01-2010 16:36:02 3.8 C 4.27 g/m*3 3.8 C 0 km/h
444 22-01-2010 16:48:02 3.8 C 4.33 g/m*3 3.8 C 0 km/h
445 22-01-2010 17:00:02 3.7 C 4.36 g/m*3 3.7 C 0 km/h
446 22-01-2010 17:12:02 3.6 C 4.33 g/m*3 3.6 C 0 km/h
447 22-01-2010 17:24:02 3.4 C 4.28 g/m*3 3.4 C 0 km/h
448 22-01-2010 17:36:02 3.3 C 4.25 g/m*3 3.3 C 0 km/h
449 22-01-2010 17:48:02 3.2 C 4.22 g/m*3 3.2 C 0 km/h
450 22-01-2010 18:00:02 3.2 C 4.28 g/m*3 3.2 C 0 km/h
Sensor: Nr:Datum:Temp:Abs-Feuchte:Windchill:Wind:
Aussen-T/F 451 22-01-2010 18:12:02 3.2 C 4.22 g/m*3 3.2 C 0 km/h
452 22-01-2010 18:24:03 3.1 C 4.19 g/m*3 3.1 C 0 km/h
453 22-01-2010 18:36:02 3 C 4.16 g/m*3 3 C 0 km/h
454 22-01-2010 18:48:02 2.9 C 4.19 g/m*3 2.9 C 0 km/h
455 22-01-2010 19:00:02 2.7 C 4.14 g/m*3 2.7 C 0 km/h
456 22-01-2010 19:12:02 2.5 C 4.08 g/m*3 2.5 C 0 km/h
457 22-01-2010 19:24:02 2.3 C 4.08 g/m*3 2.3 C 0 km/h
458 22-01-2010 19:36:02 2.3 C 4.14 g/m*3 2.3 C 0 km/h
459 22-01-2010 19:48:02 2.3 C 4.14 g/m*3 2.3 C 0 km/h
460 22-01-2010 20:00:02 2.3 C 4.14 g/m*3 2.3 C 0 km/h
461 22-01-2010 20:12:02 2.4 C 4.17 g/m*3 2.4 C 0 km/h
462 22-01-2010 20:24:02 2.3 C 4.14 g/m*3 2.3 C 0 km/h
463 22-01-2010 20:36:02 2.4 C 4.23 g/m*3 2.4 C 0 km/h
464 22-01-2010 20:48:02 2.3 C 4.2 g/m*3 2.3 C 0 km/h
465 22-01-2010 21:00:02 2.3 C 4.2 g/m*3 2.3 C 0 km/h
466 22-01-2010 21:12:01 2.3 C 4.2 g/m*3 2.3 C 0 km/h
467 22-01-2010 21:24:02 2.3 C 4.2 g/m*3 2.3 C 0 km/h
468 22-01-2010 21:36:02 2.3 C 4.25 g/m*3 2.3 C 0 km/h
469 22-01-2010 21:48:01 2.4 C 4.28 g/m*3 2.4 C 0 km/h
470 22-01-2010 22:00:02 2.3 C 4.25 g/m*3 2.3 C 0 km/h
471 22-01-2010 22:12:01 2.3 C 4.2 g/m*3 2.3 C 0 km/h
472 22-01-2010 22:25:02 2.3 C 4.2 g/m*3 2.3 C 0 km/h
473 22-01-2010 22:37:02 2.3 C 4.14 g/m*3 2.3 C 0 km/h
474 22-01-2010 22:49:02 2.3 C 4.08 g/m*3 2.3 C 0 km/h
475 22-01-2010 23:01:02 2.3 C 4.03 g/m*3 2.3 C 0 km/h
Sensor: Nr:Datum:Temp:Abs-Feuchte:Windchill:Wind:
Aussen-T/F 476 22-01-2010 23:13:02 2.3 C 4.03 g/m*3 2.3 C 0 km/h
477 22-01-2010 23:25:02 2.3 C 4.03 g/m*3 2.3 C 0 km/h
478 22-01-2010 23:37:02 2.2 C 4 g/m*3 2.2 C 0 km/h
479 22-01-2010 23:49:02 2.2 C 3.94 g/m*3 2.2 C 0 km/h
480 23-01-2010 00:01:02 2.2 C 3.89 g/m*3 2.2 C 0 km/h
481 23-01-2010 00:13:02 1.8 C 3.84 g/m*3 1.8 C 0 km/h
482 23-01-2010 00:25:02 1.5 C 3.76 g/m*3 1.5 C 0 km/h
483 23-01-2010 00:37:02 1.2 C 3.68 g/m*3 1.2 C 0 km/h
484 23-01-2010 00:49:02 1.1 C 3.71 g/m*3 1.1 C 0 km/h
485 23-01-2010 01:01:02 1 C 3.69 g/m*3 1 C 0 km/h
486 23-01-2010 01:13:02 0.9 C 3.66 g/m*3 0.9 C 0 km/h
487 23-01-2010 01:25:02 0.8 C 3.69 g/m*3 0.8 C 0 km/h
488 23-01-2010 01:37:02 0.7 C 3.61 g/m*3 0.7 C 0 km/h
489 23-01-2010 01:49:03 0.6 C 3.59 g/m*3 0.6 C 0 km/h
490 23-01-2010 02:01:03 0.5 C 3.61 g/m*3 0.5 C 0 km/h
491 23-01-2010 02:13:03 0.4 C 3.59 g/m*3 0.4 C 0 km/h
492 23-01-2010 02:25:03 0.5 C 3.61 g/m*3 0.5 C 0 km/h
493 23-01-2010 02:37:03 0.4 C 3.59 g/m*3 0.4 C 0 km/h
494 23-01-2010 02:49:03 0.4 C 3.59 g/m*3 0.4 C 0 km/h
495 23-01-2010 03:01:03 0.4 C 3.64 g/m*3 0.4 C 0 km/h
496 23-01-2010 03:13:03 0.4 C 3.64 g/m*3 0.4 C 0 km/h
497 23-01-2010 03:25:03 0.4 C 3.64 g/m*3 0.4 C 0 km/h
498 23-01-2010 03:37:03 0.3 C 3.61 g/m*3 0.3 C 0 km/h
499 23-01-2010 03:49:03 0.2 C 3.59 g/m*3 0.2 C 0 km/h
500 23-01-2010 04:01:03 0.1 C 3.56 g/m*3 0.1 C 0 km/h
Sensor: Nr:Datum:Temp:Abs-Feuchte:Windchill:Wind:
Aussen-T/F 501 23-01-2010 04:13:03 0 C 3.59 g/m*3 0 C 0 km/h
502 23-01-2010 04:25:03 -0.1 C 3.56 g/m*3 -0.1 C 0 km/h
503 23-01-2010 04:37:03 -0.2 C 3.54 g/m*3 -0.2 C 0 km/h
504 23-01-2010 04:49:03 -0.2 C 3.54 g/m*3 -0.2 C 0 km/h
505 23-01-2010 05:01:03 -0.3 C 3.51 g/m*3 -0.3 C 0 km/h
506 23-01-2010 05:13:03 -0.3 C 3.51 g/m*3 -0.3 C 0 km/h
507 23-01-2010 05:25:03 -0.3 C 3.51 g/m*3 -0.3 C 0 km/h
508 23-01-2010 05:37:03 -0.4 C 3.44 g/m*3 -0.4 C 0 km/h
509 23-01-2010 05:49:03 -0.5 C 3.46 g/m*3 -0.5 C 0 km/h
510 23-01-2010 06:01:04 -0.5 C 3.46 g/m*3 -0.5 C 0 km/h
511 23-01-2010 06:13:04 -0.6 C 3.44 g/m*3 -0.6 C 0 km/h
512 23-01-2010 06:25:04 -0.5 C 3.46 g/m*3 -0.5 C 0 km/h
513 23-01-2010 06:37:04 -0.6 C 3.44 g/m*3 -0.6 C 0 km/h
514 23-01-2010 06:49:04 -0.7 C 3.42 g/m*3 -0.7 C 0 km/h
515 23-01-2010 07:01:04 -1 C 3.35 g/m*3 -1 C 0 km/h
516 23-01-2010 07:13:04 -1 C 3.39 g/m*3 -1 C 0 km/h
517 23-01-2010 07:25:04 -1 C 3.39 g/m*3 -1 C 0 km/h
518 23-01-2010 07:37:04 -1.1 C 3.32 g/m*3 -1.1 C 0 km/h
519 23-01-2010 07:49:04 -1.1 C 3.37 g/m*3 -1.1 C 0 km/h
520 23-01-2010 08:01:04 -1 C 3.35 g/m*3 -1 C 0 km/h
521 23-01-2010 08:13:04 -1.1 C 3.32 g/m*3 -1.1 C 0 km/h
522 23-01-2010 08:25:02 -1.1 C 3.28 g/m*3 -1.1 C 0 km/h
523 23-01-2010 08:37:02 -1.1 C 3.23 g/m*3 -1.1 C 0 km/h
524 23-01-2010 08:49:01 -1.1 C 3.23 g/m*3 -1.1 C 0 km/h
525 23-01-2010 09:01:02 -1 C 3.25 g/m*3 -1 C 0 km/h
Sensor: Nr:Datum:Temp:Abs-Feuchte:Windchill:Wind:
Aussen-T/F 526 23-01-2010 09:13:02 -1 C 3.21 g/m*3 -1 C 0 km/h
527 23-01-2010 09:25:02 -1 C 3.21 g/m*3 -1 C 0 km/h
528 23-01-2010 09:37:02 -1.1 C 3.19 g/m*3 -1.1 C 0 km/h
529 23-01-2010 09:49:03 -1.2 C 3.17 g/m*3 -1.2 C 0 km/h
530 23-01-2010 10:01:03 -1.2 C 3.17 g/m*3 -1.2 C 0 km/h
531 23-01-2010 10:13:03 -1.1 C 3.19 g/m*3 -1.1 C 0 km/h
532 23-01-2010 10:25:02 -1.1 C 3.19 g/m*3 -1.1 C 0 km/h
533 23-01-2010 10:37:03 -1.2 C 3.12 g/m*3 -1.2 C 0 km/h
534 23-01-2010 10:49:02 -1 C 3.21 g/m*3 -1 C 0 km/h
535 23-01-2010 11:01:02 -1 C 3.16 g/m*3 -1 C 0 km/h
536 23-01-2010 11:13:02 -1 C 3.16 g/m*3 -1 C 0 km/h
537 23-01-2010 11:25:02 -0.9 C 3.19 g/m*3 -0.9 C 0 km/h
538 23-01-2010 11:37:02 -0.6 C 3.25 g/m*3 -0.6 C 0 km/h
539 23-01-2010 11:49:02 -0.8 C 3.16 g/m*3 -0.8 C 0 km/h
540 23-01-2010 12:01:03 -0.9 C 3.19 g/m*3 -0.9 C 0 km/h
541 23-01-2010 12:13:03 -0.8 C 3.21 g/m*3 -0.8 C 0 km/h
542 23-01-2010 12:25:02 -0.7 C 3.23 g/m*3 -0.7 C 0 km/h
543 23-01-2010 12:37:02 -0.6 C 3.25 g/m*3 -0.6 C 0 km/h
544 23-01-2010 12:49:01 -0.5 C 3.28 g/m*3 -0.5 C 0 km/h
545 23-01-2010 13:01:02 -0.6 C 3.25 g/m*3 -0.6 C 0 km/h
546 23-01-2010 13:13:02 -0.5 C 3.28 g/m*3 -0.5 C 0 km/h
547 23-01-2010 13:25:01 -0.6 C 3.25 g/m*3 -0.6 C 0 km/h
548 23-01-2010 13:37:02 -0.5 C 3.28 g/m*3 -0.5 C 0 km/h
549 23-01-2010 13:49:01 -0.4 C 3.3 g/m*3 -0.4 C 0 km/h
550 23-01-2010 14:01:02 -0.3 C 3.32 g/m*3 -0.3 C 0 km/h
Sensor: Nr:Datum:Temp:Abs-Feuchte:Windchill:Wind:
Aussen-T/F 551 23-01-2010 14:13:02 -0.3 C 3.32 g/m*3 -0.3 C 0 km/h
552 23-01-2010 14:25:01 -0.3 C 3.27 g/m*3 -0.3 C 0 km/h
553 23-01-2010 14:37:02 -0.3 C 3.27 g/m*3 -0.3 C 0 km/h
554 23-01-2010 14:49:01 -0.3 C 3.32 g/m*3 -0.3 C 0 km/h
555 23-01-2010 15:01:02 -0.5 C 3.28 g/m*3 -0.5 C 0 km/h
556 23-01-2010 15:13:02 -0.6 C 3.25 g/m*3 -0.6 C 0 km/h
557 23-01-2010 15:25:02 -0.6 C 3.25 g/m*3 -0.6 C 0 km/h
558 23-01-2010 15:37:02 -0.6 C 3.3 g/m*3 -0.6 C 0 km/h
559 23-01-2010 15:49:02 -0.6 C 3.3 g/m*3 -0.6 C 0 km/h
560 23-01-2010 16:01:02 -0.5 C 3.32 g/m*3 -0.5 C 0 km/h
561 23-01-2010 16:13:02 -0.6 C 3.3 g/m*3 -0.6 C 0 km/h
562 23-01-2010 16:25:02 -0.7 C 3.28 g/m*3 -0.7 C 0 km/h
563 23-01-2010 16:37:01 -0.7 C 3.32 g/m*3 -0.7 C 0 km/h
564 23-01-2010 16:49:02 -0.7 C 3.32 g/m*3 -0.7 C 0 km/h
565 23-01-2010 17:01:01 -0.7 C 3.32 g/m*3 -0.7 C 0 km/h
566 23-01-2010 17:13:01 -0.6 C 3.35 g/m*3 -0.6 C 0 km/h
567 23-01-2010 17:25:02 -0.6 C 3.35 g/m*3 -0.6 C 0 km/h
568 23-01-2010 17:37:01 -0.5 C 3.42 g/m*3 -0.5 C 0 km/h
569 23-01-2010 17:49:02 -0.6 C 3.35 g/m*3 -0.6 C 0 km/h
570 23-01-2010 18:01:02 -0.5 C 3.37 g/m*3 -0.5 C 0 km/h
571 23-01-2010 18:13:02 -0.6 C 3.35 g/m*3 -0.6 C 0 km/h
572 23-01-2010 18:25:02 -0.6 C 3.35 g/m*3 -0.6 C 0 km/h
573 23-01-2010 18:37:03 -0.7 C 3.32 g/m*3 -0.7 C 0 km/h
574 23-01-2010 18:49:02 -0.8 C 3.3 g/m*3 -0.8 C 0 km/h
575 23-01-2010 19:01:01 -0.8 C 3.3 g/m*3 -0.8 C 0 km/h
Sensor: Nr:Datum:Temp:Abs-Feuchte:Windchill:Wind:
Aussen-T/F 576 23-01-2010 19:13:01 -0.7 C 3.32 g/m*3 -0.7 C 0 km/h
577 23-01-2010 19:25:02 -0.7 C 3.32 g/m*3 -0.7 C 0 km/h
578 23-01-2010 19:37:02 -0.7 C 3.28 g/m*3 -0.7 C 0 km/h
579 23-01-2010 19:49:02 -0.6 C 3.3 g/m*3 -0.6 C 0 km/h
580 23-01-2010 20:01:03 -0.7 C 3.23 g/m*3 -0.7 C 0 km/h
581 23-01-2010 20:13:03 -0.7 C 3.23 g/m*3 -0.7 C 0 km/h
582 23-01-2010 20:25:02 -0.7 C 3.23 g/m*3 -0.7 C 0 km/h
583 23-01-2010 20:37:02 -0.6 C 3.25 g/m*3 -0.6 C 0 km/h
584 23-01-2010 20:49:02 -0.6 C 3.25 g/m*3 -0.6 C 0 km/h
585 23-01-2010 21:01:02 -0.6 C 3.25 g/m*3 -0.6 C 0 km/h
586 23-01-2010 21:13:02 -0.6 C 3.25 g/m*3 -0.6 C 0 km/h
587 23-01-2010 21:25:01 -0.5 C 3.28 g/m*3 -0.5 C 0 km/h
588 23-01-2010 21:37:02 -0.6 C 3.25 g/m*3 -0.6 C 0 km/h
589 23-01-2010 21:49:02 -0.6 C 3.25 g/m*3 -0.6 C 0 km/h
590 23-01-2010 22:01:02 -0.5 C 3.28 g/m*3 -0.5 C 0 km/h
591 23-01-2010 22:13:02 -0.5 C 3.28 g/m*3 -0.5 C 0 km/h
592 23-01-2010 22:26:02 -0.5 C 3.28 g/m*3 -0.5 C 0 km/h
593 23-01-2010 22:38:02 -0.5 C 3.28 g/m*3 -0.5 C 0 km/h
594 23-01-2010 22:50:02 -0.5 C 3.28 g/m*3 -0.5 C 0 km/h
595 23-01-2010 23:02:02 -0.5 C 3.28 g/m*3 -0.5 C 0 km/h
596 23-01-2010 23:14:02 -0.5 C 3.23 g/m*3 -0.5 C 0 km/h
597 23-01-2010 23:26:02 -0.5 C 3.28 g/m*3 -0.5 C 0 km/h
598 23-01-2010 23:38:02 -0.3 C 3.32 g/m*3 -0.3 C 0 km/h
599 23-01-2010 23:50:02 -0.5 C 3.23 g/m*3 -0.5 C 0 km/h
600 24-01-2010 00:02:02 -0.5 C 3.23 g/m*3 -0.5 C 0 km/h
Sensor: Nr:Datum:Temp:Abs-Feuchte:Windchill:Wind:
Aussen-T/F 601 24-01-2010 00:14:02 -0.5 C 3.23 g/m*3 -0.5 C 0 km/h
602 24-01-2010 00:26:02 -0.5 C 3.23 g/m*3 -0.5 C 0 km/h
603 24-01-2010 00:38:02 -0.5 C 3.23 g/m*3 -0.5 C 0 km/h
604 24-01-2010 00:50:02 -0.5 C 3.28 g/m*3 -0.5 C 0 km/h
605 24-01-2010 01:02:02 -0.5 C 3.23 g/m*3 -0.5 C 0 km/h
606 24-01-2010 01:14:03 -0.5 C 3.23 g/m*3 -0.5 C 0 km/h
607 24-01-2010 01:26:03 -0.5 C 3.23 g/m*3 -0.5 C 0 km/h
608 24-01-2010 01:38:03 -0.5 C 3.23 g/m*3 -0.5 C 0 km/h
609 24-01-2010 01:50:03 -0.5 C 3.28 g/m*3 -0.5 C 0 km/h
610 24-01-2010 02:02:03 -0.5 C 3.23 g/m*3 -0.5 C 0 km/h
611 24-01-2010 02:14:03 -0.5 C 3.23 g/m*3 -0.5 C 0 km/h
612 24-01-2010 02:26:03 -0.5 C 3.23 g/m*3 -0.5 C 0 km/h
613 24-01-2010 02:38:03 -0.3 C 3.32 g/m*3 -0.3 C 0 km/h
614 24-01-2010 02:50:03 -0.5 C 3.28 g/m*3 -0.5 C 0 km/h
615 24-01-2010 03:02:03 -0.6 C 3.35 g/m*3 -0.6 C 0 km/h
616 24-01-2010 03:14:03 -0.6 C 3.39 g/m*3 -0.6 C 0 km/h
617 24-01-2010 03:26:03 -0.5 C 3.46 g/m*3 -0.5 C 0 km/h
618 24-01-2010 03:38:03 -0.6 C 3.44 g/m*3 -0.6 C 0 km/h
619 24-01-2010 03:50:03 -0.6 C 3.49 g/m*3 -0.6 C 0 km/h
620 24-01-2010 04:02:03 -0.6 C 3.53 g/m*3 -0.6 C 0 km/h
621 24-01-2010 04:14:03 -0.6 C 3.58 g/m*3 -0.6 C 0 km/h
622 24-01-2010 04:26:03 -0.5 C 3.65 g/m*3 -0.5 C 0 km/h
623 24-01-2010 04:38:03 -0.4 C 3.68 g/m*3 -0.4 C 0 km/h
624 24-01-2010 04:50:03 -0.3 C 3.7 g/m*3 -0.3 C 0 km/h
625 24-01-2010 05:02:03 -0.3 C 3.75 g/m*3 -0.3 C 0 km/h
Sensor: Nr:Datum:Temp:Abs-Feuchte:Windchill:Wind:
Aussen-T/F 626 24-01-2010 05:14:03 -0.3 C 3.75 g/m*3 -0.3 C 0 km/h
627 24-01-2010 05:26:04 -0.3 C 3.8 g/m*3 -0.3 C 0 km/h
628 24-01-2010 05:38:04 -0.3 C 3.8 g/m*3 -0.3 C 0 km/h
629 24-01-2010 05:50:04 -0.3 C 3.8 g/m*3 -0.3 C 0 km/h
630 24-01-2010 06:02:04 -0.4 C 3.82 g/m*3 -0.4 C 0 km/h
631 24-01-2010 06:14:04 -0.5 C 3.79 g/m*3 -0.5 C 0 km/h
632 24-01-2010 06:26:04 -0.4 C 3.86 g/m*3 -0.4 C 0 km/h
633 24-01-2010 06:38:04 -0.4 C 3.86 g/m*3 -0.4 C 0 km/h
634 24-01-2010 06:50:04 -0.4 C 3.86 g/m*3 -0.4 C 0 km/h
635 24-01-2010 07:02:04 -0.4 C 3.86 g/m*3 -0.4 C 0 km/h
636 24-01-2010 07:14:04 -0.5 C 3.88 g/m*3 -0.5 C 0 km/h
637 24-01-2010 07:26:04 -0.4 C 3.91 g/m*3 -0.4 C 0 km/h
638 24-01-2010 07:38:04 -0.5 C 3.88 g/m*3 -0.5 C 0 km/h
639 24-01-2010 07:50:04 -0.5 C 3.93 g/m*3 -0.5 C 0 km/h
640 24-01-2010 08:02:04 -0.6 C 3.9 g/m*3 -0.6 C 0 km/h
641 24-01-2010 08:14:04 -0.5 C 3.98 g/m*3 -0.5 C 0 km/h
642 24-01-2010 08:26:04 -0.4 C 4.01 g/m*3 -0.4 C 0 km/h
643 24-01-2010 08:38:04 -0.4 C 4.01 g/m*3 -0.4 C 0 km/h
644 24-01-2010 08:50:04 -0.4 C 4.05 g/m*3 -0.4 C 0 km/h
645 24-01-2010 09:02:01 -0.4 C 4.05 g/m*3 -0.4 C 0 km/h
646 24-01-2010 09:14:01 -0.3 C 4.08 g/m*3 -0.3 C 0 km/h
647 24-01-2010 09:26:02 -0.3 C 4.08 g/m*3 -0.3 C 0 km/h
648 24-01-2010 09:38:02 -0.2 C 4.11 g/m*3 -0.2 C 0 km/h
649 24-01-2010 09:50:02 -0.1 C 4.14 g/m*3 -0.1 C 0 km/h
650 24-01-2010 10:02:01 0.1 C 4.2 g/m*3 0.1 C 0 km/h
Sensor: Nr:Datum:Temp:Abs-Feuchte:Windchill:Wind:
Aussen-T/F 651 24-01-2010 10:14:01 0.2 C 4.22 g/m*3 0.2 C 0 km/h
652 24-01-2010 10:26:02 0.2 C 4.22 g/m*3 0.2 C 0 km/h
653 24-01-2010 10:38:01 0.3 C 4.2 g/m*3 0.3 C 0 km/h
654 24-01-2010 10:50:02 0.5 C 4.26 g/m*3 0.5 C 0 km/h
655 24-01-2010 11:02:02 0.5 C 4.26 g/m*3 0.5 C 0 km/h
656 24-01-2010 11:14:02 0.7 C 4.27 g/m*3 0.7 C 0 km/h
657 24-01-2010 11:26:02 0.9 C 4.33 g/m*3 0.9 C 0 km/h
658 24-01-2010 11:38:02 0.9 C 4.28 g/m*3 0.9 C 0 km/h
659 24-01-2010 11:50:02 0.9 C 4.23 g/m*3 0.9 C 0 km/h
660 24-01-2010 12:02:02 0.8 C 4.15 g/m*3 0.8 C 0 km/h
661 24-01-2010 12:14:02 0.8 C 4.15 g/m*3 0.8 C 0 km/h
662 24-01-2010 12:26:02 0.8 C 4.15 g/m*3 0.8 C 0 km/h
663 24-01-2010 12:38:02 1 C 4.2 g/m*3 1 C 0 km/h
664 24-01-2010 12:50:02 1.1 C 4.23 g/m*3 1.1 C 0 km/h
665 24-01-2010 13:02:01 1.1 C 4.23 g/m*3 1.1 C 0 km/h
666 24-01-2010 13:14:01 1.2 C 4.31 g/m*3 1.2 C 0 km/h
667 24-01-2010 13:26:02 1.2 C 4.31 g/m*3 1.2 C 0 km/h
668 24-01-2010 13:38:01 1.4 C 4.43 g/m*3 1.4 C 0 km/h
669 24-01-2010 13:50:01 1.4 C 4.43 g/m*3 1.4 C 0 km/h
670 24-01-2010 14:02:01 1.6 C 4.49 g/m*3 1.6 C 0 km/h
671 24-01-2010 14:14:01 1.7 C 4.52 g/m*3 1.7 C 0 km/h
672 24-01-2010 14:26:01 1.6 C 4.49 g/m*3 1.6 C 0 km/h
673 24-01-2010 14:38:02 1.7 C 4.52 g/m*3 1.7 C 0 km/h
674 24-01-2010 14:50:02 1.5 C 4.4 g/m*3 1.5 C 0 km/h
675 24-01-2010 15:02:02 1.4 C 4.37 g/m*3 1.4 C 0 km/h
Sensor: Nr:Datum:Temp:Abs-Feuchte:Windchill:Wind:
Aussen-T/F 676 24-01-2010 15:14:02 1.1 C 4.29 g/m*3 1.1 C 0 km/h
677 24-01-2010 15:26:02 1.3 C 4.4 g/m*3 1.3 C 0 km/h
678 24-01-2010 15:38:02 1.3 C 4.4 g/m*3 1.3 C 0 km/h
679 24-01-2010 15:50:02 1.3 C 4.4 g/m*3 1.3 C 0 km/h
680 24-01-2010 16:02:02 1.3 C 4.45 g/m*3 1.3 C 0 km/h
681 24-01-2010 16:14:02 1.2 C 4.42 g/m*3 1.2 C 0 km/h
682 24-01-2010 16:26:02 1.3 C 4.45 g/m*3 1.3 C 0 km/h
683 24-01-2010 16:38:02 1.3 C 4.45 g/m*3 1.3 C 0 km/h
684 24-01-2010 16:50:01 1.2 C 4.42 g/m*3 1.2 C 0 km/h
685 24-01-2010 17:02:02 1.1 C 4.39 g/m*3 1.1 C 0 km/h
686 24-01-2010 17:14:03 1 C 4.41 g/m*3 1 C 0 km/h
687 24-01-2010 17:26:01 1 C 4.46 g/m*3 1 C 0 km/h
688 24-01-2010 17:38:01 1 C 4.46 g/m*3 1 C 0 km/h
689 24-01-2010 17:50:01 1 C 4.46 g/m*3 1 C 0 km/h
690 24-01-2010 18:02:01 0.9 C 4.48 g/m*3 0.9 C 0 km/h
691 24-01-2010 18:14:01 0.7 C 4.37 g/m*3 0.7 C 0 km/h
692 24-01-2010 18:26:02 0.7 C 4.37 g/m*3 0.7 C 0 km/h
693 24-01-2010 18:38:01 0.6 C 4.39 g/m*3 0.6 C 0 km/h
694 24-01-2010 18:50:01 0.6 C 4.39 g/m*3 0.6 C 0 km/h
695 24-01-2010 19:02:01 0.5 C 4.36 g/m*3 0.5 C 0 km/h
696 24-01-2010 19:14:01 0.6 C 4.44 g/m*3 0.6 C 0 km/h
697 24-01-2010 19:26:01 0.6 C 4.44 g/m*3 0.6 C 0 km/h
698 24-01-2010 19:38:01 0.6 C 4.44 g/m*3 0.6 C 0 km/h
699 24-01-2010 19:50:01 0.5 C 4.41 g/m*3 0.5 C 0 km/h
700 24-01-2010 20:02:02 0.5 C 4.41 g/m*3 0.5 C 0 km/h
Sensor: Nr:Datum:Temp:Abs-Feuchte:Windchill:Wind:
Aussen-T/F 701 24-01-2010 20:14:03 0.5 C 4.46 g/m*3 0.5 C 0 km/h
702 24-01-2010 20:26:01 0.6 C 4.49 g/m*3 0.6 C 0 km/h
703 24-01-2010 20:38:01 0.6 C 4.49 g/m*3 0.6 C 0 km/h
704 24-01-2010 20:50:01 0.5 C 4.41 g/m*3 0.5 C 0 km/h
705 24-01-2010 21:02:02 0.5 C 4.46 g/m*3 0.5 C 0 km/h
706 24-01-2010 21:14:02 0.5 C 4.41 g/m*3 0.5 C 0 km/h
707 24-01-2010 21:26:02 0.4 C 4.38 g/m*3 0.4 C 0 km/h
708 24-01-2010 21:38:01 0.4 C 4.38 g/m*3 0.4 C 0 km/h
709 24-01-2010 21:50:01 0.4 C 4.43 g/m*3 0.4 C 0 km/h
710 24-01-2010 22:02:01 0.2 C 4.37 g/m*3 0.2 C 0 km/h
711 24-01-2010 22:14:01 0.2 C 4.37 g/m*3 0.2 C 0 km/h
712 24-01-2010 22:26:02 0.2 C 4.37 g/m*3 0.2 C 0 km/h
713 24-01-2010 22:38:01 0.2 C 4.37 g/m*3 0.2 C 0 km/h
714 24-01-2010 22:50:01 0.2 C 4.37 g/m*3 0.2 C 0 km/h
715 24-01-2010 23:02:01 0.2 C 4.42 g/m*3 0.2 C 0 km/h
716 24-01-2010 23:14:01 0.1 C 4.39 g/m*3 0.1 C 0 km/h
717 24-01-2010 23:27:02 0.1 C 4.39 g/m*3 0.1 C 0 km/h
718 24-01-2010 23:39:02 0.1 C 4.44 g/m*3 0.1 C 0 km/h
719 24-01-2010 23:51:02 0.1 C 4.44 g/m*3 0.1 C 0 km/h
720 25-01-2010 00:03:02 0.1 C 4.44 g/m*3 0.1 C 0 km/h
721 25-01-2010 00:15:02 0.1 C 4.44 g/m*3 0.1 C 0 km/h
722 25-01-2010 00:27:02 0.1 C 4.44 g/m*3 0.1 C 0 km/h
723 25-01-2010 00:39:02 0.1 C 4.44 g/m*3 0.1 C 0 km/h
724 25-01-2010 00:51:02 0.1 C 4.44 g/m*3 0.1 C 0 km/h
725 25-01-2010 01:03:02 0.1 C 4.44 g/m*3 0.1 C 0 km/h
Sensor: Nr:Datum:Temp:Abs-Feuchte:Windchill:Wind:
Aussen-T/F 726 25-01-2010 01:15:02 0.1 C 4.44 g/m*3 0.1 C 0 km/h
727 25-01-2010 01:27:02 0.1 C 4.44 g/m*3 0.1 C 0 km/h
728 25-01-2010 01:39:02 0 C 4.41 g/m*3 0 C 0 km/h
729 25-01-2010 01:51:02 0 C 4.46 g/m*3 0 C 0 km/h
730 25-01-2010 02:03:02 0 C 4.46 g/m*3 0 C 0 km/h
731 25-01-2010 02:15:02 0 C 4.46 g/m*3 0 C 0 km/h
732 25-01-2010 02:27:02 0 C 4.46 g/m*3 0 C 0 km/h
733 25-01-2010 02:39:03 0 C 4.46 g/m*3 0 C 0 km/h
734 25-01-2010 02:51:03 0 C 4.46 g/m*3 0 C 0 km/h
735 25-01-2010 03:03:03 0 C 4.46 g/m*3 0 C 0 km/h
736 25-01-2010 03:15:03 -0.1 C 4.43 g/m*3 -0.1 C 0 km/h
737 25-01-2010 03:27:03 -0.1 C 4.43 g/m*3 -0.1 C 0 km/h
738 25-01-2010 03:39:03 -0.1 C 4.43 g/m*3 -0.1 C 0 km/h
739 25-01-2010 03:51:03 -0.1 C 4.43 g/m*3 -0.1 C 0 km/h
740 25-01-2010 04:03:03 -0.1 C 4.43 g/m*3 -0.1 C 0 km/h
741 25-01-2010 04:15:03 -0.1 C 4.38 g/m*3 -0.1 C 0 km/h
742 25-01-2010 04:27:03 -0.1 C 4.38 g/m*3 -0.1 C 0 km/h
743 25-01-2010 04:39:03 -0.1 C 4.38 g/m*3 -0.1 C 0 km/h
744 25-01-2010 04:51:03 -0.2 C 4.35 g/m*3 -0.2 C 0 km/h
745 25-01-2010 05:03:03 -0.2 C 4.35 g/m*3 -0.2 C 0 km/h
746 25-01-2010 05:15:03 -0.2 C 4.35 g/m*3 -0.2 C 0 km/h
747 25-01-2010 05:27:03 -0.2 C 4.35 g/m*3 -0.2 C 0 km/h
748 25-01-2010 05:39:03 -0.2 C 4.35 g/m*3 -0.2 C 0 km/h
749 25-01-2010 05:51:03 -0.2 C 4.35 g/m*3 -0.2 C 0 km/h
750 25-01-2010 06:03:03 -0.3 C 4.27 g/m*3 -0.3 C 0 km/h
Sensor: Nr:Datum:Temp:Abs-Feuchte:Windchill:Wind:
Aussen-T/F 751 25-01-2010 06:15:03 -0.3 C 4.27 g/m*3 -0.3 C 0 km/h
752 25-01-2010 06:27:03 -0.3 C 4.27 g/m*3 -0.3 C 0 km/h
753 25-01-2010 06:39:04 -0.3 C 4.27 g/m*3 -0.3 C 0 km/h
754 25-01-2010 06:51:04 -0.3 C 4.27 g/m*3 -0.3 C 0 km/h
755 25-01-2010 07:03:01 -0.3 C 4.27 g/m*3 -0.3 C 0 km/h
756 25-01-2010 07:15:02 -0.3 C 4.22 g/m*3 -0.3 C 0 km/h
757 25-01-2010 07:27:02 -0.4 C 4.19 g/m*3 -0.4 C 0 km/h
758 25-01-2010 07:39:01 -0.5 C 4.17 g/m*3 -0.5 C 0 km/h
759 25-01-2010 07:51:03 -0.5 C 4.17 g/m*3 -0.5 C 0 km/h
760 25-01-2010 08:03:02 -0.6 C 4.14 g/m*3 -0.6 C 0 km/h
761 25-01-2010 08:15:02 -0.7 C 4.11 g/m*3 -0.7 C 0 km/h
762 25-01-2010 08:27:03 -0.7 C 4.11 g/m*3 -0.7 C 0 km/h
763 25-01-2010 08:39:02 -0.7 C 4.11 g/m*3 -0.7 C 0 km/h
764 25-01-2010 08:51:02 -0.6 C 4.14 g/m*3 -0.6 C 0 km/h
765 25-01-2010 09:03:02 -0.3 C 4.18 g/m*3 -0.3 C 0 km/h
766 25-01-2010 09:15:02 -0.3 C 4.18 g/m*3 -0.3 C 0 km/h
767 25-01-2010 09:27:02 -0.3 C 4.18 g/m*3 -0.3 C 0 km/h
768 25-01-2010 09:39:02 -0.3 C 4.13 g/m*3 -0.3 C 0 km/h
769 25-01-2010 09:51:02 -0.3 C 4.08 g/m*3 -0.3 C 0 km/h
770 25-01-2010 10:03:03 -0.2 C 4.01 g/m*3 -0.2 C 0 km/h
771 25-01-2010 10:15:02 -0.1 C 4.04 g/m*3 -0.1 C 0 km/h
772 25-01-2010 10:27:02 0 C 4.02 g/m*3 0 C 0 km/h
773 25-01-2010 10:39:02 0.1 C 4.05 g/m*3 0.1 C 0 km/h
774 25-01-2010 10:51:01 0.2 C 4.08 g/m*3 0.2 C 0 km/h
775 25-01-2010 11:03:02 0.3 C 4.06 g/m*3 0.3 C 0 km/h
Sensor: Nr:Datum:Temp:Abs-Feuchte:Windchill:Wind:
Aussen-T/F 776 25-01-2010 11:15:01 0.4 C 4.13 g/m*3 0.4 C 0 km/h
777 25-01-2010 11:27:01 0.4 C 4.08 g/m*3 0.4 C 0 km/h
778 25-01-2010 11:39:02 0.4 C 4.03 g/m*3 0.4 C 0 km/h
779 25-01-2010 11:51:01 0.6 C 4.09 g/m*3 0.6 C 0 km/h
780 25-01-2010 12:03:02 0.7 C 4.12 g/m*3 0.7 C 0 km/h
781 25-01-2010 12:15:01 0.9 C 4.12 g/m*3 0.9 C 0 km/h
782 25-01-2010 12:27:01 1.2 C 4.16 g/m*3 1.2 C 0 km/h
783 25-01-2010 12:39:02 1.2 C 4.05 g/m*3 1.2 C 0 km/h
784 25-01-2010 12:51:01 1.1 C 3.87 g/m*3 1.1 C 0 km/h
785 25-01-2010 13:03:02 1 C 3.84 g/m*3 1 C 0 km/h
786 25-01-2010 13:15:02 1 C 3.84 g/m*3 1 C 0 km/h
787 25-01-2010 13:27:02 0.9 C 3.87 g/m*3 0.9 C 0 km/h
788 25-01-2010 13:39:01 1 C 3.84 g/m*3 1 C 0 km/h
789 25-01-2010 13:51:02 1.2 C 3.95 g/m*3 1.2 C 0 km/h
790 25-01-2010 14:03:01 1.2 C 3.95 g/m*3 1.2 C 0 km/h
791 25-01-2010 14:15:02 1.2 C 3.95 g/m*3 1.2 C 0 km/h
792 25-01-2010 14:27:03 1.1 C 3.92 g/m*3 1.1 C 0 km/h
793 25-01-2010 14:39:01 1.1 C 3.92 g/m*3 1.1 C 0 km/h
794 25-01-2010 14:51:02 1 C 3.94 g/m*3 1 C 0 km/h
795 25-01-2010 15:03:02 1 C 3.94 g/m*3 1 C 0 km/h
796 25-01-2010 15:15:02 1 C 3.94 g/m*3 1 C 0 km/h
797 25-01-2010 15:27:02 0.8 C 3.99 g/m*3 0.8 C 0 km/h
798 25-01-2010 15:39:02 1 C 4.05 g/m*3 1 C 0 km/h
799 25-01-2010 15:51:02 1.1 C 4.13 g/m*3 1.1 C 0 km/h
800 25-01-2010 16:03:01 1 C 4.1 g/m*3 1 C 0 km/h
Sensor: Nr:Datum:Temp:Abs-Feuchte:Windchill:Wind:
Aussen-T/F 801 25-01-2010 16:15:02 0.9 C 4.18 g/m*3 0.9 C 0 km/h
802 25-01-2010 16:27:02 0.7 C 4.12 g/m*3 0.7 C 0 km/h
803 25-01-2010 16:39:02 0.7 C 4.17 g/m*3 0.7 C 0 km/h
804 25-01-2010 16:51:02 0.7 C 4.17 g/m*3 0.7 C 0 km/h
805 25-01-2010 17:03:01 0.6 C 4.14 g/m*3 0.6 C 0 km/h
806 25-01-2010 17:15:01 0.5 C 4.11 g/m*3 0.5 C 0 km/h
807 25-01-2010 17:27:01 0.4 C 4.08 g/m*3 0.4 C 0 km/h
808 25-01-2010 17:39:02 0.3 C 4.11 g/m*3 0.3 C 0 km/h
809 25-01-2010 17:51:02 0.2 C 4.13 g/m*3 0.2 C 0 km/h
810 25-01-2010 18:03:03 0.2 C 4.13 g/m*3 0.2 C 0 km/h
811 25-01-2010 18:15:02 0.2 C 4.22 g/m*3 0.2 C 0 km/h
812 25-01-2010 18:27:02 0 C 4.22 g/m*3 0 C 0 km/h
813 25-01-2010 18:39:01 0 C 4.26 g/m*3 0 C 0 km/h
814 25-01-2010 18:51:02 -0.2 C 4.21 g/m*3 -0.2 C 0 km/h
815 25-01-2010 19:03:01 -0.4 C 4.19 g/m*3 -0.4 C 0 km/h
816 25-01-2010 19:15:02 -0.5 C 4.21 g/m*3 -0.5 C 0 km/h
817 25-01-2010 19:27:02 -0.5 C 4.21 g/m*3 -0.5 C 0 km/h
818 25-01-2010 19:39:02 -0.5 C 4.26 g/m*3 -0.5 C 0 km/h
819 25-01-2010 19:51:02 -0.6 C 4.23 g/m*3 -0.6 C 0 km/h
820 25-01-2010 20:03:03 -0.5 C 4.26 g/m*3 -0.5 C 0 km/h
821 25-01-2010 20:15:02 -0.6 C 4.23 g/m*3 -0.6 C 0 km/h
822 25-01-2010 20:27:02 -0.6 C 4.23 g/m*3 -0.6 C 0 km/h
823 25-01-2010 20:39:02 -0.7 C 4.2 g/m*3 -0.7 C 0 km/h
824 25-01-2010 20:51:01 -0.8 C 4.17 g/m*3 -0.8 C 0 km/h
825 25-01-2010 21:03:02 -0.7 C 4.2 g/m*3 -0.7 C 0 km/h
Sensor: Nr:Datum:Temp:Abs-Feuchte:Windchill:Wind:
Aussen-T/F 826 25-01-2010 21:15:01 -0.6 C 4.23 g/m*3 -0.6 C 0 km/h
827 25-01-2010 21:27:01 -0.7 C 4.15 g/m*3 -0.7 C 0 km/h
828 25-01-2010 21:39:02 -0.7 C 4.15 g/m*3 -0.7 C 0 km/h
829 25-01-2010 21:51:02 -0.8 C 4.08 g/m*3 -0.8 C 0 km/h
830 25-01-2010 22:03:02 -0.7 C 4.11 g/m*3 -0.7 C 0 km/h
831 25-01-2010 22:15:02 -0.6 C 4.14 g/m*3 -0.6 C 0 km/h
832 25-01-2010 22:27:02 -0.8 C 4.03 g/m*3 -0.8 C 0 km/h
833 25-01-2010 22:40:03 -0.7 C 4.06 g/m*3 -0.7 C 0 km/h
834 25-01-2010 22:52:03 -0.9 C 4.01 g/m*3 -0.9 C 0 km/h
835 25-01-2010 23:04:03 -0.9 C 3.96 g/m*3 -0.9 C 0 km/h
836 25-01-2010 23:16:03 -0.8 C 4.03 g/m*3 -0.8 C 0 km/h
837 25-01-2010 23:28:03 -0.9 C 3.96 g/m*3 -0.9 C 0 km/h
838 25-01-2010 23:40:03 -1 C 3.93 g/m*3 -1 C 0 km/h
839 25-01-2010 23:52:03 -1 C 3.93 g/m*3 -1 C 0 km/h
840 26-01-2010 00:04:03 -1.1 C 3.91 g/m*3 -1.1 C 0 km/h
841 26-01-2010 00:16:03 -1.1 C 3.91 g/m*3 -1.1 C 0 km/h
842 26-01-2010 00:28:03 -1.1 C 3.91 g/m*3 -1.1 C 0 km/h
843 26-01-2010 00:40:03 -1.1 C 3.91 g/m*3 -1.1 C 0 km/h
844 26-01-2010 00:52:03 -1.4 C 3.82 g/m*3 -1.4 C 0 km/h
845 26-01-2010 01:04:03 -1.5 C 3.84 g/m*3 -1.5 C 0 km/h
846 26-01-2010 01:16:03 -1.6 C 3.81 g/m*3 -1.6 C 0 km/h
847 26-01-2010 01:28:03 -1.4 C 3.87 g/m*3 -1.4 C 0 km/h
848 26-01-2010 01:40:04 -1.7 C 3.79 g/m*3 -1.7 C 0 km/h
849 26-01-2010 01:52:04 -1.6 C 3.81 g/m*3 -1.6 C 0 km/h
850 26-01-2010 02:04:04 -1.5 C 3.84 g/m*3 -1.5 C 0 km/h
Sensor: Nr:Datum:Temp:Abs-Feuchte:Windchill:Wind:
Aussen-T/F 851 26-01-2010 02:16:04 -1.7 C 3.79 g/m*3 -1.7 C 0 km/h
852 26-01-2010 02:28:04 -1.8 C 3.76 g/m*3 -1.8 C 0 km/h
853 26-01-2010 02:40:04 -1.8 C 3.76 g/m*3 -1.8 C 0 km/h
854 26-01-2010 02:52:04 -1.9 C 3.74 g/m*3 -1.9 C 0 km/h
855 26-01-2010 03:04:04 -1.7 C 3.79 g/m*3 -1.7 C 0 km/h
856 26-01-2010 03:16:04 -1.7 C 3.79 g/m*3 -1.7 C 0 km/h
857 26-01-2010 03:28:04 -1.8 C 3.76 g/m*3 -1.8 C 0 km/h
858 26-01-2010 03:40:04 -2.1 C 3.68 g/m*3 -2.1 C 0 km/h
859 26-01-2010 03:52:04 -2 C 3.75 g/m*3 -2 C 0 km/h
860 26-01-2010 04:04:04 -2.1 C 3.73 g/m*3 -2.1 C 0 km/h
861 26-01-2010 04:16:04 -2.1 C 3.73 g/m*3 -2.1 C 0 km/h
862 26-01-2010 04:28:04 -2.1 C 3.73 g/m*3 -2.1 C 0 km/h
863 26-01-2010 04:40:04 -2.2 C 3.66 g/m*3 -2.2 C 0 km/h
864 26-01-2010 04:52:04 -2.2 C 3.66 g/m*3 -2.2 C 0 km/h
865 26-01-2010 05:04:04 -2.2 C 3.66 g/m*3 -2.2 C 0 km/h
866 26-01-2010 05:16:04 -2.1 C 3.68 g/m*3 -2.1 C 0 km/h
867 26-01-2010 05:28:04 -2.2 C 3.66 g/m*3 -2.2 C 0 km/h
868 26-01-2010 05:40:05 -2.1 C 3.68 g/m*3 -2.1 C 0 km/h
869 26-01-2010 05:52:05 -2.3 C 3.59 g/m*3 -2.3 C 0 km/h
870 26-01-2010 06:04:05 -2.3 C 3.59 g/m*3 -2.3 C 0 km/h
871 26-01-2010 06:16:05 -2.3 C 3.59 g/m*3 -2.3 C 0 km/h
872 26-01-2010 06:28:05 -2.3 C 3.59 g/m*3 -2.3 C 0 km/h
873 26-01-2010 06:40:05 -2.4 C 3.57 g/m*3 -2.4 C 0 km/h
874 26-01-2010 06:52:05 -2.4 C 3.57 g/m*3 -2.4 C 0 km/h
875 26-01-2010 07:04:02 -2.3 C 3.59 g/m*3 -2.3 C 0 km/h
Sensor: Nr:Datum:Temp:Abs-Feuchte:Windchill:Wind:
Aussen-T/F 876 26-01-2010 07:16:02 -2.2 C 3.62 g/m*3 -2.2 C 0 km/h
877 26-01-2010 07:28:02 -2.1 C 3.64 g/m*3 -2.1 C 0 km/h
878 26-01-2010 07:40:02 -2.1 C 3.6 g/m*3 -2.1 C 0 km/h
879 26-01-2010 07:52:02 -2.1 C 3.56 g/m*3 -2.1 C 0 km/h
880 26-01-2010 08:04:02 -2.1 C 3.52 g/m*3 -2.1 C 0 km/h
881 26-01-2010 08:16:02 -2.7 C 3.21 g/m*3 -2.7 C 0 km/h
882 26-01-2010 08:28:02 -2.8 C 3.11 g/m*3 -2.8 C 0 km/h
883 26-01-2010 08:40:02 -3 C 2.99 g/m*3 -3 C 0 km/h
884 26-01-2010 08:52:02 -3.3 C 2.81 g/m*3 -3.3 C 0 km/h
885 26-01-2010 09:04:02 -3.3 C 2.81 g/m*3 -3.3 C 0 km/h
886 26-01-2010 09:16:02 -3.3 C 2.77 g/m*3 -3.3 C 0 km/h
887 26-01-2010 09:28:02 -3.3 C 2.73 g/m*3 -3.3 C 0 km/h
888 26-01-2010 09:40:02 -3.8 C 2.49 g/m*3 -3.8 C 0 km/h
889 26-01-2010 09:52:02 -3.9 C 2.47 g/m*3 -3.9 C 0 km/h
890 26-01-2010 10:04:02 -3.7 C 2.47 g/m*3 -3.7 C 0 km/h
891 26-01-2010 10:16:02 -3.5 C 2.46 g/m*3 -3.5 C 0 km/h
892 26-01-2010 10:28:02 -3.5 C 2.39 g/m*3 -3.5 C 0 km/h
893 26-01-2010 10:40:02 -3.2 C 2.44 g/m*3 -3.2 C 0 km/h
894 26-01-2010 10:52:01 -3.2 C 2.4 g/m*3 -3.2 C 0 km/h
895 26-01-2010 11:04:01 -3.3 C 2.31 g/m*3 -3.3 C 0 km/h
896 26-01-2010 11:16:02 -3.4 C 2.29 g/m*3 -3.4 C 0 km/h
897 26-01-2010 11:28:02 -3.1 C 2.38 g/m*3 -3.1 C 0 km/h
898 26-01-2010 11:40:01 -2.8 C 2.43 g/m*3 -2.8 C 0 km/h
899 26-01-2010 11:52:02 -2.7 C 2.45 g/m*3 -2.7 C 0 km/h
900 26-01-2010 12:04:02 -2.9 C 2.37 g/m*3 -2.9 C 0 km/h
Sensor: Nr:Datum:Temp:Abs-Feuchte:Windchill:Wind:
Aussen-T/F 901 26-01-2010 12:16:03 -2.7 C 2.41 g/m*3 -2.7 C 0 km/h
902 26-01-2010 12:28:03 -2.7 C 2.37 g/m*3 -2.7 C 0 km/h
903 26-01-2010 12:40:02 -2.5 C 2.36 g/m*3 -2.5 C 0 km/h
904 26-01-2010 12:52:03 -2.5 C 2.36 g/m*3 -2.5 C 0 km/h
905 26-01-2010 13:04:02 -3 C 2.24 g/m*3 -3 C 0 km/h
906 26-01-2010 13:16:02 -3 C 2.24 g/m*3 -3 C 0 km/h
907 26-01-2010 13:28:02 -2.5 C 2.36 g/m*3 -2.5 C 0 km/h
908 26-01-2010 13:40:02 -2.1 C 2.34 g/m*3 -2.1 C 0 km/h
909 26-01-2010 13:52:02 -1.7 C 2.37 g/m*3 -1.7 C 0 km/h
910 26-01-2010 14:04:02 -1.4 C 2.37 g/m*3 -1.4 C 0 km/h
911 26-01-2010 14:16:02 -1.1 C 2.38 g/m*3 -1.1 C 0 km/h
912 26-01-2010 14:28:02 -0.9 C 2.37 g/m*3 -0.9 C 0 km/h
913 26-01-2010 14:40:01 -0.9 C 2.32 g/m*3 -0.9 C 0 km/h
914 26-01-2010 14:52:02 -1.1 C 2.29 g/m*3 -1.1 C 0 km/h
915 26-01-2010 15:04:01 -1 C 2.35 g/m*3 -1 C 0 km/h
916 26-01-2010 15:16:02 -0.7 C 2.4 g/m*3 -0.7 C 0 km/h
917 26-01-2010 15:28:02 -1.1 C 2.29 g/m*3 -1.1 C 0 km/h
918 26-01-2010 15:40:02 -1.4 C 2.29 g/m*3 -1.4 C 0 km/h
919 26-01-2010 15:52:02 -1.6 C 2.34 g/m*3 -1.6 C 0 km/h
920 26-01-2010 16:04:02 -1.9 C 2.33 g/m*3 -1.9 C 0 km/h
921 26-01-2010 16:16:02 -2.1 C 2.34 g/m*3 -2.1 C 0 km/h
922 26-01-2010 16:28:02 -2.4 C 2.34 g/m*3 -2.4 C 0 km/h
923 26-01-2010 16:40:03 -2.8 C 2.31 g/m*3 -2.8 C 0 km/h
924 26-01-2010 16:52:02 -3 C 2.32 g/m*3 -3 C 0 km/h
925 26-01-2010 17:04:02 -3.3 C 2.31 g/m*3 -3.3 C 0 km/h
Sensor: Nr:Datum:Temp:Abs-Feuchte:Windchill:Wind:
Aussen-T/F 926 26-01-2010 17:16:01 -3.5 C 2.31 g/m*3 -3.5 C 0 km/h
927 26-01-2010 17:28:01 -3.7 C 2.32 g/m*3 -3.7 C 0 km/h
928 26-01-2010 17:40:02 -4.1 C 2.29 g/m*3 -4.1 C 0 km/h
929 26-01-2010 17:52:02 -4.3 C 2.33 g/m*3 -4.3 C 0 km/h
930 26-01-2010 18:04:02 -4.6 C 2.31 g/m*3 -4.6 C 0 km/h
931 26-01-2010 18:16:02 -4.8 C 2.31 g/m*3 -4.8 C 0 km/h
932 26-01-2010 18:28:02 -4.9 C 2.33 g/m*3 -4.9 C 0 km/h
933 26-01-2010 18:40:02 -4.9 C 2.37 g/m*3 -4.9 C 0 km/h
934 26-01-2010 18:52:01 -5.1 C 2.3 g/m*3 -5.1 C 0 km/h
935 26-01-2010 19:04:02 -5.3 C 2.3 g/m*3 -5.3 C 0 km/h
936 26-01-2010 19:16:01 -5.4 C 2.32 g/m*3 -5.4 C 0 km/h
937 26-01-2010 19:28:01 -5.6 C 2.28 g/m*3 -5.6 C 0 km/h
938 26-01-2010 19:40:01 -5.7 C 2.3 g/m*3 -5.7 C 0 km/h
939 26-01-2010 19:52:01 -5.9 C 2.3 g/m*3 -5.9 C 0 km/h
940 26-01-2010 20:04:02 -6 C 2.31 g/m*3 -6 C 0 km/h
941 26-01-2010 20:16:01 -6 C 2.34 g/m*3 -6 C 0 km/h
942 26-01-2010 20:28:01 -6.2 C 2.31 g/m*3 -6.2 C 0 km/h
943 26-01-2010 20:40:01 -6.4 C 2.28 g/m*3 -6.4 C 0 km/h
944 26-01-2010 20:52:01 -6.4 C 2.28 g/m*3 -6.4 C 0 km/h
945 26-01-2010 21:04:02 -6.6 C 2.27 g/m*3 -6.6 C 0 km/h
946 26-01-2010 21:16:02 -6.7 C 2.26 g/m*3 -6.7 C 0 km/h
947 26-01-2010 21:28:02 -6.9 C 2.22 g/m*3 -6.9 C 0 km/h
948 26-01-2010 21:40:01 -7 C 2.21 g/m*3 -7 C 0 km/h
949 26-01-2010 21:52:01 -6.9 C 2.25 g/m*3 -6.9 C 0 km/h
950 26-01-2010 22:04:01 -7 C 2.27 g/m*3 -7 C 0 km/h
Sensor: Nr:Datum:Temp:Abs-Feuchte:Windchill:Wind:
Aussen-T/F 951 26-01-2010 22:16:01 -7.1 C 2.25 g/m*3 -7.1 C 0 km/h
952 26-01-2010 22:28:01 -7.2 C 2.23 g/m*3 -7.2 C 0 km/h
953 26-01-2010 22:40:02 -7.1 C 2.25 g/m*3 -7.1 C 0 km/h
954 26-01-2010 22:52:02 -7.2 C 2.23 g/m*3 -7.2 C 0 km/h
955 26-01-2010 23:04:02 -7.5 C 2.16 g/m*3 -7.5 C 0 km/h
956 26-01-2010 23:16:02 -7.6 C 2.14 g/m*3 -7.6 C 0 km/h
957 26-01-2010 23:28:02 -7.7 C 2.13 g/m*3 -7.7 C 0 km/h
958 26-01-2010 23:40:02 -7.7 C 2.13 g/m*3 -7.7 C 0 km/h
959 26-01-2010 23:52:01 -8.1 C 2.06 g/m*3 -8.1 C 0 km/h
960 27-01-2010 00:04:02 -8.2 C 2.05 g/m*3 -8.2 C 0 km/h
961 27-01-2010 00:16:01 -8.3 C 2.03 g/m*3 -8.3 C 0 km/h
962 27-01-2010 00:28:01 -8.2 C 2.07 g/m*3 -8.2 C 0 km/h
963 27-01-2010 00:40:02 -8.3 C 2.06 g/m*3 -8.3 C 0 km/h
964 27-01-2010 00:53:02 -8.6 C 2.01 g/m*3 -8.6 C 0 km/h
965 27-01-2010 01:05:02 -8.8 C 1.98 g/m*3 -8.8 C 0 km/h
966 27-01-2010 01:17:02 -8.9 C 1.97 g/m*3 -8.9 C 0 km/h
967 27-01-2010 01:29:02 -8.9 C 1.97 g/m*3 -8.9 C 0 km/h
968 27-01-2010 01:41:02 -8.9 C 1.97 g/m*3 -8.9 C 0 km/h
969 27-01-2010 01:53:02 -9.2 C 1.93 g/m*3 -9.2 C 0 km/h
970 27-01-2010 02:05:02 -9.3 C 1.91 g/m*3 -9.3 C 0 km/h
971 27-01-2010 02:17:02 -9.1 C 1.94 g/m*3 -9.1 C 0 km/h
972 27-01-2010 02:29:02 -9.3 C 1.91 g/m*3 -9.3 C 0 km/h
973 27-01-2010 02:41:02 -9.4 C 1.9 g/m*3 -9.4 C 0 km/h
974 27-01-2010 02:53:02 -9.4 C 1.9 g/m*3 -9.4 C 0 km/h
975 27-01-2010 03:05:02 -9.3 C 1.91 g/m*3 -9.3 C 0 km/h
Sensor: Nr:Datum:Temp:Abs-Feuchte:Windchill:Wind:
Aussen-T/F 976 27-01-2010 03:17:02 -9.1 C 1.94 g/m*3 -9.1 C 0 km/h
977 27-01-2010 03:29:02 -9.1 C 1.94 g/m*3 -9.1 C 0 km/h
978 27-01-2010 03:41:02 -8.9 C 1.97 g/m*3 -8.9 C 0 km/h
979 27-01-2010 03:53:03 -8.9 C 1.94 g/m*3 -8.9 C 0 km/h
980 27-01-2010 04:05:03 -8.8 C 1.96 g/m*3 -8.8 C 0 km/h
981 27-01-2010 04:17:03 -8.8 C 1.93 g/m*3 -8.8 C 0 km/h
982 27-01-2010 04:29:03 -8.5 C 2 g/m*3 -8.5 C 0 km/h
983 27-01-2010 04:41:03 -8.4 C 2.02 g/m*3 -8.4 C 0 km/h
984 27-01-2010 04:53:03 -8.4 C 2.02 g/m*3 -8.4 C 0 km/h
985 27-01-2010 05:05:03 -8.4 C 2.04 g/m*3 -8.4 C 0 km/h
986 27-01-2010 05:17:03 -8.4 C 2.02 g/m*3 -8.4 C 0 km/h
987 27-01-2010 05:29:03 -8.6 C 1.96 g/m*3 -8.6 C 0 km/h
988 27-01-2010 05:41:03 -8.7 C 1.92 g/m*3 -8.7 C 0 km/h
989 27-01-2010 05:53:03 -8.8 C 1.91 g/m*3 -8.8 C 0 km/h
990 27-01-2010 06:05:03 -8.7 C 1.95 g/m*3 -8.7 C 0 km/h
991 27-01-2010 06:17:03 -8.8 C 1.93 g/m*3 -8.8 C 0 km/h
992 27-01-2010 06:29:03 -8.9 C 1.92 g/m*3 -8.9 C 0 km/h
993 27-01-2010 06:41:03 -9.1 C 1.89 g/m*3 -9.1 C 0 km/h
994 27-01-2010 06:53:03 -9.2 C 1.88 g/m*3 -9.2 C 0 km/h
995 27-01-2010 07:05:01 -9.4 C 1.82 g/m*3 -9.4 C 0 km/h
996 27-01-2010 07:17:02 -9.3 C 1.84 g/m*3 -9.3 C 0 km/h
997 27-01-2010 07:29:02 -9.1 C 1.89 g/m*3 -9.1 C 0 km/h
998 27-01-2010 07:41:02 -9.1 C 1.89 g/m*3 -9.1 C 0 km/h
999 27-01-2010 07:53:01 -9.2 C 1.88 g/m*3 -9.2 C 0 km/h
1000 27-01-2010 08:05:02 -9.3 C 1.84 g/m*3 -9.3 C 0 km/h
Sensor: Nr:Datum:Temp:Abs-Feuchte:Windchill:Wind:
Aussen-T/F 1001 27-01-2010 08:17:01 -9.2 C 1.88 g/m*3 -9.2 C 0 km/h
1002 27-01-2010 08:29:01 -9.2 C 1.88 g/m*3 -9.2 C 0 km/h
1003 27-01-2010 08:41:02 -9.2 C 1.88 g/m*3 -9.2 C 0 km/h
1004 27-01-2010 08:53:02 -9.3 C 1.86 g/m*3 -9.3 C 0 km/h
1005 27-01-2010 09:05:02 -9.2 C 1.88 g/m*3 -9.2 C 0 km/h
1006 27-01-2010 09:17:01 -9 C 1.88 g/m*3 -9 C 0 km/h
1007 27-01-2010 09:29:01 -8.8 C 1.91 g/m*3 -8.8 C 0 km/h
1008 27-01-2010 09:41:02 -8.6 C 1.91 g/m*3 -8.6 C 0 km/h
1009 27-01-2010 09:53:02 -8.6 C 1.88 g/m*3 -8.6 C 0 km/h
1010 27-01-2010 10:05:02 -8.7 C 1.84 g/m*3 -8.7 C 0 km/h
1011 27-01-2010 10:17:01 -8.6 C 1.86 g/m*3 -8.6 C 0 km/h
1012 27-01-2010 10:29:01 -8.4 C 1.88 g/m*3 -8.4 C 0 km/h
1013 27-01-2010 10:41:02 -7.8 C 1.94 g/m*3 -7.8 C 0 km/h
1014 27-01-2010 10:53:02 -7.5 C 1.96 g/m*3 -7.5 C 0 km/h
1015 27-01-2010 11:05:02 -6.9 C 2.02 g/m*3 -6.9 C 0 km/h
1016 27-01-2010 11:17:01 -7 C 1.94 g/m*3 -7 C 0 km/h
1017 27-01-2010 11:29:01 -6.9 C 1.96 g/m*3 -6.9 C 0 km/h
1018 27-01-2010 11:41:02 -6.5 C 2.02 g/m*3 -6.5 C 0 km/h
1019 27-01-2010 11:53:02 -5.8 C 2.09 g/m*3 -5.8 C 0 km/h
1020 27-01-2010 12:05:02 -5.3 C 2.13 g/m*3 -5.3 C 0 km/h
1021 27-01-2010 12:17:02 -5.1 C 2.1 g/m*3 -5.1 C 0 km/h
1022 27-01-2010 12:29:02 -4.7 C 2.16 g/m*3 -4.7 C 0 km/h
1023 27-01-2010 12:41:02 -4.2 C 2.16 g/m*3 -4.2 C 0 km/h
1024 27-01-2010 12:53:01 -3.9 C 2.14 g/m*3 -3.9 C 0 km/h
1025 27-01-2010 13:05:02 -4.5 C 1.98 g/m*3 -4.5 C 0 km/h
Sensor: Nr:Datum:Temp:Abs-Feuchte:Windchill:Wind:
Aussen-T/F 1026 27-01-2010 13:17:02 -4.4 C 2.06 g/m*3 -4.4 C 0 km/h
1027 27-01-2010 13:29:02 -3.9 C 2.1 g/m*3 -3.9 C 0 km/h
1028 27-01-2010 13:41:01 -3.3 C 2.19 g/m*3 -3.3 C 0 km/h
1029 27-01-2010 13:53:02 -2.6 C 2.34 g/m*3 -2.6 C 0 km/h
1030 27-01-2010 14:05:01 -2.2 C 2.37 g/m*3 -2.2 C 0 km/h
1031 27-01-2010 14:17:02 -2.4 C 2.25 g/m*3 -2.4 C 0 km/h
1032 27-01-2010 14:29:02 -2.2 C 2.33 g/m*3 -2.2 C 0 km/h
1033 27-01-2010 14:41:01 -2.1 C 2.34 g/m*3 -2.1 C 0 km/h
1034 27-01-2010 14:53:02 -2 C 2.44 g/m*3 -2 C 0 km/h
1035 27-01-2010 15:05:01 -2 C 2.44 g/m*3 -2 C 0 km/h
1036 27-01-2010 15:17:01 -2.1 C 2.43 g/m*3 -2.1 C 0 km/h
1037 27-01-2010 15:29:02 -2.1 C 2.47 g/m*3 -2.1 C 0 km/h
1038 27-01-2010 15:41:01 -2.3 C 2.44 g/m*3 -2.3 C 0 km/h
1039 27-01-2010 15:53:02 -2.2 C 2.45 g/m*3 -2.2 C 0 km/h
1040 27-01-2010 16:05:01 -2.1 C 2.39 g/m*3 -2.1 C 0 km/h
1041 27-01-2010 16:17:02 -2.1 C 2.39 g/m*3 -2.1 C 0 km/h
1042 27-01-2010 16:29:02 -2 C 2.32 g/m*3 -2 C 0 km/h
1043 27-01-2010 16:41:02 -2.1 C 2.26 g/m*3 -2.1 C 0 km/h
1044 27-01-2010 16:53:02 -2.1 C 2.18 g/m*3 -2.1 C 0 km/h
1045 27-01-2010 17:05:01 -2.3 C 2.06 g/m*3 -2.3 C 0 km/h
1046 27-01-2010 17:17:02 -2.4 C 2.13 g/m*3 -2.4 C 0 km/h
1047 27-01-2010 17:29:02 -2.4 C 2.17 g/m*3 -2.4 C 0 km/h
1048 27-01-2010 17:41:02 -2.4 C 2.21 g/m*3 -2.4 C 0 km/h
1049 27-01-2010 17:53:02 -2.4 C 2.21 g/m*3 -2.4 C 0 km/h
1050 27-01-2010 18:05:02 -2.3 C 2.27 g/m*3 -2.3 C 0 km/h
Sensor: Nr:Datum:Temp:Abs-Feuchte:Windchill:Wind:
Aussen-T/F 1051 27-01-2010 18:17:02 -2.4 C 2.29 g/m*3 -2.4 C 0 km/h
1052 27-01-2010 18:29:02 -2.3 C 2.31 g/m*3 -2.3 C 0 km/h
1053 27-01-2010 18:41:02 -2.3 C 2.35 g/m*3 -2.3 C 0 km/h
1054 27-01-2010 18:53:02 -2.3 C 2.39 g/m*3 -2.3 C 0 km/h
1055 27-01-2010 19:05:02 -2.1 C 2.39 g/m*3 -2.1 C 0 km/h
1056 27-01-2010 19:17:03 -2 C 2.4 g/m*3 -2 C 0 km/h
1057 27-01-2010 19:29:03 -1.9 C 2.42 g/m*3 -1.9 C 0 km/h
1058 27-01-2010 19:41:02 -1.6 C 2.34 g/m*3 -1.6 C 0 km/h
1059 27-01-2010 19:53:02 -1.6 C 2.38 g/m*3 -1.6 C 0 km/h
1060 27-01-2010 20:05:02 -1.7 C 2.37 g/m*3 -1.7 C 0 km/h
1061 27-01-2010 20:17:02 -2 C 2.57 g/m*3 -2 C 0 km/h
1062 27-01-2010 20:29:02 -2 C 2.57 g/m*3 -2 C 0 km/h
1063 27-01-2010 20:41:02 -1.9 C 2.59 g/m*3 -1.9 C 0 km/h
1064 27-01-2010 20:53:02 -1.9 C 2.55 g/m*3 -1.9 C 0 km/h
1065 27-01-2010 21:05:02 -1.9 C 2.55 g/m*3 -1.9 C 0 km/h
1066 27-01-2010 21:17:02 -2 C 2.66 g/m*3 -2 C 0 km/h
1067 27-01-2010 21:29:02 -1.8 C 2.61 g/m*3 -1.8 C 0 km/h
1068 27-01-2010 21:41:02 -2 C 2.66 g/m*3 -2 C 0 km/h
1069 27-01-2010 21:53:02 -1.9 C 2.67 g/m*3 -1.9 C 0 km/h
1070 27-01-2010 22:06:03 -2 C 2.74 g/m*3 -2 C 0 km/h
1071 27-01-2010 22:18:03 -2 C 2.74 g/m*3 -2 C 0 km/h
1072 27-01-2010 22:30:03 -1.9 C 2.67 g/m*3 -1.9 C 0 km/h
1073 27-01-2010 22:42:03 -1.9 C 2.67 g/m*3 -1.9 C 0 km/h
1074 27-01-2010 22:54:03 -1.9 C 2.72 g/m*3 -1.9 C 0 km/h
1075 27-01-2010 23:06:03 -2 C 2.82 g/m*3 -2 C 0 km/h
Sensor: Nr:Datum:Temp:Abs-Feuchte:Windchill:Wind:
Aussen-T/F 1076 27-01-2010 23:18:03 -2 C 2.91 g/m*3 -2 C 0 km/h
1077 27-01-2010 23:30:03 -2 C 2.87 g/m*3 -2 C 0 km/h
1078 27-01-2010 23:42:03 -2.1 C 2.89 g/m*3 -2.1 C 0 km/h
1079 27-01-2010 23:54:03 -2.2 C 2.95 g/m*3 -2.2 C 0 km/h
1080 28-01-2010 00:06:03 -2.1 C 2.93 g/m*3 -2.1 C 0 km/h
1081 28-01-2010 00:18:03 -2 C 2.99 g/m*3 -2 C 0 km/h
1082 28-01-2010 00:30:03 -2.1 C 3.06 g/m*3 -2.1 C 0 km/h
1083 28-01-2010 00:42:03 -2 C 3.16 g/m*3 -2 C 0 km/h
1084 28-01-2010 00:54:03 -1.9 C 3.18 g/m*3 -1.9 C 0 km/h
1085 28-01-2010 01:06:03 -2 C 3.25 g/m*3 -2 C 0 km/h
1086 28-01-2010 01:18:03 -2.1 C 3.43 g/m*3 -2.1 C 0 km/h
1087 28-01-2010 01:30:03 -2 C 3.5 g/m*3 -2 C 0 km/h
1088 28-01-2010 01:42:03 -1.7 C 3.57 g/m*3 -1.7 C 0 km/h
1089 28-01-2010 01:54:03 -1.4 C 3.56 g/m*3 -1.4 C 0 km/h
1090 28-01-2010 02:06:04 -1.2 C 3.52 g/m*3 -1.2 C 0 km/h
1091 28-01-2010 02:18:04 -1.1 C 3.5 g/m*3 -1.1 C 0 km/h
1092 28-01-2010 02:30:04 -1.1 C 3.46 g/m*3 -1.1 C 0 km/h
1093 28-01-2010 02:42:04 -1.1 C 3.46 g/m*3 -1.1 C 0 km/h
1094 28-01-2010 02:54:04 -1 C 3.53 g/m*3 -1 C 0 km/h
1095 28-01-2010 03:06:04 -1 C 3.53 g/m*3 -1 C 0 km/h
1096 28-01-2010 03:18:04 -0.9 C 3.55 g/m*3 -0.9 C 0 km/h
1097 28-01-2010 03:30:04 -0.9 C 3.55 g/m*3 -0.9 C 0 km/h
1098 28-01-2010 03:42:04 -0.9 C 3.6 g/m*3 -0.9 C 0 km/h
1099 28-01-2010 03:54:04 -0.9 C 3.64 g/m*3 -0.9 C 0 km/h
1100 28-01-2010 04:06:04 -0.9 C 3.69 g/m*3 -0.9 C 0 km/h
Sensor: Nr:Datum:Temp:Abs-Feuchte:Windchill:Wind:
Aussen-T/F 1101 28-01-2010 04:18:04 -0.8 C 3.71 g/m*3 -0.8 C 0 km/h
1102 28-01-2010 04:30:04 -0.7 C 3.78 g/m*3 -0.7 C 0 km/h
1103 28-01-2010 04:42:04 -0.5 C 3.84 g/m*3 -0.5 C 0 km/h
1104 28-01-2010 04:54:04 -0.5 C 3.84 g/m*3 -0.5 C 0 km/h
1105 28-01-2010 05:06:04 -0.7 C 3.92 g/m*3 -0.7 C 0 km/h
1106 28-01-2010 05:18:04 -0.7 C 4.06 g/m*3 -0.7 C 0 km/h
1107 28-01-2010 05:30:04 -0.7 C 4.11 g/m*3 -0.7 C 0 km/h
1108 28-01-2010 05:42:04 -0.5 C 4.21 g/m*3 -0.5 C 0 km/h
1109 28-01-2010 05:54:04 0.1 C 4.44 g/m*3 0.1 C 0 km/h
1110 28-01-2010 06:06:05 0.3 C 4.5 g/m*3 0.3 C 0 km/h
1111 28-01-2010 06:18:05 0.4 C 4.53 g/m*3 0.4 C 0 km/h
1112 28-01-2010 06:30:05 1 C 4.67 g/m*3 1 C 0 km/h
1113 28-01-2010 06:42:05 1.5 C 4.62 g/m*3 1.5 C 0 km/h
1114 28-01-2010 06:54:05 1.3 C 4.45 g/m*3 1.3 C 0 km/h
1115 28-01-2010 07:06:03 1.3 C 4.34 g/m*3 1.3 C 0 km/h
1116 28-01-2010 07:18:02 1.2 C 4.31 g/m*3 1.2 C 0 km/h
1117 28-01-2010 07:30:02 1.1 C 4.29 g/m*3 1.1 C 0 km/h
1118 28-01-2010 07:42:02 1.1 C 4.29 g/m*3 1.1 C 0 km/h
1119 28-01-2010 07:54:01 1.2 C 4.31 g/m*3 1.2 C 0 km/h
1120 28-01-2010 08:06:02 1.1 C 4.34 g/m*3 1.1 C 0 km/h
1121 28-01-2010 08:18:01 1 C 4.36 g/m*3 1 C 0 km/h
1122 28-01-2010 08:30:01 1.4 C 4.48 g/m*3 1.4 C 0 km/h
1123 28-01-2010 08:42:01 1.4 C 4.48 g/m*3 1.4 C 0 km/h
1124 28-01-2010 08:54:01 1.5 C 4.46 g/m*3 1.5 C 0 km/h
1125 28-01-2010 09:06:01 1.5 C 4.46 g/m*3 1.5 C 0 km/h
Sensor: Nr:Datum:Temp:Abs-Feuchte:Windchill:Wind:
Aussen-T/F 1126 28-01-2010 09:18:02 1.6 C 4.43 g/m*3 1.6 C 0 km/h
1127 28-01-2010 09:30:02 1.7 C 4.41 g/m*3 1.7 C 0 km/h
1128 28-01-2010 09:42:01 1.8 C 4.39 g/m*3 1.8 C 0 km/h
1129 28-01-2010 09:54:02 1.9 C 4.42 g/m*3 1.9 C 0 km/h
1130 28-01-2010 10:06:01 2.1 C 4.31 g/m*3 2.1 C 0 km/h
1131 28-01-2010 10:18:02 2.2 C 4.22 g/m*3 2.2 C 0 km/h
1132 28-01-2010 10:30:02 2.4 C 4.17 g/m*3 2.4 C 0 km/h
1133 28-01-2010 10:42:01 2.6 C 4.11 g/m*3 2.6 C 0 km/h
1134 28-01-2010 10:54:02 2.8 C 4.05 g/m*3 2.8 C 0 km/h
1135 28-01-2010 11:06:02 3 C 3.98 g/m*3 3 C 0 km/h
1136 28-01-2010 11:18:02 2.8 C 3.99 g/m*3 2.8 C 0 km/h
1137 28-01-2010 11:30:02 2.6 C 3.99 g/m*3 2.6 C 0 km/h
1138 28-01-2010 11:42:01 2.5 C 4.02 g/m*3 2.5 C 0 km/h
1139 28-01-2010 11:54:02 2.8 C 4.05 g/m*3 2.8 C 0 km/h
1140 28-01-2010 12:06:01 3.3 C 3.94 g/m*3 3.3 C 0 km/h
1141 28-01-2010 12:18:01 3.1 C 3.89 g/m*3 3.1 C 0 km/h
1142 28-01-2010 12:30:01 3.4 C 3.91 g/m*3 3.4 C 0 km/h
1143 28-01-2010 12:42:02 3.3 C 3.82 g/m*3 3.3 C 0 km/h
1144 28-01-2010 12:54:02 2.9 C 3.96 g/m*3 2.9 C 0 km/h
1145 28-01-2010 13:06:02 2.9 C 4.07 g/m*3 2.9 C 0 km/h
1146 28-01-2010 13:18:02 3.3 C 4 g/m*3 3.3 C 0 km/h
1147 28-01-2010 13:30:02 3.5 C 3.87 g/m*3 3.5 C 0 km/h
1148 28-01-2010 13:42:02 3.6 C 3.71 g/m*3 3.6 C 0 km/h
1149 28-01-2010 13:54:02 3.6 C 3.71 g/m*3 3.6 C 0 km/h
1150 28-01-2010 14:06:02 2.7 C 3.9 g/m*3 2.7 C 0 km/h
Sensor: Nr:Datum:Temp:Abs-Feuchte:Windchill:Wind:
Aussen-T/F 1151 28-01-2010 14:18:02 2.3 C 4.14 g/m*3 2.3 C 0 km/h
1152 28-01-2010 14:30:02 2.1 C 4.2 g/m*3 2.1 C 0 km/h
1153 28-01-2010 14:42:02 1.8 C 4.44 g/m*3 1.8 C 0 km/h
1154 28-01-2010 14:54:02 2.1 C 4.59 g/m*3 2.1 C 0 km/h
1155 28-01-2010 15:06:02 2.1 C 4.42 g/m*3 2.1 C 0 km/h
1156 28-01-2010 15:18:03 2.3 C 4.2 g/m*3 2.3 C 0 km/h
1157 28-01-2010 15:30:03 3.1 C 3.95 g/m*3 3.1 C 0 km/h
1158 28-01-2010 15:42:02 3 C 3.75 g/m*3 3 C 0 km/h
1159 28-01-2010 15:54:02 3 C 3.69 g/m*3 3 C 0 km/h
1160 28-01-2010 16:06:02 3 C 3.69 g/m*3 3 C 0 km/h
1161 28-01-2010 16:18:02 3 C 3.63 g/m*3 3 C 0 km/h
1162 28-01-2010 16:30:02 2.9 C 3.72 g/m*3 2.9 C 0 km/h
1163 28-01-2010 16:42:02 2.8 C 3.75 g/m*3 2.8 C 0 km/h
1164 28-01-2010 16:54:02 2.7 C 3.79 g/m*3 2.7 C 0 km/h
1165 28-01-2010 17:06:02 2.6 C 3.88 g/m*3 2.6 C 0 km/h
1166 28-01-2010 17:18:02 2.4 C 3.88 g/m*3 2.4 C 0 km/h
1167 28-01-2010 17:30:02 2.4 C 3.94 g/m*3 2.4 C 0 km/h
1168 28-01-2010 17:42:02 2.4 C 4 g/m*3 2.4 C 0 km/h
1169 28-01-2010 17:54:02 1.8 C 4.17 g/m*3 1.8 C 0 km/h
1170 28-01-2010 18:06:02 1.7 C 4.3 g/m*3 1.7 C 0 km/h
1171 28-01-2010 18:18:02 1.5 C 4.35 g/m*3 1.5 C 0 km/h
1172 28-01-2010 18:30:02 1.1 C 4.34 g/m*3 1.1 C 0 km/h
1173 28-01-2010 18:42:02 1.2 C 4.53 g/m*3 1.2 C 0 km/h
1174 28-01-2010 18:54:02 1.2 C 4.58 g/m*3 1.2 C 0 km/h
1175 28-01-2010 19:06:01 1.2 C 4.58 g/m*3 1.2 C 0 km/h
Sensor: Nr:Datum:Temp:Abs-Feuchte:Windchill:Wind:
Aussen-T/F 1176 28-01-2010 19:18:02 1.2 C 4.58 g/m*3 1.2 C 0 km/h
1177 28-01-2010 19:30:02 1.4 C 4.59 g/m*3 1.4 C 0 km/h
1178 28-01-2010 19:42:02 1.5 C 4.51 g/m*3 1.5 C 0 km/h
1179 28-01-2010 19:54:01 1.5 C 4.4 g/m*3 1.5 C 0 km/h
1180 28-01-2010 20:06:01 1.7 C 4.36 g/m*3 1.7 C 0 km/h
1181 28-01-2010 20:18:01 1.7 C 4.3 g/m*3 1.7 C 0 km/h
1182 28-01-2010 20:30:01 1.6 C 4.27 g/m*3 1.6 C 0 km/h
1183 28-01-2010 20:42:02 1.6 C 4.22 g/m*3 1.6 C 0 km/h
1184 28-01-2010 20:54:02 1.5 C 4.19 g/m*3 1.5 C 0 km/h
1185 28-01-2010 21:06:02 1.5 C 4.19 g/m*3 1.5 C 0 km/h
1186 28-01-2010 21:18:02 1.7 C 4.25 g/m*3 1.7 C 0 km/h
1187 28-01-2010 21:30:02 1.6 C 4.22 g/m*3 1.6 C 0 km/h
1188 28-01-2010 21:42:02 1.5 C 4.19 g/m*3 1.5 C 0 km/h
1189 28-01-2010 21:54:01 1.6 C 4.22 g/m*3 1.6 C 0 km/h
1190 28-01-2010 22:06:01 1.6 C 4.22 g/m*3 1.6 C 0 km/h
1191 28-01-2010 22:18:02 1.7 C 4.19 g/m*3 1.7 C 0 km/h
1192 28-01-2010 22:30:02 1.7 C 4.19 g/m*3 1.7 C 0 km/h
1193 28-01-2010 22:42:02 1.6 C 4.16 g/m*3 1.6 C 0 km/h
1194 28-01-2010 22:54:02 1.7 C 4.14 g/m*3 1.7 C 0 km/h
1195 28-01-2010 23:06:02 1.6 C 4.11 g/m*3 1.6 C 0 km/h
1196 28-01-2010 23:18:02 1.6 C 4.16 g/m*3 1.6 C 0 km/h
1197 28-01-2010 23:30:02 1.6 C 4.16 g/m*3 1.6 C 0 km/h
1198 28-01-2010 23:42:02 1.6 C 4.16 g/m*3 1.6 C 0 km/h
1199 28-01-2010 23:54:02 1.4 C 4.21 g/m*3 1.4 C 0 km/h
1200 29-01-2010 00:06:02 1.4 C 4.27 g/m*3 1.4 C 0 km/h
Sensor: Nr:Datum:Temp:Abs-Feuchte:Windchill:Wind:
Aussen-T/F 1201 29-01-2010 00:18:02 1.4 C 4.27 g/m*3 1.4 C 0 km/h
1202 29-01-2010 00:30:02 1.5 C 4.3 g/m*3 1.5 C 0 km/h
1203 29-01-2010 00:42:02 1.5 C 4.24 g/m*3 1.5 C 0 km/h
1204 29-01-2010 00:54:02 1.5 C 4.3 g/m*3 1.5 C 0 km/h
1205 29-01-2010 01:06:02 1.5 C 4.3 g/m*3 1.5 C 0 km/h
1206 29-01-2010 01:18:02 1.4 C 4.32 g/m*3 1.4 C 0 km/h
1207 29-01-2010 01:30:02 1.4 C 4.32 g/m*3 1.4 C 0 km/h
1208 29-01-2010 01:42:02 1.4 C 4.37 g/m*3 1.4 C 0 km/h
1209 29-01-2010 01:54:02 1.3 C 4.34 g/m*3 1.3 C 0 km/h
1210 29-01-2010 02:06:02 1.1 C 4.39 g/m*3 1.1 C 0 km/h
1211 29-01-2010 02:18:02 1 C 4.41 g/m*3 1 C 0 km/h
1212 29-01-2010 02:30:03 1.1 C 4.49 g/m*3 1.1 C 0 km/h
1213 29-01-2010 02:42:03 1.1 C 4.49 g/m*3 1.1 C 0 km/h
1214 29-01-2010 02:54:03 1.1 C 4.55 g/m*3 1.1 C 0 km/h
1215 29-01-2010 03:06:03 1.3 C 4.56 g/m*3 1.3 C 0 km/h
1216 29-01-2010 03:18:03 1.3 C 4.56 g/m*3 1.3 C 0 km/h
1217 29-01-2010 03:30:03 1.3 C 4.56 g/m*3 1.3 C 0 km/h
1218 29-01-2010 03:42:03 1.3 C 4.56 g/m*3 1.3 C 0 km/h
1219 29-01-2010 03:54:03 1.3 C 4.56 g/m*3 1.3 C 0 km/h
1220 29-01-2010 04:06:03 1.3 C 4.56 g/m*3 1.3 C 0 km/h
1221 29-01-2010 04:18:03 1.4 C 4.59 g/m*3 1.4 C 0 km/h
1222 29-01-2010 04:30:03 1.3 C 4.56 g/m*3 1.3 C 0 km/h
1223 29-01-2010 04:42:03 1.4 C 4.59 g/m*3 1.4 C 0 km/h
1224 29-01-2010 04:54:03 1.3 C 4.56 g/m*3 1.3 C 0 km/h
1225 29-01-2010 05:06:03 1.2 C 4.58 g/m*3 1.2 C 0 km/h
Sensor: Nr:Datum:Temp:Abs-Feuchte:Windchill:Wind:
Aussen-T/F 1226 29-01-2010 05:18:03 1 C 4.57 g/m*3 1 C 0 km/h
1227 29-01-2010 05:30:03 1 C 4.62 g/m*3 1 C 0 km/h
1228 29-01-2010 05:42:03 0.9 C 4.64 g/m*3 0.9 C 0 km/h
1229 29-01-2010 05:54:03 0.9 C 4.69 g/m*3 0.9 C 0 km/h
1230 29-01-2010 06:06:03 0.9 C 4.69 g/m*3 0.9 C 0 km/h
1231 29-01-2010 06:18:03 0.9 C 4.74 g/m*3 0.9 C 0 km/h
1232 29-01-2010 06:30:03 1 C 4.72 g/m*3 1 C 0 km/h
1233 29-01-2010 06:42:04 1 C 4.67 g/m*3 1 C 0 km/h
1234 29-01-2010 06:54:04 1 C 4.67 g/m*3 1 C 0 km/h
1235 29-01-2010 07:06:01 1 C 4.62 g/m*3 1 C 0 km/h
1236 29-01-2010 07:18:02 1 C 4.62 g/m*3 1 C 0 km/h
1237 29-01-2010 07:30:02 1 C 4.57 g/m*3 1 C 0 km/h
1238 29-01-2010 07:42:01 1 C 4.57 g/m*3 1 C 0 km/h
1239 29-01-2010 07:54:02 1.2 C 4.58 g/m*3 1.2 C 0 km/h
1240 29-01-2010 08:06:01 1.4 C 4.53 g/m*3 1.4 C 0 km/h
1241 29-01-2010 08:18:01 1.5 C 4.46 g/m*3 1.5 C 0 km/h
1242 29-01-2010 08:30:01 1.6 C 4.43 g/m*3 1.6 C 0 km/h
1243 29-01-2010 08:42:01 1.6 C 4.38 g/m*3 1.6 C 0 km/h
1244 29-01-2010 08:54:02 1.5 C 4.4 g/m*3 1.5 C 0 km/h
1245 29-01-2010 09:06:01 1.5 C 4.4 g/m*3 1.5 C 0 km/h
1246 29-01-2010 09:18:01 1.6 C 4.43 g/m*3 1.6 C 0 km/h
1247 29-01-2010 09:30:01 1.7 C 4.46 g/m*3 1.7 C 0 km/h
1248 29-01-2010 09:42:02 1.8 C 4.44 g/m*3 1.8 C 0 km/h
1249 29-01-2010 09:54:01 1.9 C 4.42 g/m*3 1.9 C 0 km/h
1250 29-01-2010 10:06:02 2.1 C 4.36 g/m*3 2.1 C 0 km/h
Sensor: Nr:Datum:Temp:Abs-Feuchte:Windchill:Wind:
Aussen-T/F 1251 29-01-2010 10:18:01 2.1 C 4.36 g/m*3 2.1 C 0 km/h
1252 29-01-2010 10:30:01 2.2 C 4.39 g/m*3 2.2 C 0 km/h
1253 29-01-2010 10:42:01 2.3 C 4.42 g/m*3 2.3 C 0 km/h
1254 29-01-2010 10:54:01 2.4 C 4.4 g/m*3 2.4 C 0 km/h
1255 29-01-2010 11:06:01 2.5 C 4.37 g/m*3 2.5 C 0 km/h
1256 29-01-2010 11:18:01 2.5 C 4.37 g/m*3 2.5 C 0 km/h
1257 29-01-2010 11:30:01 2.6 C 4.4 g/m*3 2.6 C 0 km/h
1258 29-01-2010 11:42:01 2.7 C 4.37 g/m*3 2.7 C 0 km/h
1259 29-01-2010 11:54:01 2.7 C 4.31 g/m*3 2.7 C 0 km/h
1260 29-01-2010 12:06:01 2.8 C 4.34 g/m*3 2.8 C 0 km/h
1261 29-01-2010 12:18:02 2.8 C 4.34 g/m*3 2.8 C 0 km/h
1262 29-01-2010 12:30:02 2.8 C 4.34 g/m*3 2.8 C 0 km/h
1263 29-01-2010 12:42:01 2.8 C 4.34 g/m*3 2.8 C 0 km/h
1264 29-01-2010 12:54:02 2.8 C 4.4 g/m*3 2.8 C 0 km/h
1265 29-01-2010 13:06:01 2.7 C 4.37 g/m*3 2.7 C 0 km/h
1266 29-01-2010 13:18:02 2.7 C 4.43 g/m*3 2.7 C 0 km/h
1267 29-01-2010 13:30:02 2.7 C 4.43 g/m*3 2.7 C 0 km/h
1268 29-01-2010 13:42:01 2.7 C 4.43 g/m*3 2.7 C 0 km/h
1269 29-01-2010 13:54:02 2.5 C 4.43 g/m*3 2.5 C 0 km/h
1270 29-01-2010 14:06:01 2.4 C 4.51 g/m*3 2.4 C 0 km/h
1271 29-01-2010 14:18:01 2.2 C 4.56 g/m*3 2.2 C 0 km/h
1272 29-01-2010 14:30:01 2.2 C 4.56 g/m*3 2.2 C 0 km/h
1273 29-01-2010 14:42:02 2.2 C 4.56 g/m*3 2.2 C 0 km/h
1274 29-01-2010 14:54:01 2.2 C 4.51 g/m*3 2.2 C 0 km/h
1275 29-01-2010 15:06:01 2.1 C 4.53 g/m*3 2.1 C 0 km/h
Sensor: Nr:Datum:Temp:Abs-Feuchte:Windchill:Wind:
Aussen-T/F 1276 29-01-2010 15:18:01 2.1 C 4.53 g/m*3 2.1 C 0 km/h
1277 29-01-2010 15:30:01 2 C 4.56 g/m*3 2 C 0 km/h
1278 29-01-2010 15:42:02 2 C 4.56 g/m*3 2 C 0 km/h
1279 29-01-2010 15:54:01 2.1 C 4.53 g/m*3 2.1 C 0 km/h
1280 29-01-2010 16:06:01 2.1 C 4.53 g/m*3 2.1 C 0 km/h
1281 29-01-2010 16:18:01 2 C 4.5 g/m*3 2 C 0 km/h
1282 29-01-2010 16:30:01 1.8 C 4.55 g/m*3 1.8 C 0 km/h
1283 29-01-2010 16:42:02 1.6 C 4.54 g/m*3 1.6 C 0 km/h
1284 29-01-2010 16:54:01 1.6 C 4.65 g/m*3 1.6 C 0 km/h
1285 29-01-2010 17:06:02 1.5 C 4.67 g/m*3 1.5 C 0 km/h
1286 29-01-2010 17:18:01 1.4 C 4.69 g/m*3 1.4 C 0 km/h
1287 29-01-2010 17:30:01 1.3 C 4.72 g/m*3 1.3 C 0 km/h
1288 29-01-2010 17:42:02 1.3 C 4.72 g/m*3 1.3 C 0 km/h
1289 29-01-2010 17:54:02 1.2 C 4.74 g/m*3 1.2 C 0 km/h
1290 29-01-2010 18:06:01 1 C 4.67 g/m*3 1 C 0 km/h
1291 29-01-2010 18:18:01 0.9 C 4.69 g/m*3 0.9 C 0 km/h
1292 29-01-2010 18:30:01 0.8 C 4.71 g/m*3 0.8 C 0 km/h
1293 29-01-2010 18:42:01 0.8 C 4.71 g/m*3 0.8 C 0 km/h
1294 29-01-2010 18:54:01 0.7 C 4.73 g/m*3 0.7 C 0 km/h
1295 29-01-2010 19:06:01 0.7 C 4.78 g/m*3 0.7 C 0 km/h
1296 29-01-2010 19:18:01 0.8 C 4.81 g/m*3 0.8 C 0 km/h
1297 29-01-2010 19:30:01 0.8 C 4.81 g/m*3 0.8 C 0 km/h
1298 29-01-2010 19:42:02 0.8 C 4.81 g/m*3 0.8 C 0 km/h
1299 29-01-2010 19:54:01 0.8 C 4.81 g/m*3 0.8 C 0 km/h
1300 29-01-2010 20:06:02 0.8 C 4.81 g/m*3 0.8 C 0 km/h
Sensor: Nr:Datum:Temp:Abs-Feuchte:Windchill:Wind:
Aussen-T/F 1301 29-01-2010 20:18:01 0.8 C 4.76 g/m*3 0.8 C 0 km/h
1302 29-01-2010 20:30:01 0.7 C 4.73 g/m*3 0.7 C 0 km/h
1303 29-01-2010 20:42:01 0.7 C 4.68 g/m*3 0.7 C 0 km/h
1304 29-01-2010 20:54:01 0.7 C 4.68 g/m*3 0.7 C 0 km/h
1305 29-01-2010 21:06:01 0.6 C 4.6 g/m*3 0.6 C 0 km/h
1306 29-01-2010 21:18:01 0.5 C 4.51 g/m*3 0.5 C 0 km/h
1307 29-01-2010 21:30:01 0.4 C 4.48 g/m*3 0.4 C 0 km/h
1308 29-01-2010 21:42:01 0.5 C 4.56 g/m*3 0.5 C 0 km/h
1309 29-01-2010 21:54:01 0.4 C 4.48 g/m*3 0.4 C 0 km/h
1310 29-01-2010 22:06:01 0.3 C 4.35 g/m*3 0.3 C 0 km/h
1311 29-01-2010 22:18:01 0.1 C 4.2 g/m*3 0.1 C 0 km/h
1312 29-01-2010 22:30:01 0 C 4.12 g/m*3 0 C 0 km/h
1313 29-01-2010 22:42:01 0.1 C 4.1 g/m*3 0.1 C 0 km/h
1314 29-01-2010 22:54:01 0.2 C 4.13 g/m*3 0.2 C 0 km/h
1315 29-01-2010 23:06:01 0.3 C 4.16 g/m*3 0.3 C 0 km/h
1316 29-01-2010 23:20:12 0 C 4.12 g/m*3 0 C 0 km/h
1317 29-01-2010 23:32:12 -0.1 C 4.09 g/m*3 -0.1 C 0 km/h
1318 29-01-2010 23:44:12 -0.5 C 3.98 g/m*3 -0.5 C 0 km/h
1319 29-01-2010 23:56:12 -0.4 C 4.01 g/m*3 -0.4 C 0 km/h
1320 30-01-2010 00:08:12 -0.5 C 3.93 g/m*3 -0.5 C 0 km/h
1321 30-01-2010 00:20:12 -0.3 C 3.94 g/m*3 -0.3 C 0 km/h
1322 30-01-2010 00:32:12 -0.3 C 3.84 g/m*3 -0.3 C 0 km/h
1323 30-01-2010 00:44:12 -0.1 C 3.8 g/m*3 -0.1 C 0 km/h
1324 30-01-2010 00:56:12 0.1 C 3.81 g/m*3 0.1 C 0 km/h
1325 30-01-2010 01:08:12 -0.1 C 3.8 g/m*3 -0.1 C 0 km/h
Sensor: Nr:Datum:Temp:Abs-Feuchte:Windchill:Wind:
Aussen-T/F 1326 30-01-2010 01:20:12 -0.1 C 3.8 g/m*3 -0.1 C 0 km/h
1327 30-01-2010 01:32:12 -0.1 C 3.8 g/m*3 -0.1 C 0 km/h
1328 30-01-2010 01:44:12 -0.4 C 3.77 g/m*3 -0.4 C 0 km/h
1329 30-01-2010 01:56:12 -0.4 C 3.82 g/m*3 -0.4 C 0 km/h
1330 30-01-2010 02:08:12 -0.6 C 3.81 g/m*3 -0.6 C 0 km/h
1331 30-01-2010 02:20:12 -0.9 C 3.78 g/m*3 -0.9 C 0 km/h
1332 30-01-2010 02:32:12 -0.9 C 3.82 g/m*3 -0.9 C 0 km/h
1333 30-01-2010 02:44:12 -0.9 C 3.82 g/m*3 -0.9 C 0 km/h
1334 30-01-2010 02:56:12 -1 C 3.8 g/m*3 -1 C 0 km/h
1335 30-01-2010 03:08:12 -0.8 C 3.85 g/m*3 -0.8 C 0 km/h
1336 30-01-2010 03:20:12 -0.9 C 3.78 g/m*3 -0.9 C 0 km/h
1337 30-01-2010 03:32:12 -1.3 C 3.67 g/m*3 -1.3 C 0 km/h
1338 30-01-2010 03:44:13 -1.5 C 3.62 g/m*3 -1.5 C 0 km/h
1339 30-01-2010 03:56:13 -1.5 C 3.67 g/m*3 -1.5 C 0 km/h
1340 30-01-2010 04:08:13 -1.3 C 3.67 g/m*3 -1.3 C 0 km/h
1341 30-01-2010 04:20:13 -1.5 C 3.54 g/m*3 -1.5 C 0 km/h
1342 30-01-2010 04:32:13 -1.5 C 3.49 g/m*3 -1.5 C 0 km/h
1343 30-01-2010 04:44:13 -1.4 C 3.52 g/m*3 -1.4 C 0 km/h
1344 30-01-2010 04:56:13 -1.4 C 3.47 g/m*3 -1.4 C 0 km/h
1345 30-01-2010 05:08:13 -1.4 C 3.47 g/m*3 -1.4 C 0 km/h
1346 30-01-2010 05:20:13 -1.2 C 3.52 g/m*3 -1.2 C 0 km/h
1347 30-01-2010 05:32:13 -0.9 C 3.51 g/m*3 -0.9 C 0 km/h
1348 30-01-2010 05:44:13 -0.9 C 3.46 g/m*3 -0.9 C 0 km/h
1349 30-01-2010 05:56:13 -0.5 C 3.46 g/m*3 -0.5 C 0 km/h
1350 30-01-2010 06:08:13 -0.4 C 3.44 g/m*3 -0.4 C 0 km/h
Sensor: Nr:Datum:Temp:Abs-Feuchte:Windchill:Wind:
Aussen-T/F 1351 30-01-2010 06:20:13 -0.3 C 3.42 g/m*3 -0.3 C 0 km/h
1352 30-01-2010 06:32:13 -0.1 C 3.51 g/m*3 -0.1 C 0 km/h
1353 30-01-2010 06:44:13 -0.1 C 3.51 g/m*3 -0.1 C 0 km/h
1354 30-01-2010 06:56:13 0.1 C 3.42 g/m*3 0.1 C 0 km/h
1355 30-01-2010 07:08:13 -0.1 C 3.42 g/m*3 -0.1 C 0 km/h
1356 30-01-2010 07:20:13 -0.1 C 3.42 g/m*3 -0.1 C 0 km/h
1357 30-01-2010 07:32:13 -0.1 C 3.42 g/m*3 -0.1 C 0 km/h
1358 30-01-2010 07:44:13 -0.2 C 3.44 g/m*3 -0.2 C 0 km/h
1359 30-01-2010 07:56:02 -0.2 C 3.49 g/m*3 -0.2 C 0 km/h
1360 30-01-2010 08:08:02 -0.2 C 3.49 g/m*3 -0.2 C 0 km/h
1361 30-01-2010 08:20:02 -0.1 C 3.51 g/m*3 -0.1 C 0 km/h
1362 30-01-2010 08:32:02 -0.2 C 3.68 g/m*3 -0.2 C 0 km/h
1363 30-01-2010 08:44:02 -0.3 C 3.7 g/m*3 -0.3 C 0 km/h
1364 30-01-2010 08:56:03 -0.4 C 3.72 g/m*3 -0.4 C 0 km/h
1365 30-01-2010 09:08:02 -0.4 C 3.77 g/m*3 -0.4 C 0 km/h
1366 30-01-2010 09:20:02 -0.4 C 3.72 g/m*3 -0.4 C 0 km/h
1367 30-01-2010 09:32:03 -0.3 C 3.7 g/m*3 -0.3 C 0 km/h
1368 30-01-2010 09:44:03 0 C 3.68 g/m*3 0 C 0 km/h
1369 30-01-2010 09:56:02 0.1 C 3.61 g/m*3 0.1 C 0 km/h
1370 30-01-2010 10:08:02 0 C 3.59 g/m*3 0 C 0 km/h
1371 30-01-2010 10:20:02 0 C 3.63 g/m*3 0 C 0 km/h
1372 30-01-2010 10:32:02 -0.1 C 3.61 g/m*3 -0.1 C 0 km/h
1373 30-01-2010 10:44:02 -0.1 C 3.75 g/m*3 -0.1 C 0 km/h
1374 30-01-2010 10:56:02 -0.1 C 3.9 g/m*3 -0.1 C 0 km/h
1375 30-01-2010 11:08:02 -0.4 C 3.91 g/m*3 -0.4 C 0 km/h
Sensor: Nr:Datum:Temp:Abs-Feuchte:Windchill:Wind:
Aussen-T/F 1376 30-01-2010 11:20:02 -0.5 C 3.93 g/m*3 -0.5 C 0 km/h
1377 30-01-2010 11:32:02 -0.3 C 4.03 g/m*3 -0.3 C 0 km/h
1378 30-01-2010 11:44:02 0 C 4.02 g/m*3 0 C 0 km/h
1379 30-01-2010 11:56:01 0.4 C 3.98 g/m*3 0.4 C 0 km/h
1380 30-01-2010 12:08:02 0.2 C 3.88 g/m*3 0.2 C 0 km/h
1381 30-01-2010 12:20:02 -0.2 C 3.92 g/m*3 -0.2 C 0 km/h
1382 30-01-2010 12:32:01 -0.4 C 4.01 g/m*3 -0.4 C 0 km/h
1383 30-01-2010 12:44:01 -0.3 C 4.08 g/m*3 -0.3 C 0 km/h
1384 30-01-2010 12:56:01 -0.2 C 4.01 g/m*3 -0.2 C 0 km/h
1385 30-01-2010 13:08:01 0 C 3.88 g/m*3 0 C 0 km/h
1386 30-01-2010 13:20:02 0 C 3.63 g/m*3 0 C 0 km/h
1387 30-01-2010 13:32:01 -0.2 C 3.49 g/m*3 -0.2 C 0 km/h
1388 30-01-2010 13:44:01 0.3 C 3.56 g/m*3 0.3 C 0 km/h
1389 30-01-2010 13:56:02 0.5 C 3.46 g/m*3 0.5 C 0 km/h
1390 30-01-2010 14:08:01 0.6 C 3.48 g/m*3 0.6 C 0 km/h
1391 30-01-2010 14:20:02 0.5 C 3.41 g/m*3 0.5 C 0 km/h
1392 30-01-2010 14:32:01 0.4 C 3.44 g/m*3 0.4 C 0 km/h
1393 30-01-2010 14:44:01 0.3 C 3.51 g/m*3 0.3 C 0 km/h
1394 30-01-2010 14:56:03 -1.1 C 3.41 g/m*3 -1.1 C 0 km/h
1395 30-01-2010 15:08:02 -1.3 C 3.5 g/m*3 -1.3 C 0 km/h
1396 30-01-2010 15:20:02 -1.1 C 3.59 g/m*3 -1.1 C 0 km/h
1397 30-01-2010 15:32:02 -0.9 C 3.6 g/m*3 -0.9 C 0 km/h
1398 30-01-2010 15:44:02 -0.7 C 3.6 g/m*3 -0.7 C 0 km/h
1399 30-01-2010 15:56:02 -0.9 C 3.41 g/m*3 -0.9 C 0 km/h
1400 30-01-2010 16:08:02 -1.3 C 3.19 g/m*3 -1.3 C 0 km/h
Sensor: Nr:Datum:Temp:Abs-Feuchte:Windchill:Wind:
Aussen-T/F 1401 30-01-2010 16:20:02 -1.4 C 3.21 g/m*3 -1.4 C 0 km/h
1402 30-01-2010 16:32:01 -1.6 C 3.21 g/m*3 -1.6 C 0 km/h
1403 30-01-2010 16:44:01 -1.5 C 3.27 g/m*3 -1.5 C 0 km/h
1404 30-01-2010 16:56:02 -1.5 C 3.32 g/m*3 -1.5 C 0 km/h
1405 30-01-2010 17:08:01 -1.6 C 3.34 g/m*3 -1.6 C 0 km/h
1406 30-01-2010 17:20:02 -1.7 C 3.36 g/m*3 -1.7 C 0 km/h
1407 30-01-2010 17:32:02 -2 C 3.29 g/m*3 -2 C 0 km/h
1408 30-01-2010 17:44:02 -2.4 C 3.16 g/m*3 -2.4 C 0 km/h
1409 30-01-2010 17:56:02 -2.6 C 3.15 g/m*3 -2.6 C 0 km/h
1410 30-01-2010 18:08:02 -2.4 C 3.24 g/m*3 -2.4 C 0 km/h
1411 30-01-2010 18:20:02 -2.4 C 3.24 g/m*3 -2.4 C 0 km/h
1412 30-01-2010 18:32:03 -2.3 C 3.26 g/m*3 -2.3 C 0 km/h
1413 30-01-2010 18:44:03 -2.4 C 3.2 g/m*3 -2.4 C 0 km/h
1414 30-01-2010 18:56:02 -2.6 C 3.11 g/m*3 -2.6 C 0 km/h
1415 30-01-2010 19:08:01 -2.9 C 3.05 g/m*3 -2.9 C 0 km/h
1416 30-01-2010 19:20:02 -3.1 C 3 g/m*3 -3.1 C 0 km/h
1417 30-01-2010 19:32:02 -3.3 C 2.96 g/m*3 -3.3 C 0 km/h
1418 30-01-2010 19:44:02 -3.5 C 2.92 g/m*3 -3.5 C 0 km/h
1419 30-01-2010 19:56:01 -3.7 C 2.92 g/m*3 -3.7 C 0 km/h
1420 30-01-2010 20:08:02 -4 C 2.85 g/m*3 -4 C 0 km/h
1421 30-01-2010 20:20:01 -4.2 C 2.81 g/m*3 -4.2 C 0 km/h
1422 30-01-2010 20:32:02 -4.5 C 2.75 g/m*3 -4.5 C 0 km/h
1423 30-01-2010 20:44:02 -4.9 C 2.68 g/m*3 -4.9 C 0 km/h
1424 30-01-2010 20:56:02 -4.7 C 2.75 g/m*3 -4.7 C 0 km/h
1425 30-01-2010 21:08:02 -4.3 C 2.86 g/m*3 -4.3 C 0 km/h
Sensor: Nr:Datum:Temp:Abs-Feuchte:Windchill:Wind:
Aussen-T/F 1426 30-01-2010 21:20:02 -4.1 C 2.91 g/m*3 -4.1 C 0 km/h
1427 30-01-2010 21:32:02 -4.2 C 2.89 g/m*3 -4.2 C 0 km/h
1428 30-01-2010 21:44:02 -4.6 C 2.77 g/m*3 -4.6 C 0 km/h
1429 30-01-2010 21:56:02 -5.1 C 2.64 g/m*3 -5.1 C 0 km/h
1430 30-01-2010 22:08:02 -5.6 C 2.54 g/m*3 -5.6 C 0 km/h
1431 30-01-2010 22:21:03 -5.9 C 2.49 g/m*3 -5.9 C 0 km/h
1432 30-01-2010 22:33:04 -5.7 C 2.56 g/m*3 -5.7 C 0 km/h
1433 30-01-2010 22:45:04 -6 C 2.5 g/m*3 -6 C 0 km/h
1434 30-01-2010 22:57:04 -6.1 C 2.48 g/m*3 -6.1 C 0 km/h
1435 30-01-2010 23:09:04 -6.3 C 2.45 g/m*3 -6.3 C 0 km/h
1436 30-01-2010 23:21:04 -6.2 C 2.47 g/m*3 -6.2 C 0 km/h
1437 30-01-2010 23:33:04 -6.4 C 2.43 g/m*3 -6.4 C 0 km/h
1438 30-01-2010 23:45:04 -6.4 C 2.43 g/m*3 -6.4 C 0 km/h
1439 30-01-2010 23:57:04 -6.3 C 2.48 g/m*3 -6.3 C 0 km/h
1440 31-01-2010 00:09:04 -6.2 C 2.5 g/m*3 -6.2 C 0 km/h
1441 31-01-2010 00:21:04 -6.1 C 2.52 g/m*3 -6.1 C 0 km/h
1442 31-01-2010 00:33:04 -6 C 2.53 g/m*3 -6 C 0 km/h
1443 31-01-2010 00:45:04 -6 C 2.5 g/m*3 -6 C 0 km/h
1444 31-01-2010 00:57:04 -5.6 C 2.58 g/m*3 -5.6 C 0 km/h
1445 31-01-2010 01:09:04 -5.1 C 2.67 g/m*3 -5.1 C 0 km/h
1446 31-01-2010 01:21:04 -5 C 2.69 g/m*3 -5 C 0 km/h
1447 31-01-2010 01:33:04 -4.7 C 2.71 g/m*3 -4.7 C 0 km/h
1448 31-01-2010 01:45:04 -4.6 C 2.73 g/m*3 -4.6 C 0 km/h
1449 31-01-2010 01:57:04 -4.6 C 2.8 g/m*3 -4.6 C 0 km/h
1450 31-01-2010 02:09:04 -4.4 C 2.88 g/m*3 -4.4 C 0 km/h
Sensor: Nr:Datum:Temp:Abs-Feuchte:Windchill:Wind:
Aussen-T/F 1451 31-01-2010 02:21:04 -4.3 C 2.94 g/m*3 -4.3 C 0 km/h
1452 31-01-2010 02:33:04 -4.2 C 2.96 g/m*3 -4.2 C 0 km/h
1453 31-01-2010 02:45:04 -4.2 C 2.99 g/m*3 -4.2 C 0 km/h
1454 31-01-2010 02:57:05 -4.2 C 3.03 g/m*3 -4.2 C 0 km/h
1455 31-01-2010 03:09:05 -4 C 3.07 g/m*3 -4 C 0 km/h
1456 31-01-2010 03:21:05 -3.9 C 3.06 g/m*3 -3.9 C 0 km/h
1457 31-01-2010 03:33:05 -3.7 C 3.1 g/m*3 -3.7 C 0 km/h
1458 31-01-2010 03:45:05 -3.5 C 3.11 g/m*3 -3.5 C 0 km/h
1459 31-01-2010 03:57:05 -3.5 C 3.15 g/m*3 -3.5 C 0 km/h
1460 31-01-2010 04:09:05 -3.4 C 3.17 g/m*3 -3.4 C 0 km/h
1461 31-01-2010 04:21:05 -3.4 C 3.17 g/m*3 -3.4 C 0 km/h
1462 31-01-2010 04:33:05 -3.3 C 3.19 g/m*3 -3.3 C 0 km/h
1463 31-01-2010 04:45:05 -3.2 C 3.18 g/m*3 -3.2 C 0 km/h
1464 31-01-2010 04:57:05 -3.2 C 3.18 g/m*3 -3.2 C 0 km/h
1465 31-01-2010 05:09:05 -3.2 C 3.21 g/m*3 -3.2 C 0 km/h
1466 31-01-2010 05:21:05 -3.1 C 3.24 g/m*3 -3.1 C 0 km/h
1467 31-01-2010 05:33:05 -2.9 C 3.24 g/m*3 -2.9 C 0 km/h
1468 31-01-2010 05:45:05 -2.9 C 3.24 g/m*3 -2.9 C 0 km/h
1469 31-01-2010 05:57:05 -2.9 C 3.24 g/m*3 -2.9 C 0 km/h
1470 31-01-2010 06:09:05 -2.8 C 3.27 g/m*3 -2.8 C 0 km/h
1471 31-01-2010 06:21:05 -2.8 C 3.27 g/m*3 -2.8 C 0 km/h
1472 31-01-2010 06:33:05 -2.8 C 3.27 g/m*3 -2.8 C 0 km/h
1473 31-01-2010 06:45:05 -2.8 C 3.27 g/m*3 -2.8 C 0 km/h
1474 31-01-2010 06:57:05 -2.7 C 3.29 g/m*3 -2.7 C 0 km/h
1475 31-01-2010 07:09:05 -2.6 C 3.31 g/m*3 -2.6 C 0 km/h
Sensor: Nr:Datum:Temp:Abs-Feuchte:Windchill:Wind:
Aussen-T/F 1476 31-01-2010 07:21:05 -2.6 C 3.31 g/m*3 -2.6 C 0 km/h
1477 31-01-2010 07:33:06 -2.6 C 3.31 g/m*3 -2.6 C 0 km/h
1478 31-01-2010 07:45:06 -2.5 C 3.3 g/m*3 -2.5 C 0 km/h
1479 31-01-2010 07:57:06 -2.5 C 3.3 g/m*3 -2.5 C 0 km/h
1480 31-01-2010 08:09:06 -2.4 C 3.36 g/m*3 -2.4 C 0 km/h
1481 31-01-2010 08:21:06 -2.4 C 3.4 g/m*3 -2.4 C 0 km/h
1482 31-01-2010 08:33:03 -2.4 C 3.36 g/m*3 -2.4 C 0 km/h
1483 31-01-2010 08:45:02 -2.4 C 3.36 g/m*3 -2.4 C 0 km/h
1484 31-01-2010 08:57:02 -2.4 C 3.36 g/m*3 -2.4 C 0 km/h
1485 31-01-2010 09:09:02 -2.1 C 3.43 g/m*3 -2.1 C 0 km/h
1486 31-01-2010 09:21:02 -2 C 3.41 g/m*3 -2 C 0 km/h
1487 31-01-2010 09:33:01 -2.2 C 3.33 g/m*3 -2.2 C 0 km/h
1488 31-01-2010 09:45:02 -2 C 3.33 g/m*3 -2 C 0 km/h
1489 31-01-2010 09:57:02 -1.8 C 3.33 g/m*3 -1.8 C 0 km/h
1490 31-01-2010 10:09:01 -1.6 C 3.38 g/m*3 -1.6 C 0 km/h
1491 31-01-2010 10:21:02 -1.7 C 3.31 g/m*3 -1.7 C 0 km/h
1492 31-01-2010 10:33:01 -1.7 C 3.27 g/m*3 -1.7 C 0 km/h
1493 31-01-2010 10:45:02 -1.7 C 3.27 g/m*3 -1.7 C 0 km/h
1494 31-01-2010 10:57:02 -1.6 C 3.29 g/m*3 -1.6 C 0 km/h
1495 31-01-2010 11:09:02 -1.4 C 3.34 g/m*3 -1.4 C 0 km/h
1496 31-01-2010 11:21:02 -1.1 C 3.41 g/m*3 -1.1 C 0 km/h
1497 31-01-2010 11:33:03 -0.7 C 3.42 g/m*3 -0.7 C 0 km/h
1498 31-01-2010 11:45:02 -0.6 C 3.39 g/m*3 -0.6 C 0 km/h
1499 31-01-2010 11:57:03 -0.4 C 3.44 g/m*3 -0.4 C 0 km/h
1500 31-01-2010 12:09:01 -0.2 C 3.44 g/m*3 -0.2 C 0 km/h
Sensor: Nr:Datum:Temp:Abs-Feuchte:Windchill:Wind:
Aussen-T/F 1501 31-01-2010 12:21:02 0.2 C 3.54 g/m*3 0.2 C 0 km/h
1502 31-01-2010 12:33:02 0.7 C 3.61 g/m*3 0.7 C 0 km/h
1503 31-01-2010 12:45:02 1.1 C 3.5 g/m*3 1.1 C 0 km/h
1504 31-01-2010 12:57:02 1.3 C 3.5 g/m*3 1.3 C 0 km/h
1505 31-01-2010 13:09:03 1.6 C 3.46 g/m*3 1.6 C 0 km/h
1506 31-01-2010 13:21:02 1.7 C 3.38 g/m*3 1.7 C 0 km/h
1507 31-01-2010 13:33:03 2 C 3.28 g/m*3 2 C 0 km/h
1508 31-01-2010 13:45:02 2 C 3.22 g/m*3 2 C 0 km/h
1509 31-01-2010 13:57:02 2.2 C 3.15 g/m*3 2.2 C 0 km/h
1510 31-01-2010 14:09:02 2.1 C 3.08 g/m*3 2.1 C 0 km/h
1511 31-01-2010 14:21:01 2.2 C 3.15 g/m*3 2.2 C 0 km/h
1512 31-01-2010 14:33:02 2.4 C 3.14 g/m*3 2.4 C 0 km/h
1513 31-01-2010 14:45:02 2.2 C 2.99 g/m*3 2.2 C 0 km/h
1514 31-01-2010 14:57:02 2.2 C 2.93 g/m*3 2.2 C 0 km/h
1515 31-01-2010 15:09:02 1.7 C 2.94 g/m*3 1.7 C 0 km/h
1516 31-01-2010 15:21:02 1.3 C 2.97 g/m*3 1.3 C 0 km/h
1517 31-01-2010 15:33:02 1.1 C 2.93 g/m*3 1.1 C 0 km/h
1518 31-01-2010 15:45:02 1.1 C 3.03 g/m*3 1.1 C 0 km/h
1519 31-01-2010 15:57:02 1.3 C 3.13 g/m*3 1.3 C 0 km/h
1520 31-01-2010 16:09:02 1.2 C 3.1 g/m*3 1.2 C 0 km/h
1521 31-01-2010 16:21:02 0.8 C 3.12 g/m*3 0.8 C 0 km/h
1522 31-01-2010 16:33:02 0.7 C 3.1 g/m*3 0.7 C 0 km/h
1523 31-01-2010 16:45:02 0.7 C 3.15 g/m*3 0.7 C 0 km/h
1524 31-01-2010 16:57:02 0.5 C 3.11 g/m*3 0.5 C 0 km/h
1525 31-01-2010 17:09:03 0.3 C 3.07 g/m*3 0.3 C 0 km/h
Sensor: Nr:Datum:Temp:Abs-Feuchte:Windchill:Wind:
Aussen-T/F 1526 31-01-2010 17:21:02 0 C 3.15 g/m*3 0 C 0 km/h
1527 31-01-2010 17:33:02 -0.4 C 3.11 g/m*3 -0.4 C 0 km/h
1528 31-01-2010 17:45:01 -0.6 C 3.11 g/m*3 -0.6 C 0 km/h
1529 31-01-2010 17:57:01 -1 C 3.07 g/m*3 -1 C 0 km/h
1530 31-01-2010 18:09:02 -1.1 C 3.14 g/m*3 -1.1 C 0 km/h
1531 31-01-2010 18:21:01 -1.3 C 3.1 g/m*3 -1.3 C 0 km/h
1532 31-01-2010 18:33:01 -1.5 C 3.1 g/m*3 -1.5 C 0 km/h
1533 31-01-2010 18:45:01 -1.7 C 3.1 g/m*3 -1.7 C 0 km/h
1534 31-01-2010 18:57:01 -1.8 C 3.16 g/m*3 -1.8 C 0 km/h
1535 31-01-2010 19:09:02 -1.8 C 3.16 g/m*3 -1.8 C 0 km/h
1536 31-01-2010 19:21:01 -1.8 C 3.12 g/m*3 -1.8 C 0 km/h
1537 31-01-2010 19:33:02 -1.9 C 3.1 g/m*3 -1.9 C 0 km/h
1538 31-01-2010 19:45:01 -1.8 C 3.12 g/m*3 -1.8 C 0 km/h
1539 31-01-2010 19:57:01 -2.1 C 3.06 g/m*3 -2.1 C 0 km/h
1540 31-01-2010 20:09:02 -2.1 C 3.14 g/m*3 -2.1 C 0 km/h
1541 31-01-2010 20:21:01 -1.9 C 3.18 g/m*3 -1.9 C 0 km/h
1542 31-01-2010 20:33:02 -2 C 3.16 g/m*3 -2 C 0 km/h
1543 31-01-2010 20:45:01 -2 C 3.2 g/m*3 -2 C 0 km/h
1544 31-01-2010 20:57:01 -2 C 3.2 g/m*3 -2 C 0 km/h
1545 31-01-2010 21:09:02 -1.8 C 3.25 g/m*3 -1.8 C 0 km/h
1546 31-01-2010 21:21:01 -1.6 C 3.29 g/m*3 -1.6 C 0 km/h
1547 31-01-2010 21:33:02 -1.5 C 3.32 g/m*3 -1.5 C 0 km/h
1548 31-01-2010 21:45:01 -1.3 C 3.32 g/m*3 -1.3 C 0 km/h
1549 31-01-2010 21:57:01 -1.1 C 3.37 g/m*3 -1.1 C 0 km/h
1550 31-01-2010 22:09:02 -0.8 C 3.39 g/m*3 -0.8 C 0 km/h
Sensor: Nr:Datum:Temp:Abs-Feuchte:Windchill:Wind:
Aussen-T/F 1551 31-01-2010 22:21:02 -0.6 C 3.39 g/m*3 -0.6 C 0 km/h
1552 31-01-2010 22:33:01 -0.6 C 3.35 g/m*3 -0.6 C 0 km/h
1553 31-01-2010 22:46:02 -0.7 C 3.32 g/m*3 -0.7 C 0 km/h
1554 31-01-2010 22:58:02 -0.7 C 3.37 g/m*3 -0.7 C 0 km/h
1555 31-01-2010 23:10:02 -0.6 C 3.39 g/m*3 -0.6 C 0 km/h
1556 31-01-2010 23:22:02 -0.5 C 3.37 g/m*3 -0.5 C 0 km/h
1557 31-01-2010 23:34:02 -0.6 C 3.35 g/m*3 -0.6 C 0 km/h
1558 31-01-2010 23:46:02 -0.7 C 3.37 g/m*3 -0.7 C 0 km/h
1559 31-01-2010 23:58:02 -0.7 C 3.42 g/m*3 -0.7 C 0 km/h
1560 01-02-2010 00:10:02 -0.8 C 3.39 g/m*3 -0.8 C 0 km/h
1561 01-02-2010 00:22:02 -1 C 3.35 g/m*3 -1 C 0 km/h
1562 01-02-2010 00:34:02 -1.1 C 3.32 g/m*3 -1.1 C 0 km/h
1563 01-02-2010 00:46:02 -0.7 C 3.42 g/m*3 -0.7 C 0 km/h
1564 01-02-2010 00:58:03 -0.7 C 3.37 g/m*3 -0.7 C 0 km/h
1565 01-02-2010 01:10:03 -0.6 C 3.35 g/m*3 -0.6 C 0 km/h
1566 01-02-2010 01:22:03 -0.5 C 3.37 g/m*3 -0.5 C 0 km/h
1567 01-02-2010 01:34:03 -0.5 C 3.37 g/m*3 -0.5 C 0 km/h
1568 01-02-2010 01:46:03 -0.4 C 3.35 g/m*3 -0.4 C 0 km/h
1569 01-02-2010 01:58:03 -0.4 C 3.35 g/m*3 -0.4 C 0 km/h
1570 01-02-2010 02:10:03 -0.6 C 3.25 g/m*3 -0.6 C 0 km/h
1571 01-02-2010 02:22:03 -0.8 C 3.25 g/m*3 -0.8 C 0 km/h
1572 01-02-2010 02:34:03 -0.8 C 3.25 g/m*3 -0.8 C 0 km/h
1573 01-02-2010 02:46:03 -0.8 C 3.25 g/m*3 -0.8 C 0 km/h
1574 01-02-2010 02:58:03 -0.8 C 3.25 g/m*3 -0.8 C 0 km/h
1575 01-02-2010 03:10:03 -0.7 C 3.28 g/m*3 -0.7 C 0 km/h
Sensor: Nr:Datum:Temp:Abs-Feuchte:Windchill:Wind:
Aussen-T/F 1576 01-02-2010 03:22:03 -0.8 C 3.25 g/m*3 -0.8 C 0 km/h
1577 01-02-2010 03:34:03 -0.8 C 3.25 g/m*3 -0.8 C 0 km/h
1578 01-02-2010 03:46:03 -0.7 C 3.32 g/m*3 -0.7 C 0 km/h
1579 01-02-2010 03:58:03 -0.8 C 3.25 g/m*3 -0.8 C 0 km/h
1580 01-02-2010 04:10:03 -0.8 C 3.25 g/m*3 -0.8 C 0 km/h
1581 01-02-2010 04:22:03 -0.9 C 3.28 g/m*3 -0.9 C 0 km/h
1582 01-02-2010 04:34:03 -1 C 3.25 g/m*3 -1 C 0 km/h
1583 01-02-2010 04:46:03 -0.8 C 3.3 g/m*3 -0.8 C 0 km/h
1584 01-02-2010 04:58:03 -0.7 C 3.28 g/m*3 -0.7 C 0 km/h
1585 01-02-2010 05:10:03 -0.7 C 3.28 g/m*3 -0.7 C 0 km/h
1586 01-02-2010 05:22:04 -0.6 C 3.3 g/m*3 -0.6 C 0 km/h
1587 01-02-2010 05:34:04 -0.5 C 3.32 g/m*3 -0.5 C 0 km/h
1588 01-02-2010 05:46:04 -0.4 C 3.35 g/m*3 -0.4 C 0 km/h
1589 01-02-2010 05:58:04 -0.4 C 3.35 g/m*3 -0.4 C 0 km/h
1590 01-02-2010 06:10:04 -0.4 C 3.35 g/m*3 -0.4 C 0 km/h
1591 01-02-2010 06:22:04 -0.4 C 3.35 g/m*3 -0.4 C 0 km/h
1592 01-02-2010 06:34:04 -0.3 C 3.37 g/m*3 -0.3 C 0 km/h
1593 01-02-2010 06:46:04 -0.3 C 3.37 g/m*3 -0.3 C 0 km/h
1594 01-02-2010 06:58:04 -0.4 C 3.35 g/m*3 -0.4 C 0 km/h
1595 01-02-2010 07:10:02 -0.5 C 3.37 g/m*3 -0.5 C 0 km/h
1596 01-02-2010 07:22:03 -0.7 C 3.32 g/m*3 -0.7 C 0 km/h
1597 01-02-2010 07:34:02 -0.7 C 3.37 g/m*3 -0.7 C 0 km/h
1598 01-02-2010 07:46:02 -0.6 C 3.39 g/m*3 -0.6 C 0 km/h
1599 01-02-2010 07:58:02 -0.5 C 3.42 g/m*3 -0.5 C 0 km/h
1600 01-02-2010 08:10:02 -0.4 C 3.39 g/m*3 -0.4 C 0 km/h
Sensor: Nr:Datum:Temp:Abs-Feuchte:Windchill:Wind:
Aussen-T/F 1601 01-02-2010 08:22:02 -0.4 C 3.44 g/m*3 -0.4 C 0 km/h
1602 01-02-2010 08:34:02 -0.4 C 3.39 g/m*3 -0.4 C 0 km/h
1603 01-02-2010 08:46:02 -0.4 C 3.39 g/m*3 -0.4 C 0 km/h
1604 01-02-2010 08:58:02 -0.4 C 3.39 g/m*3 -0.4 C 0 km/h
1605 01-02-2010 09:10:02 -0.4 C 3.39 g/m*3 -0.4 C 0 km/h
1606 01-02-2010 09:22:02 -0.3 C 3.37 g/m*3 -0.3 C 0 km/h
1607 01-02-2010 09:34:02 -0.3 C 3.37 g/m*3 -0.3 C 0 km/h
1608 01-02-2010 09:46:02 -0.2 C 3.39 g/m*3 -0.2 C 0 km/h
1609 01-02-2010 09:58:02 -0.2 C 3.39 g/m*3 -0.2 C 0 km/h
1610 01-02-2010 10:10:02 -0.1 C 3.37 g/m*3 -0.1 C 0 km/h
1611 01-02-2010 10:22:02 0.2 C 3.44 g/m*3 0.2 C 0 km/h
1612 01-02-2010 10:34:01 0.2 C 3.34 g/m*3 0.2 C 0 km/h
1613 01-02-2010 10:46:02 0.3 C 3.36 g/m*3 0.3 C 0 km/h
1614 01-02-2010 10:58:02 0.3 C 3.31 g/m*3 0.3 C 0 km/h
1615 01-02-2010 11:10:01 0.5 C 3.31 g/m*3 0.5 C 0 km/h
1616 01-02-2010 11:22:02 0.5 C 3.26 g/m*3 0.5 C 0 km/h
1617 01-02-2010 11:34:01 0.7 C 3.3 g/m*3 0.7 C 0 km/h
1618 01-02-2010 11:46:02 1 C 3.22 g/m*3 1 C 0 km/h
1619 01-02-2010 11:58:02 1 C 3.22 g/m*3 1 C 0 km/h
1620 01-02-2010 12:10:02 1.4 C 3.31 g/m*3 1.4 C 0 km/h
1621 01-02-2010 12:22:02 1.3 C 3.23 g/m*3 1.3 C 0 km/h
1622 01-02-2010 12:34:02 1.7 C 3.32 g/m*3 1.7 C 0 km/h
1623 01-02-2010 12:46:02 1.5 C 3.28 g/m*3 1.5 C 0 km/h
1624 01-02-2010 12:58:02 1.5 C 3.28 g/m*3 1.5 C 0 km/h
1625 01-02-2010 13:10:01 1.4 C 3.25 g/m*3 1.4 C 0 km/h
Sensor: Nr:Datum:Temp:Abs-Feuchte:Windchill:Wind:
Aussen-T/F 1626 01-02-2010 13:22:02 1.6 C 3.3 g/m*3 1.6 C 0 km/h
1627 01-02-2010 13:34:01 1.7 C 3.32 g/m*3 1.7 C 0 km/h
1628 01-02-2010 13:46:02 2.3 C 3.29 g/m*3 2.3 C 0 km/h
1629 01-02-2010 13:58:02 2.3 C 3.18 g/m*3 2.3 C 0 km/h
1630 01-02-2010 14:10:01 2.4 C 3.25 g/m*3 2.4 C 0 km/h
1631 01-02-2010 14:22:01 2.4 C 3.25 g/m*3 2.4 C 0 km/h
1632 01-02-2010 14:34:02 2.1 C 3.24 g/m*3 2.1 C 0 km/h
1633 01-02-2010 14:46:02 1.5 C 3.44 g/m*3 1.5 C 0 km/h
1634 01-02-2010 14:58:03 1.4 C 3.68 g/m*3 1.4 C 0 km/h
1635 01-02-2010 15:10:01 1.3 C 3.71 g/m*3 1.3 C 0 km/h
1636 01-02-2010 15:22:02 1.8 C 3.73 g/m*3 1.8 C 0 km/h
1637 01-02-2010 15:34:02 1.5 C 3.71 g/m*3 1.5 C 0 km/h
1638 01-02-2010 15:46:02 1.1 C 3.81 g/m*3 1.1 C 0 km/h
1639 01-02-2010 15:58:02 0.9 C 3.92 g/m*3 0.9 C 0 km/h
1640 01-02-2010 16:10:01 0.7 C 4.02 g/m*3 0.7 C 0 km/h
1641 01-02-2010 16:22:02 0.7 C 4.12 g/m*3 0.7 C 0 km/h
1642 01-02-2010 16:34:01 0.7 C 4.12 g/m*3 0.7 C 0 km/h
1643 01-02-2010 16:46:03 0.8 C 4.1 g/m*3 0.8 C 0 km/h
1644 01-02-2010 16:58:03 1 C 4 g/m*3 1 C 0 km/h
1645 01-02-2010 17:10:03 0.8 C 4.04 g/m*3 0.8 C 0 km/h
1646 01-02-2010 17:22:02 0.4 C 4.13 g/m*3 0.4 C 0 km/h
1647 01-02-2010 17:34:03 0.4 C 4.28 g/m*3 0.4 C 0 km/h
1648 01-02-2010 17:46:01 0.4 C 4.33 g/m*3 0.4 C 0 km/h
1649 01-02-2010 17:58:01 0.3 C 4.3 g/m*3 0.3 C 0 km/h
1650 01-02-2010 18:10:02 0.2 C 4.32 g/m*3 0.2 C 0 km/h
Sensor: Nr:Datum:Temp:Abs-Feuchte:Windchill:Wind:
Aussen-T/F 1651 01-02-2010 18:22:02 0.2 C 4.37 g/m*3 0.2 C 0 km/h
1652 01-02-2010 18:34:02 0.2 C 4.42 g/m*3 0.2 C 0 km/h
1653 01-02-2010 18:46:02 0.2 C 4.47 g/m*3 0.2 C 0 km/h
1654 01-02-2010 18:58:02 0.2 C 4.52 g/m*3 0.2 C 0 km/h
1655 01-02-2010 19:10:02 0.3 C 4.55 g/m*3 0.3 C 0 km/h
1656 01-02-2010 19:22:02 0.3 C 4.55 g/m*3 0.3 C 0 km/h
1657 01-02-2010 19:34:01 0.3 C 4.5 g/m*3 0.3 C 0 km/h
1658 01-02-2010 19:46:02 0.3 C 4.5 g/m*3 0.3 C 0 km/h
1659 01-02-2010 19:58:02 0.5 C 4.56 g/m*3 0.5 C 0 km/h
1660 01-02-2010 20:10:01 0.5 C 4.51 g/m*3 0.5 C 0 km/h
1661 01-02-2010 20:22:02 0.5 C 4.46 g/m*3 0.5 C 0 km/h
1662 01-02-2010 20:34:01 0.5 C 4.41 g/m*3 0.5 C 0 km/h
1663 01-02-2010 20:46:02 0.3 C 4.35 g/m*3 0.3 C 0 km/h
1664 01-02-2010 20:58:02 0.3 C 4.35 g/m*3 0.3 C 0 km/h
1665 01-02-2010 21:10:01 0.2 C 4.32 g/m*3 0.2 C 0 km/h
1666 01-02-2010 21:22:02 0.3 C 4.35 g/m*3 0.3 C 0 km/h
1667 01-02-2010 21:34:01 0.3 C 4.35 g/m*3 0.3 C 0 km/h
1668 01-02-2010 21:46:03 0.2 C 4.32 g/m*3 0.2 C 0 km/h
1669 01-02-2010 21:58:03 0.2 C 4.32 g/m*3 0.2 C 0 km/h
1670 01-02-2010 22:10:02 0.2 C 4.37 g/m*3 0.2 C 0 km/h
1671 01-02-2010 22:23:02 0.2 C 4.37 g/m*3 0.2 C 0 km/h
1672 01-02-2010 22:35:02 0.5 C 4.51 g/m*3 0.5 C 0 km/h
1673 01-02-2010 22:47:02 0.5 C 4.46 g/m*3 0.5 C 0 km/h
1674 01-02-2010 22:59:02 0.5 C 4.46 g/m*3 0.5 C 0 km/h
1675 01-02-2010 23:11:02 0.4 C 4.33 g/m*3 0.4 C 0 km/h
Sensor: Nr:Datum:Temp:Abs-Feuchte:Windchill:Wind:
Aussen-T/F 1676 01-02-2010 23:23:03 0.4 C 4.28 g/m*3 0.4 C 0 km/h
1677 01-02-2010 23:35:03 0.3 C 4.25 g/m*3 0.3 C 0 km/h
1678 01-02-2010 23:47:03 0.3 C 4.3 g/m*3 0.3 C 0 km/h
1679 01-02-2010 23:59:03 0.3 C 4.3 g/m*3 0.3 C 0 km/h
1680 02-02-2010 00:11:03 0.3 C 4.11 g/m*3 0.3 C 0 km/h
1681 02-02-2010 00:23:03 0.4 C 3.84 g/m*3 0.4 C 0 km/h
1682 02-02-2010 00:35:03 0.2 C 3.68 g/m*3 0.2 C 0 km/h
1683 02-02-2010 00:47:03 0.1 C 3.66 g/m*3 0.1 C 0 km/h
1684 02-02-2010 00:59:03 -0.1 C 3.56 g/m*3 -0.1 C 0 km/h
1685 02-02-2010 01:11:03 -0.3 C 3.51 g/m*3 -0.3 C 0 km/h
1686 02-02-2010 01:23:03 -0.5 C 3.51 g/m*3 -0.5 C 0 km/h
1687 02-02-2010 01:35:03 -0.8 C 3.48 g/m*3 -0.8 C 0 km/h
1688 02-02-2010 01:47:03 -0.7 C 3.6 g/m*3 -0.7 C 0 km/h
1689 02-02-2010 01:59:03 -0.6 C 3.63 g/m*3 -0.6 C 0 km/h
1690 02-02-2010 02:11:03 -0.6 C 3.53 g/m*3 -0.6 C 0 km/h
1691 02-02-2010 02:23:03 -0.7 C 3.46 g/m*3 -0.7 C 0 km/h
1692 02-02-2010 02:35:03 -1 C 3.3 g/m*3 -1 C 0 km/h
1693 02-02-2010 02:47:03 -1.6 C 3.25 g/m*3 -1.6 C 0 km/h
1694 02-02-2010 02:59:03 -2.1 C 3.22 g/m*3 -2.1 C 0 km/h
1695 02-02-2010 03:11:03 -2.5 C 3.17 g/m*3 -2.5 C 0 km/h
1696 02-02-2010 03:23:03 -2.8 C 3.15 g/m*3 -2.8 C 0 km/h
1697 02-02-2010 03:35:03 -3 C 3.14 g/m*3 -3 C 0 km/h
1698 02-02-2010 03:47:04 -3 C 3.18 g/m*3 -3 C 0 km/h
1699 02-02-2010 03:59:04 -3 C 3.22 g/m*3 -3 C 0 km/h
1700 02-02-2010 04:11:04 -3.1 C 3.24 g/m*3 -3.1 C 0 km/h
Sensor: Nr:Datum:Temp:Abs-Feuchte:Windchill:Wind:
Aussen-T/F 1701 02-02-2010 04:23:04 -3 C 3.3 g/m*3 -3 C 0 km/h
1702 02-02-2010 04:35:04 -2.9 C 3.36 g/m*3 -2.9 C 0 km/h
1703 02-02-2010 04:47:04 -2.7 C 3.45 g/m*3 -2.7 C 0 km/h
1704 02-02-2010 04:59:04 -2.6 C 3.48 g/m*3 -2.6 C 0 km/h
1705 02-02-2010 05:11:04 -2.4 C 3.57 g/m*3 -2.4 C 0 km/h
1706 02-02-2010 05:23:04 -2.2 C 3.62 g/m*3 -2.2 C 0 km/h
1707 02-02-2010 05:35:04 -2.3 C 3.59 g/m*3 -2.3 C 0 km/h
1708 02-02-2010 05:47:04 -2.4 C 3.52 g/m*3 -2.4 C 0 km/h
1709 02-02-2010 05:59:04 -2.4 C 3.52 g/m*3 -2.4 C 0 km/h
1710 02-02-2010 06:11:04 -2.3 C 3.55 g/m*3 -2.3 C 0 km/h
1711 02-02-2010 06:23:04 -1.7 C 3.75 g/m*3 -1.7 C 0 km/h
1712 02-02-2010 06:35:04 -1.2 C 3.74 g/m*3 -1.2 C 0 km/h
1713 02-02-2010 06:47:04 -1.2 C 3.66 g/m*3 -1.2 C 0 km/h
1714 02-02-2010 06:59:04 -1.3 C 3.59 g/m*3 -1.3 C 0 km/h
1715 02-02-2010 07:11:02 -1.3 C 3.59 g/m*3 -1.3 C 0 km/h
1716 02-02-2010 07:23:02 -1.6 C 3.47 g/m*3 -1.6 C 0 km/h
1717 02-02-2010 07:35:02 -1.8 C 3.46 g/m*3 -1.8 C 0 km/h
1718 02-02-2010 07:47:02 -1.7 C 3.49 g/m*3 -1.7 C 0 km/h
1719 02-02-2010 07:59:02 -1.5 C 3.49 g/m*3 -1.5 C 0 km/h
1720 02-02-2010 08:11:03 -1.4 C 3.52 g/m*3 -1.4 C 0 km/h
1721 02-02-2010 08:23:02 -1.3 C 3.5 g/m*3 -1.3 C 0 km/h
1722 02-02-2010 08:35:02 -1.2 C 3.48 g/m*3 -1.2 C 0 km/h
1723 02-02-2010 08:47:02 -1.1 C 3.5 g/m*3 -1.1 C 0 km/h
1724 02-02-2010 08:59:02 -0.8 C 3.53 g/m*3 -0.8 C 0 km/h
1725 02-02-2010 09:11:02 -0.7 C 3.55 g/m*3 -0.7 C 0 km/h
Sensor: Nr:Datum:Temp:Abs-Feuchte:Windchill:Wind:
Aussen-T/F 1726 02-02-2010 09:23:02 -0.6 C 3.63 g/m*3 -0.6 C 0 km/h
1727 02-02-2010 09:35:02 -0.3 C 3.7 g/m*3 -0.3 C 0 km/h
1728 02-02-2010 09:47:02 -0.1 C 3.75 g/m*3 -0.1 C 0 km/h
1729 02-02-2010 09:59:02 0.1 C 3.81 g/m*3 0.1 C 0 km/h
1730 02-02-2010 10:11:02 0.4 C 3.88 g/m*3 0.4 C 0 km/h
1731 02-02-2010 10:23:02 0.6 C 3.89 g/m*3 0.6 C 0 km/h
1732 02-02-2010 10:35:01 0.8 C 3.89 g/m*3 0.8 C 0 km/h
1733 02-02-2010 10:47:02 1 C 3.89 g/m*3 1 C 0 km/h
1734 02-02-2010 10:59:02 1.1 C 3.92 g/m*3 1.1 C 0 km/h
1735 02-02-2010 11:11:01 1.3 C 3.92 g/m*3 1.3 C 0 km/h
1736 02-02-2010 11:23:02 1.5 C 3.97 g/m*3 1.5 C 0 km/h
1737 02-02-2010 11:35:01 1.5 C 3.97 g/m*3 1.5 C 0 km/h
1738 02-02-2010 11:47:03 1.5 C 3.97 g/m*3 1.5 C 0 km/h
1739 02-02-2010 11:59:03 1.6 C 4.06 g/m*3 1.6 C 0 km/h
1740 02-02-2010 12:11:02 1.8 C 4.11 g/m*3 1.8 C 0 km/h
1741 02-02-2010 12:23:03 1.9 C 4.14 g/m*3 1.9 C 0 km/h
1742 02-02-2010 12:35:02 2 C 4.11 g/m*3 2 C 0 km/h
1743 02-02-2010 12:47:02 2.1 C 4.14 g/m*3 2.1 C 0 km/h
1744 02-02-2010 12:59:02 2.2 C 4.22 g/m*3 2.2 C 0 km/h
1745 02-02-2010 13:11:02 2.2 C 4.22 g/m*3 2.2 C 0 km/h
1746 02-02-2010 13:23:02 2.4 C 4.23 g/m*3 2.4 C 0 km/h
1747 02-02-2010 13:35:02 2.6 C 4.22 g/m*3 2.6 C 0 km/h
1748 02-02-2010 13:47:02 2.6 C 4.17 g/m*3 2.6 C 0 km/h
1749 02-02-2010 13:59:02 2.8 C 4.22 g/m*3 2.8 C 0 km/h
1750 02-02-2010 14:11:02 2.8 C 4.22 g/m*3 2.8 C 0 km/h
Sensor: Nr:Datum:Temp:Abs-Feuchte:Windchill:Wind:
Aussen-T/F 1751 02-02-2010 14:23:02 2.9 C 4.25 g/m*3 2.9 C 0 km/h
1752 02-02-2010 14:35:01 2.9 C 4.25 g/m*3 2.9 C 0 km/h
1753 02-02-2010 14:47:02 2.9 C 4.19 g/m*3 2.9 C 0 km/h
1754 02-02-2010 14:59:02 2.7 C 4.2 g/m*3 2.7 C 0 km/h
1755 02-02-2010 15:11:01 2.7 C 4.31 g/m*3 2.7 C 0 km/h
1756 02-02-2010 15:23:02 2.7 C 4.37 g/m*3 2.7 C 0 km/h
1757 02-02-2010 15:35:01 2.7 C 4.37 g/m*3 2.7 C 0 km/h
1758 02-02-2010 15:47:03 2.6 C 4.4 g/m*3 2.6 C 0 km/h
1759 02-02-2010 15:59:03 2.6 C 4.4 g/m*3 2.6 C 0 km/h
1760 02-02-2010 16:11:02 2.5 C 4.37 g/m*3 2.5 C 0 km/h
1761 02-02-2010 16:23:03 2.4 C 4.4 g/m*3 2.4 C 0 km/h
1762 02-02-2010 16:35:02 2.4 C 4.45 g/m*3 2.4 C 0 km/h
1763 02-02-2010 16:47:03 2.3 C 4.48 g/m*3 2.3 C 0 km/h
1764 02-02-2010 16:59:03 2.2 C 4.45 g/m*3 2.2 C 0 km/h
1765 02-02-2010 17:11:02 2.1 C 4.48 g/m*3 2.1 C 0 km/h
1766 02-02-2010 17:23:02 2.1 C 4.48 g/m*3 2.1 C 0 km/h
1767 02-02-2010 17:35:02 2.1 C 4.48 g/m*3 2.1 C 0 km/h
1768 02-02-2010 17:47:02 2.2 C 4.45 g/m*3 2.2 C 0 km/h
1769 02-02-2010 17:59:02 2.2 C 4.45 g/m*3 2.2 C 0 km/h
1770 02-02-2010 18:11:02 2.3 C 4.48 g/m*3 2.3 C 0 km/h
1771 02-02-2010 18:23:02 2.2 C 4.45 g/m*3 2.2 C 0 km/h
1772 02-02-2010 18:35:01 2.2 C 4.45 g/m*3 2.2 C 0 km/h
1773 02-02-2010 18:47:02 2.2 C 4.39 g/m*3 2.2 C 0 km/h
1774 02-02-2010 18:59:02 2.2 C 4.39 g/m*3 2.2 C 0 km/h
1775 02-02-2010 19:11:01 2.3 C 4.42 g/m*3 2.3 C 0 km/h
Sensor: Nr:Datum:Temp:Abs-Feuchte:Windchill:Wind:
Aussen-T/F 1776 02-02-2010 19:23:02 2.2 C 4.45 g/m*3 2.2 C 0 km/h
1777 02-02-2010 19:35:01 2.1 C 4.48 g/m*3 2.1 C 0 km/h
1778 02-02-2010 19:47:02 2.1 C 4.53 g/m*3 2.1 C 0 km/h
1779 02-02-2010 19:59:02 2.2 C 4.56 g/m*3 2.2 C 0 km/h
1780 02-02-2010 20:11:01 2.2 C 4.56 g/m*3 2.2 C 0 km/h
1781 02-02-2010 20:23:02 2.4 C 4.62 g/m*3 2.4 C 0 km/h
1782 02-02-2010 20:35:01 2.5 C 4.6 g/m*3 2.5 C 0 km/h
1783 02-02-2010 20:47:02 2.4 C 4.57 g/m*3 2.4 C 0 km/h
1784 02-02-2010 20:59:02 2.5 C 4.6 g/m*3 2.5 C 0 km/h
1785 02-02-2010 21:11:02 2.6 C 4.57 g/m*3 2.6 C 0 km/h
1786 02-02-2010 21:23:02 2.6 C 4.57 g/m*3 2.6 C 0 km/h
1787 02-02-2010 21:35:02 2.6 C 4.57 g/m*3 2.6 C 0 km/h
1788 02-02-2010 21:48:03 2.6 C 4.63 g/m*3 2.6 C 0 km/h
1789 02-02-2010 22:00:03 2.7 C 4.66 g/m*3 2.7 C 0 km/h
1790 02-02-2010 22:12:03 2.6 C 4.69 g/m*3 2.6 C 0 km/h
1791 02-02-2010 22:24:03 2.5 C 4.77 g/m*3 2.5 C 0 km/h
1792 02-02-2010 22:36:03 2.4 C 4.8 g/m*3 2.4 C 0 km/h
1793 02-02-2010 22:48:03 2.4 C 4.8 g/m*3 2.4 C 0 km/h
1794 02-02-2010 23:00:03 2.5 C 4.83 g/m*3 2.5 C 0 km/h
1795 02-02-2010 23:12:03 2.7 C 4.84 g/m*3 2.7 C 0 km/h
1796 02-02-2010 23:24:03 2.7 C 4.78 g/m*3 2.7 C 0 km/h
1797 02-02-2010 23:36:03 2.8 C 4.81 g/m*3 2.8 C 0 km/h
1798 02-02-2010 23:48:04 2.9 C 4.84 g/m*3 2.9 C 0 km/h
1799 03-02-2010 00:00:04 2.8 C 4.81 g/m*3 2.8 C 0 km/h
1800 03-02-2010 00:12:04 3.3 C 4.91 g/m*3 3.3 C 0 km/h
Sensor: Nr:Datum:Temp:Abs-Feuchte:Windchill:Wind:
Aussen-T/F 1801 03-02-2010 00:24:04 3.6 C 4.89 g/m*3 3.6 C 0 km/h
1802 03-02-2010 00:36:04 3.7 C 4.92 g/m*3 3.7 C 0 km/h
1803 03-02-2010 00:48:04 4 C 4.96 g/m*3 4 C 0 km/h
1804 03-02-2010 01:00:04 4 C 4.9 g/m*3 4 C 0 km/h
1805 03-02-2010 01:12:04 4 C 4.9 g/m*3 4 C 0 km/h
1806 03-02-2010 01:24:04 4 C 4.96 g/m*3 4 C 0 km/h
1807 03-02-2010 01:36:04 4.3 C 5.06 g/m*3 4.3 C 0 km/h
1808 03-02-2010 01:48:04 4.4 C 5.09 g/m*3 4.4 C 0 km/h
1809 03-02-2010 02:00:04 4.6 C 5.16 g/m*3 4.6 C 0 km/h
1810 03-02-2010 02:12:04 4.8 C 5.16 g/m*3 4.8 C 0 km/h
1811 03-02-2010 02:24:04 4.7 C 5.13 g/m*3 4.7 C 0 km/h
1812 03-02-2010 02:36:04 2.9 C 4.78 g/m*3 2.9 C 0 km/h
1813 03-02-2010 02:48:04 2.4 C 4.8 g/m*3 2.4 C 0 km/h
1814 03-02-2010 03:00:04 2.1 C 4.81 g/m*3 2.1 C 0 km/h
1815 03-02-2010 03:12:04 1.9 C 4.86 g/m*3 1.9 C 0 km/h
1816 03-02-2010 03:24:04 1.7 C 4.85 g/m*3 1.7 C 0 km/h
1817 03-02-2010 03:36:04 1.6 C 4.87 g/m*3 1.6 C 0 km/h
1818 03-02-2010 03:48:04 1.6 C 4.87 g/m*3 1.6 C 0 km/h
1819 03-02-2010 04:00:05 1.5 C 4.89 g/m*3 1.5 C 0 km/h
1820 03-02-2010 04:12:05 1.2 C 4.79 g/m*3 1.2 C 0 km/h
1821 03-02-2010 04:24:05 0.9 C 4.69 g/m*3 0.9 C 0 km/h
1822 03-02-2010 04:36:05 0.8 C 4.66 g/m*3 0.8 C 0 km/h
1823 03-02-2010 04:48:05 1 C 4.72 g/m*3 1 C 0 km/h
1824 03-02-2010 05:00:05 1.1 C 4.81 g/m*3 1.1 C 0 km/h
1825 03-02-2010 05:12:05 1.1 C 4.81 g/m*3 1.1 C 0 km/h
Sensor: Nr:Datum:Temp:Abs-Feuchte:Windchill:Wind:
Aussen-T/F 1826 03-02-2010 05:24:05 1.1 C 4.86 g/m*3 1.1 C 0 km/h
1827 03-02-2010 05:36:05 1.1 C 4.86 g/m*3 1.1 C 0 km/h
1828 03-02-2010 05:48:05 1.2 C 4.89 g/m*3 1.2 C 0 km/h
1829 03-02-2010 06:00:05 1.1 C 4.91 g/m*3 1.1 C 0 km/h
1830 03-02-2010 06:12:05 1.1 C 4.91 g/m*3 1.1 C 0 km/h
1831 03-02-2010 06:24:05 1.1 C 4.91 g/m*3 1.1 C 0 km/h
1832 03-02-2010 06:36:05 1 C 4.88 g/m*3 1 C 0 km/h
1833 03-02-2010 06:48:05 1.1 C 4.91 g/m*3 1.1 C 0 km/h
1834 03-02-2010 07:00:05 1 C 4.88 g/m*3 1 C 0 km/h
1835 03-02-2010 07:12:03 0.9 C 4.9 g/m*3 0.9 C 0 km/h
1836 03-02-2010 07:24:02 1 C 4.88 g/m*3 1 C 0 km/h
1837 03-02-2010 07:36:03 1 C 4.93 g/m*3 1 C 0 km/h
1838 03-02-2010 07:48:02 1 C 4.93 g/m*3 1 C 0 km/h
1839 03-02-2010 08:00:02 1 C 4.93 g/m*3 1 C 0 km/h
1840 03-02-2010 08:12:01 1 C 4.93 g/m*3 1 C 0 km/h
1841 03-02-2010 08:24:02 1 C 4.93 g/m*3 1 C 0 km/h
1842 03-02-2010 08:36:02 1.1 C 4.96 g/m*3 1.1 C 0 km/h
1843 03-02-2010 08:48:02 1.2 C 5 g/m*3 1.2 C 0 km/h
1844 03-02-2010 09:00:02 1.2 C 5 g/m*3 1.2 C 0 km/h
1845 03-02-2010 09:12:03 1.3 C 5.03 g/m*3 1.3 C 0 km/h
1846 03-02-2010 09:24:02 1.5 C 5.1 g/m*3 1.5 C 0 km/h
1847 03-02-2010 09:36:02 1.5 C 5.1 g/m*3 1.5 C 0 km/h
1848 03-02-2010 09:48:02 1.7 C 5.17 g/m*3 1.7 C 0 km/h
1849 03-02-2010 10:00:02 2 C 5.22 g/m*3 2 C 0 km/h
1850 03-02-2010 10:12:01 2.2 C 5.29 g/m*3 2.2 C 0 km/h
Sensor: Nr:Datum:Temp:Abs-Feuchte:Windchill:Wind:
Aussen-T/F 1851 03-02-2010 10:24:02 2.3 C 5.27 g/m*3 2.3 C 0 km/h
1852 03-02-2010 10:36:02 2.7 C 5.36 g/m*3 2.7 C 0 km/h
1853 03-02-2010 10:48:02 3.1 C 5.45 g/m*3 3.1 C 0 km/h
1854 03-02-2010 11:00:02 3.1 C 5.33 g/m*3 3.1 C 0 km/h
1855 03-02-2010 11:12:02 3 C 5.11 g/m*3 3 C 0 km/h
1856 03-02-2010 11:24:02 3.3 C 5.22 g/m*3 3.3 C 0 km/h
1857 03-02-2010 11:36:02 3.3 C 5.1 g/m*3 3.3 C 0 km/h
1858 03-02-2010 11:48:02 3.1 C 4.97 g/m*3 3.1 C 0 km/h
1859 03-02-2010 12:00:02 3.2 C 5.06 g/m*3 3.2 C 0 km/h
1860 03-02-2010 12:12:01 3.1 C 5.03 g/m*3 3.1 C 0 km/h
1861 03-02-2010 12:24:02 3 C 5.05 g/m*3 3 C 0 km/h
1862 03-02-2010 12:36:02 3 C 5.11 g/m*3 3 C 0 km/h
1863 03-02-2010 12:48:02 3.1 C 5.15 g/m*3 3.1 C 0 km/h
1864 03-02-2010 13:00:02 3.1 C 5.21 g/m*3 3.1 C 0 km/h
1865 03-02-2010 13:12:02 3.1 C 5.21 g/m*3 3.1 C 0 km/h
1866 03-02-2010 13:24:02 3.3 C 5.28 g/m*3 3.3 C 0 km/h
1867 03-02-2010 13:36:02 3.2 C 5.24 g/m*3 3.2 C 0 km/h
1868 03-02-2010 13:48:02 3.3 C 5.28 g/m*3 3.3 C 0 km/h
1869 03-02-2010 14:00:02 3.3 C 5.28 g/m*3 3.3 C 0 km/h
1870 03-02-2010 14:12:02 3.3 C 5.28 g/m*3 3.3 C 0 km/h
1871 03-02-2010 14:24:02 3.3 C 5.28 g/m*3 3.3 C 0 km/h
1872 03-02-2010 14:36:02 3.3 C 5.28 g/m*3 3.3 C 0 km/h
1873 03-02-2010 14:48:02 3.2 C 5.24 g/m*3 3.2 C 0 km/h
1874 03-02-2010 15:00:02 3.2 C 5.24 g/m*3 3.2 C 0 km/h
1875 03-02-2010 15:12:02 3.1 C 5.27 g/m*3 3.1 C 0 km/h
Sensor: Nr:Datum:Temp:Abs-Feuchte:Windchill:Wind:
Aussen-T/F 1876 03-02-2010 15:24:02 2.9 C 5.2 g/m*3 2.9 C 0 km/h
1877 03-02-2010 15:36:02 3 C 5.23 g/m*3 3 C 0 km/h
1878 03-02-2010 15:48:02 2.9 C 5.26 g/m*3 2.9 C 0 km/h
1879 03-02-2010 16:00:02 2.8 C 5.22 g/m*3 2.8 C 0 km/h
1880 03-02-2010 16:12:02 2.6 C 5.15 g/m*3 2.6 C 0 km/h
1881 03-02-2010 16:24:02 2.6 C 5.15 g/m*3 2.6 C 0 km/h
1882 03-02-2010 16:36:02 2.5 C 5.12 g/m*3 2.5 C 0 km/h
1883 03-02-2010 16:48:02 2.4 C 5.08 g/m*3 2.4 C 0 km/h
1884 03-02-2010 17:00:02 2.4 C 5.14 g/m*3 2.4 C 0 km/h
1885 03-02-2010 17:12:02 2.3 C 5.1 g/m*3 2.3 C 0 km/h
1886 03-02-2010 17:24:02 2.2 C 5.07 g/m*3 2.2 C 0 km/h
1887 03-02-2010 17:36:02 2.1 C 5.04 g/m*3 2.1 C 0 km/h
1888 03-02-2010 17:48:01 1.9 C 5.02 g/m*3 1.9 C 0 km/h
1889 03-02-2010 18:00:01 1.9 C 5.02 g/m*3 1.9 C 0 km/h
1890 03-02-2010 18:12:02 1.9 C 5.02 g/m*3 1.9 C 0 km/h
1891 03-02-2010 18:24:01 1.9 C 5.08 g/m*3 1.9 C 0 km/h
1892 03-02-2010 18:36:01 1.9 C 5.08 g/m*3 1.9 C 0 km/h
1893 03-02-2010 18:48:01 1.8 C 5.04 g/m*3 1.8 C 0 km/h
1894 03-02-2010 19:00:01 1.8 C 5.04 g/m*3 1.8 C 0 km/h
1895 03-02-2010 19:12:02 1.7 C 5.01 g/m*3 1.7 C 0 km/h
1896 03-02-2010 19:20:01 1.7 C 5.01 g/m*3 1.7 C 0 km/h
1897 03-02-2010 19:45:01 1.8 C 5.04 g/m*3 1.8 C 0 km/h
1898 03-02-2010 20:10:02 1.9 C 5.13 g/m*3 1.9 C 0 km/h
1899 03-02-2010 20:35:01 1.8 C 5.1 g/m*3 1.8 C 0 km/h
1900 03-02-2010 21:00:01 1.7 C 5.06 g/m*3 1.7 C 0 km/h
Sensor: Nr:Datum:Temp:Abs-Feuchte:Windchill:Wind:
Aussen-T/F 1901 03-02-2010 21:25:01 1.7 C 5.06 g/m*3 1.7 C 0 km/h
1902 03-02-2010 21:50:02 1.8 C 5.1 g/m*3 1.8 C 0 km/h
1903 03-02-2010 22:15:03 1.8 C 5.1 g/m*3 1.8 C 0 km/h
1904 03-02-2010 22:40:02 1.8 C 5.1 g/m*3 1.8 C 0 km/h
1905 03-02-2010 23:05:02 1.8 C 5.1 g/m*3 1.8 C 0 km/h
1906 03-02-2010 23:30:02 1.8 C 5.1 g/m*3 1.8 C 0 km/h
1907 03-02-2010 23:55:02 2 C 5.17 g/m*3 2 C 0 km/h
1908 04-02-2010 00:20:02 2 C 5.17 g/m*3 2 C 0 km/h
1909 04-02-2010 00:45:02 2 C 5.17 g/m*3 2 C 0 km/h
1910 04-02-2010 01:10:02 2 C 5.17 g/m*3 2 C 0 km/h
1911 04-02-2010 01:35:02 2 C 5.22 g/m*3 2 C 0 km/h
1912 04-02-2010 02:00:02 2.1 C 5.26 g/m*3 2.1 C 0 km/h
1913 04-02-2010 02:25:03 2.2 C 5.29 g/m*3 2.2 C 0 km/h
1914 04-02-2010 02:51:03 2.1 C 5.26 g/m*3 2.1 C 0 km/h
1915 04-02-2010 03:16:04 2.2 C 5.29 g/m*3 2.2 C 0 km/h
1916 04-02-2010 03:41:01 2.3 C 5.33 g/m*3 2.3 C 0 km/h
1917 04-02-2010 04:06:02 2.3 C 5.33 g/m*3 2.3 C 0 km/h
1918 04-02-2010 04:31:02 2.3 C 5.33 g/m*3 2.3 C 0 km/h
1919 04-02-2010 04:56:01 2.4 C 5.37 g/m*3 2.4 C 0 km/h
1920 04-02-2010 05:21:02 2.5 C 5.46 g/m*3 2.5 C 0 km/h
1921 04-02-2010 05:46:02 2.7 C 5.54 g/m*3 2.7 C 0 km/h
1922 04-02-2010 06:11:01 3 C 5.65 g/m*3 3 C 0 km/h
1923 04-02-2010 06:51:02 3.6 C 5.88 g/m*3 3.6 C 0 km/h
1924 04-02-2010 07:16:02 3.4 C 5.8 g/m*3 3.4 C 0 km/h
1925 04-02-2010 07:41:02 3.2 C 5.72 g/m*3 3.2 C 0 km/h
Sensor: Nr:Datum:Temp:Abs-Feuchte:Windchill:Wind:
Aussen-T/F 1926 04-02-2010 08:06:02 3.3 C 5.76 g/m*3 3.3 C 0 km/h
1927 04-02-2010 08:31:02 3.2 C 5.72 g/m*3 3.2 C 0 km/h
1928 04-02-2010 08:56:02 3.3 C 5.76 g/m*3 3.3 C 0 km/h
1929 04-02-2010 09:21:02 3.7 C 5.92 g/m*3 3.7 C 0 km/h
1930 04-02-2010 09:46:02 4.5 C 6.24 g/m*3 4.5 C 0 km/h
1931 04-02-2010 10:11:02 4.7 C 6.19 g/m*3 4.7 C 0 km/h
1932 04-02-2010 10:36:02 5.2 C 6.13 g/m*3 5.2 C 0 km/h
1933 04-02-2010 11:01:02 5.7 C 6.19 g/m*3 5.7 C 0 km/h
1934 04-02-2010 11:26:02 6.3 C 6.07 g/m*3 6.3 C 0 km/h
1935 04-02-2010 11:51:02 6.9 C 6 g/m*3 6.9 C 0 km/h
1936 04-02-2010 12:16:02 7.1 C 5.85 g/m*3 7.1 C 0 km/h
1937 04-02-2010 12:41:02 7.5 C 5.92 g/m*3 7.5 C 0 km/h
1938 04-02-2010 13:06:02 8 C 5.95 g/m*3 8 C 0 km/h
1939 04-02-2010 13:31:02 8.5 C 5.98 g/m*3 8.5 C 0 km/h
1940 04-02-2010 13:56:02 8.7 C 5.88 g/m*3 8.7 C 0 km/h
1941 04-02-2010 14:21:02 8.5 C 5.81 g/m*3 8.5 C 0 km/h
1942 04-02-2010 14:46:03 8.2 C 5.61 g/m*3 8.2 C 0 km/h
1943 04-02-2010 15:11:03 8.8 C 5.92 g/m*3 8.8 C 0 km/h
1944 04-02-2010 15:36:03 8.8 C 5.74 g/m*3 8.8 C 0 km/h
1945 04-02-2010 16:01:03 7.8 C 5.55 g/m*3 7.8 C 0 km/h
1946 04-02-2010 16:26:03 7.5 C 5.52 g/m*3 7.5 C 0 km/h
1947 04-02-2010 16:51:03 6.2 C 5.37 g/m*3 6.2 C 0 km/h
1948 04-02-2010 17:16:03 5.7 C 5.48 g/m*3 5.7 C 0 km/h
1949 04-02-2010 17:41:03 5 C 5.37 g/m*3 5 C 0 km/h
1950 04-02-2010 18:06:03 4.4 C 5.29 g/m*3 4.4 C 0 km/h
Sensor: Nr:Datum:Temp:Abs-Feuchte:Windchill:Wind:
Aussen-T/F 1951 04-02-2010 18:31:03 4 C 5.28 g/m*3 4 C 0 km/h
1952 04-02-2010 18:56:03 3.6 C 5.2 g/m*3 3.6 C 0 km/h
1953 04-02-2010 19:21:03 3.3 C 5.16 g/m*3 3.3 C 0 km/h
1954 04-02-2010 19:46:03 3 C 5.11 g/m*3 3 C 0 km/h
1955 04-02-2010 20:11:03 2.7 C 5.13 g/m*3 2.7 C 0 km/h
1956 04-02-2010 20:36:03 2.5 C 5.12 g/m*3 2.5 C 0 km/h
1957 04-02-2010 21:01:03 2.5 C 5.17 g/m*3 2.5 C 0 km/h
1958 04-02-2010 21:26:03 2.6 C 5.27 g/m*3 2.6 C 0 km/h
1959 04-02-2010 21:51:03 2.1 C 5.04 g/m*3 2.1 C 0 km/h
1960 04-02-2010 22:16:03 2.2 C 5.18 g/m*3 2.2 C 0 km/h
1961 04-02-2010 22:41:03 1.8 C 5.04 g/m*3 1.8 C 0 km/h
1962 04-02-2010 23:06:03 1.8 C 5.1 g/m*3 1.8 C 0 km/h
1963 04-02-2010 23:31:03 1.7 C 5.06 g/m*3 1.7 C 0 km/h
1964 04-02-2010 23:56:04 2.1 C 5.2 g/m*3 2.1 C 0 km/h
1965 05-02-2010 00:21:04 2.6 C 5.44 g/m*3 2.6 C 0 km/h
1966 05-02-2010 00:46:04 2.2 C 5.24 g/m*3 2.2 C 0 km/h
1967 05-02-2010 01:11:04 2 C 5.17 g/m*3 2 C 0 km/h
1968 05-02-2010 01:36:04 1.7 C 5.12 g/m*3 1.7 C 0 km/h
1969 05-02-2010 02:01:04 2.2 C 5.24 g/m*3 2.2 C 0 km/h
1970 05-02-2010 02:26:04 2.6 C 5.38 g/m*3 2.6 C 0 km/h
1971 05-02-2010 02:51:04 2.7 C 5.3 g/m*3 2.7 C 0 km/h
1972 05-02-2010 03:16:04 2.7 C 5.19 g/m*3 2.7 C 0 km/h
1973 05-02-2010 03:41:04 2.8 C 5.04 g/m*3 2.8 C 0 km/h
1974 05-02-2010 04:06:04 2.8 C 5.04 g/m*3 2.8 C 0 km/h
1975 05-02-2010 04:31:04 2.8 C 4.93 g/m*3 2.8 C 0 km/h
Sensor: Nr:Datum:Temp:Abs-Feuchte:Windchill:Wind:
Aussen-T/F 1976 05-02-2010 04:56:04 2.8 C 4.93 g/m*3 2.8 C 0 km/h
1977 05-02-2010 05:21:04 2.7 C 4.89 g/m*3 2.7 C 0 km/h
1978 05-02-2010 05:46:04 2.7 C 4.84 g/m*3 2.7 C 0 km/h
1979 05-02-2010 06:11:04 2.8 C 4.87 g/m*3 2.8 C 0 km/h
1980 05-02-2010 06:36:04 2.7 C 4.84 g/m*3 2.7 C 0 km/h
1981 05-02-2010 07:01:04 2.4 C 4.74 g/m*3 2.4 C 0 km/h
1982 05-02-2010 07:26:04 2.5 C 4.89 g/m*3 2.5 C 0 km/h
1983 05-02-2010 07:51:04 2.8 C 4.99 g/m*3 2.8 C 0 km/h
1984 05-02-2010 08:16:04 3.2 C 4.88 g/m*3 3.2 C 0 km/h
1985 05-02-2010 08:41:05 3.4 C 4.89 g/m*3 3.4 C 0 km/h
1986 05-02-2010 09:06:05 3.6 C 4.89 g/m*3 3.6 C 0 km/h
1987 05-02-2010 09:31:05 3.8 C 4.83 g/m*3 3.8 C 0 km/h
1988 05-02-2010 09:56:05 4.1 C 4.67 g/m*3 4.1 C 0 km/h
1989 05-02-2010 10:21:05 4.1 C 4.54 g/m*3 4.1 C 0 km/h
1990 05-02-2010 10:46:05 4 C 4.51 g/m*3 4 C 0 km/h
1991 05-02-2010 11:11:05 4.3 C 4.54 g/m*3 4.3 C 0 km/h
1992 05-02-2010 11:36:05 4.3 C 4.41 g/m*3 4.3 C 0 km/h
1993 05-02-2010 12:01:05 4.4 C 4.37 g/m*3 4.4 C 0 km/h
1994 05-02-2010 12:26:05 4.4 C 4.31 g/m*3 4.4 C 0 km/h
1995 05-02-2010 12:51:05 4.3 C 4.28 g/m*3 4.3 C 0 km/h
1996 05-02-2010 13:16:05 4.5 C 4.4 g/m*3 4.5 C 0 km/h
1997 05-02-2010 13:41:05 4.9 C 4.52 g/m*3 4.9 C 0 km/h
1998 05-02-2010 14:06:05 5.1 C 4.38 g/m*3 5.1 C 0 km/h
1999 05-02-2010 14:31:05 4.8 C 4.36 g/m*3 4.8 C 0 km/h
2000 05-02-2010 14:56:05 4.6 C 4.37 g/m*3 4.6 C 0 km/h
Sensor: Nr:Datum:Temp:Abs-Feuchte:Windchill:Wind:
Aussen-T/F 2001 05-02-2010 15:21:05 4.5 C 4.4 g/m*3 4.5 C 0 km/h
2002 05-02-2010 15:46:05 4.2 C 4.38 g/m*3 4.2 C 0 km/h
2003 05-02-2010 16:11:05 3.8 C 4.64 g/m*3 3.8 C 0 km/h
2004 05-02-2010 16:36:05 3.6 C 4.7 g/m*3 3.6 C 0 km/h
2005 05-02-2010 17:01:05 3.4 C 4.83 g/m*3 3.4 C 0 km/h
2006 05-02-2010 17:26:05 3.4 C 4.95 g/m*3 3.4 C 0 km/h
2007 05-02-2010 17:51:06 3.2 C 4.94 g/m*3 3.2 C 0 km/h
2008 05-02-2010 18:16:06 3.3 C 5.04 g/m*3 3.3 C 0 km/h
2009 05-02-2010 18:41:06 3.1 C 5.03 g/m*3 3.1 C 0 km/h
2010 05-02-2010 19:06:06 3.2 C 5.12 g/m*3 3.2 C 0 km/h
2011 05-02-2010 19:31:06 3 C 5.05 g/m*3 3 C 0 km/h
2012 05-02-2010 19:56:06 3.1 C 5.09 g/m*3 3.1 C 0 km/h
2013 05-02-2010 20:21:06 3 C 5.11 g/m*3 3 C 0 km/h
2014 05-02-2010 20:46:06 2.8 C 5.1 g/m*3 2.8 C 0 km/h
2015 05-02-2010 21:11:06 2.8 C 5.16 g/m*3 2.8 C 0 km/h
2016 05-02-2010 21:36:06 2.6 C 5.09 g/m*3 2.6 C 0 km/h
2017 05-02-2010 22:01:06 2.7 C 5.19 g/m*3 2.7 C 0 km/h
2018 05-02-2010 22:26:06 2.9 C 5.26 g/m*3 2.9 C 0 km/h
2019 05-02-2010 22:51:06 3 C 5.23 g/m*3 3 C 0 km/h
2020 05-02-2010 23:16:06 3 C 5.23 g/m*3 3 C 0 km/h
2021 05-02-2010 23:41:06 3 C 5.23 g/m*3 3 C 0 km/h
2022 06-02-2010 00:06:06 2.8 C 5.22 g/m*3 2.8 C 0 km/h
2023 06-02-2010 00:31:06 2.8 C 5.22 g/m*3 2.8 C 0 km/h
2024 06-02-2010 00:56:06 2.7 C 5.19 g/m*3 2.7 C 0 km/h
2025 06-02-2010 01:21:06 2.4 C 5.08 g/m*3 2.4 C 0 km/h
Sensor: Nr:Datum:Temp:Abs-Feuchte:Windchill:Wind:
Aussen-T/F 2026 06-02-2010 01:46:06 2.1 C 4.98 g/m*3 2.1 C 0 km/h
2027 06-02-2010 02:11:06 2.4 C 5.14 g/m*3 2.4 C 0 km/h
2028 06-02-2010 02:36:06 2.7 C 5.24 g/m*3 2.7 C 0 km/h
2029 06-02-2010 03:01:07 2.8 C 5.28 g/m*3 2.8 C 0 km/h
2030 06-02-2010 03:26:07 2.5 C 5.17 g/m*3 2.5 C 0 km/h
2031 06-02-2010 03:51:07 2.4 C 5.14 g/m*3 2.4 C 0 km/h
2032 06-02-2010 04:16:07 2.6 C 5.27 g/m*3 2.6 C 0 km/h
2033 06-02-2010 04:41:07 2.8 C 5.34 g/m*3 2.8 C 0 km/h
2034 06-02-2010 05:06:07 3 C 5.41 g/m*3 3 C 0 km/h
2035 06-02-2010 05:31:07 3 C 5.41 g/m*3 3 C 0 km/h
2036 06-02-2010 05:56:07 3 C 5.41 g/m*3 3 C 0 km/h
2037 06-02-2010 06:21:07 3.2 C 5.48 g/m*3 3.2 C 0 km/h
2038 06-02-2010 06:46:07 3 C 5.41 g/m*3 3 C 0 km/h
2039 06-02-2010 07:11:07 3 C 5.41 g/m*3 3 C 0 km/h
2040 06-02-2010 07:36:07 3.1 C 5.45 g/m*3 3.1 C 0 km/h
2041 06-02-2010 08:01:07 3.1 C 5.45 g/m*3 3.1 C 0 km/h
2042 06-02-2010 08:26:07 3.2 C 5.48 g/m*3 3.2 C 0 km/h
2043 06-02-2010 08:51:07 3.4 C 5.56 g/m*3 3.4 C 0 km/h
2044 06-02-2010 09:16:07 3.7 C 5.67 g/m*3 3.7 C 0 km/h
2045 06-02-2010 09:41:07 4 C 5.72 g/m*3 4 C 0 km/h
2046 06-02-2010 10:06:07 4.6 C 5.89 g/m*3 4.6 C 0 km/h
2047 06-02-2010 10:31:07 5.1 C 5.95 g/m*3 5.1 C 0 km/h
2048 06-02-2010 10:56:07 5.6 C 6.01 g/m*3 5.6 C 0 km/h
2049 06-02-2010 11:21:07 5.7 C 5.84 g/m*3 5.7 C 0 km/h
2050 06-02-2010 11:46:07 6.3 C 5.85 g/m*3 6.3 C 0 km/h
Sensor: Nr:Datum:Temp:Abs-Feuchte:Windchill:Wind:
Aussen-T/F 2051 06-02-2010 12:11:07 6.7 C 5.93 g/m*3 6.7 C 0 km/h
2052 06-02-2010 12:36:08 6.9 C 6 g/m*3 6.9 C 0 km/h
2053 06-02-2010 13:01:08 7.3 C 5.69 g/m*3 7.3 C 0 km/h
2054 06-02-2010 13:26:08 7.4 C 5.65 g/m*3 7.4 C 0 km/h
2055 06-02-2010 13:51:08 7.3 C 5.29 g/m*3 7.3 C 0 km/h
2056 06-02-2010 14:16:08 7.1 C 5.23 g/m*3 7.1 C 0 km/h
2057 06-02-2010 14:41:08 7 C 5.27 g/m*3 7 C 0 km/h
2058 06-02-2010 15:06:08 6.7 C 5.39 g/m*3 6.7 C 0 km/h
2059 06-02-2010 15:31:08 6.5 C 5.47 g/m*3 6.5 C 0 km/h
2060 06-02-2010 15:56:08 6.4 C 5.36 g/m*3 6.4 C 0 km/h
2061 06-02-2010 16:21:08 6.2 C 5.44 g/m*3 6.2 C 0 km/h
2062 06-02-2010 16:46:08 6 C 5.37 g/m*3 6 C 0 km/h
2063 06-02-2010 17:11:08 5.8 C 5.44 g/m*3 5.8 C 0 km/h
2064 06-02-2010 17:36:08 5.7 C 5.48 g/m*3 5.7 C 0 km/h
2065 06-02-2010 18:01:08 5.5 C 5.41 g/m*3 5.5 C 0 km/h
2066 06-02-2010 18:26:08 5.3 C 5.41 g/m*3 5.3 C 0 km/h
2067 06-02-2010 18:51:08 5.2 C 5.37 g/m*3 5.2 C 0 km/h
2068 06-02-2010 19:16:08 5.1 C 5.4 g/m*3 5.1 C 0 km/h
2069 06-02-2010 19:41:08 5.1 C 5.4 g/m*3 5.1 C 0 km/h
2070 06-02-2010 20:06:08 5 C 5.37 g/m*3 5 C 0 km/h
2071 06-02-2010 20:31:08 4.9 C 5.4 g/m*3 4.9 C 0 km/h
2072 06-02-2010 20:56:08 4.9 C 5.47 g/m*3 4.9 C 0 km/h
2073 06-02-2010 21:21:09 4.8 C 5.43 g/m*3 4.8 C 0 km/h
2074 06-02-2010 21:46:09 4.8 C 5.43 g/m*3 4.8 C 0 km/h
2075 06-02-2010 22:11:09 4.8 C 5.5 g/m*3 4.8 C 0 km/h
Sensor: Nr:Datum:Temp:Abs-Feuchte:Windchill:Wind:
Aussen-T/F 2076 06-02-2010 22:36:09 4.7 C 5.46 g/m*3 4.7 C 0 km/h
2077 06-02-2010 23:01:09 4.7 C 5.46 g/m*3 4.7 C 0 km/h
2078 06-02-2010 23:26:09 4.6 C 5.43 g/m*3 4.6 C 0 km/h
2079 06-02-2010 23:51:09 4.6 C 5.43 g/m*3 4.6 C 0 km/h
2080 07-02-2010 00:16:09 4.5 C 5.46 g/m*3 4.5 C 0 km/h
2081 07-02-2010 00:41:09 4.5 C 5.46 g/m*3 4.5 C 0 km/h
2082 07-02-2010 01:06:09 4.5 C 5.46 g/m*3 4.5 C 0 km/h
2083 07-02-2010 01:31:09 4.6 C 5.49 g/m*3 4.6 C 0 km/h
2084 07-02-2010 01:56:09 4.4 C 5.42 g/m*3 4.4 C 0 km/h
2085 07-02-2010 02:21:09 4.2 C 5.41 g/m*3 4.2 C 0 km/h
2086 07-02-2010 02:46:09 4.1 C 5.38 g/m*3 4.1 C 0 km/h
2087 07-02-2010 03:11:09 4.1 C 5.5 g/m*3 4.1 C 0 km/h
2088 07-02-2010 03:36:09 4.1 C 5.5 g/m*3 4.1 C 0 km/h
2089 07-02-2010 04:01:09 4.1 C 5.57 g/m*3 4.1 C 0 km/h
2090 07-02-2010 04:26:09 4 C 5.59 g/m*3 4 C 0 km/h
2091 07-02-2010 04:51:09 4 C 5.59 g/m*3 4 C 0 km/h
2092 07-02-2010 05:16:09 4.1 C 5.7 g/m*3 4.1 C 0 km/h
2093 07-02-2010 05:41:09 3.8 C 5.58 g/m*3 3.8 C 0 km/h
2094 07-02-2010 06:06:10 3.8 C 5.65 g/m*3 3.8 C 0 km/h
2095 07-02-2010 06:31:10 3.8 C 5.65 g/m*3 3.8 C 0 km/h
2096 07-02-2010 06:56:10 3.8 C 5.65 g/m*3 3.8 C 0 km/h
2097 07-02-2010 07:21:10 3.7 C 5.61 g/m*3 3.7 C 0 km/h
2098 07-02-2010 07:46:10 3.7 C 5.67 g/m*3 3.7 C 0 km/h
2099 07-02-2010 08:11:10 3.8 C 5.71 g/m*3 3.8 C 0 km/h
2100 07-02-2010 08:36:10 3.7 C 5.67 g/m*3 3.7 C 0 km/h
Sensor: Nr:Datum:Temp:Abs-Feuchte:Windchill:Wind:
Aussen-T/F 2101 07-02-2010 09:01:10 3.8 C 5.71 g/m*3 3.8 C 0 km/h
2102 07-02-2010 09:26:10 3.9 C 5.75 g/m*3 3.9 C 0 km/h
2103 07-02-2010 09:51:10 4.1 C 5.76 g/m*3 4.1 C 0 km/h
2104 07-02-2010 10:16:10 4.1 C 5.7 g/m*3 4.1 C 0 km/h
2105 07-02-2010 10:41:10 4.5 C 5.72 g/m*3 4.5 C 0 km/h
2106 07-02-2010 11:06:10 4.9 C 5.6 g/m*3 4.9 C 0 km/h
2107 07-02-2010 11:31:10 4.7 C 5.13 g/m*3 4.7 C 0 km/h
2108 07-02-2010 11:56:10 4.5 C 4.93 g/m*3 4.5 C 0 km/h
2109 07-02-2010 12:21:10 5.3 C 5.06 g/m*3 5.3 C 0 km/h
2110 07-02-2010 12:46:10 5.7 C 4.84 g/m*3 5.7 C 0 km/h
2111 07-02-2010 13:11:10 5.6 C 4.67 g/m*3 5.6 C 0 km/h
2112 07-02-2010 13:36:10 5.8 C 4.66 g/m*3 5.8 C 0 km/h
2113 07-02-2010 14:01:10 6 C 4.57 g/m*3 6 C 0 km/h
2114 07-02-2010 14:26:10 6.1 C 4.53 g/m*3 6.1 C 0 km/h
2115 07-02-2010 14:51:10 5.7 C 4.41 g/m*3 5.7 C 0 km/h
2116 07-02-2010 15:16:11 5.5 C 4.49 g/m*3 5.5 C 0 km/h
2117 07-02-2010 15:41:11 5.4 C 4.47 g/m*3 5.4 C 0 km/h
2118 07-02-2010 16:06:11 5 C 4.62 g/m*3 5 C 0 km/h
2119 07-02-2010 16:31:11 4.8 C 4.76 g/m*3 4.8 C 0 km/h
2120 07-02-2010 16:56:11 4.6 C 4.83 g/m*3 4.6 C 0 km/h
2121 07-02-2010 17:21:11 4.7 C 4.93 g/m*3 4.7 C 0 km/h
2122 07-02-2010 17:46:11 4.5 C 4.93 g/m*3 4.5 C 0 km/h
2123 07-02-2010 18:11:11 4.4 C 4.96 g/m*3 4.4 C 0 km/h
2124 07-02-2010 18:36:11 4.2 C 4.96 g/m*3 4.2 C 0 km/h
2125 07-02-2010 19:01:11 4.1 C 4.86 g/m*3 4.1 C 0 km/h
Sensor: Nr:Datum:Temp:Abs-Feuchte:Windchill:Wind:
Aussen-T/F 2126 07-02-2010 19:26:11 3.7 C 4.49 g/m*3 3.7 C 0 km/h
2127 07-02-2010 19:51:11 3.7 C 4.42 g/m*3 3.7 C 0 km/h
2128 07-02-2010 20:16:11 3.5 C 4.37 g/m*3 3.5 C 0 km/h
2129 07-02-2010 20:41:11 3.3 C 4.37 g/m*3 3.3 C 0 km/h
2130 07-02-2010 21:06:11 3 C 4.22 g/m*3 3 C 0 km/h
2131 07-02-2010 21:31:11 2.7 C 4.08 g/m*3 2.7 C 0 km/h
2132 07-02-2010 21:56:11 2.5 C 3.97 g/m*3 2.5 C 0 km/h
2133 07-02-2010 22:21:11 2.4 C 3.83 g/m*3 2.4 C 0 km/h
2134 07-02-2010 22:46:11 2 C 3.56 g/m*3 2 C 0 km/h
2135 07-02-2010 23:11:11 2 C 3.67 g/m*3 2 C 0 km/h
2136 07-02-2010 23:36:12 1.7 C 3.65 g/m*3 1.7 C 0 km/h
2137 08-02-2010 00:01:12 1.4 C 3.52 g/m*3 1.4 C 0 km/h
2138 08-02-2010 00:26:12 1.6 C 3.68 g/m*3 1.6 C 0 km/h
2139 08-02-2010 00:51:12 1.4 C 3.47 g/m*3 1.4 C 0 km/h
2140 08-02-2010 01:16:12 1.2 C 3.42 g/m*3 1.2 C 0 km/h
2141 08-02-2010 01:41:12 1 C 3.43 g/m*3 1 C 0 km/h
2142 08-02-2010 02:06:12 0.8 C 3.48 g/m*3 0.8 C 0 km/h
2143 08-02-2010 02:31:12 0.8 C 3.48 g/m*3 0.8 C 0 km/h
2144 08-02-2010 02:56:12 0.7 C 3.46 g/m*3 0.7 C 0 km/h
2145 08-02-2010 03:21:12 0.5 C 3.41 g/m*3 0.5 C 0 km/h
2146 08-02-2010 03:46:12 0.5 C 3.41 g/m*3 0.5 C 0 km/h
2147 08-02-2010 04:11:12 0.3 C 3.31 g/m*3 0.3 C 0 km/h
2148 08-02-2010 04:36:12 0.3 C 3.31 g/m*3 0.3 C 0 km/h
2149 08-02-2010 05:01:12 0.2 C 3.24 g/m*3 0.2 C 0 km/h
2150 08-02-2010 05:26:12 -0.1 C 3.22 g/m*3 -0.1 C 0 km/h
Sensor: Nr:Datum:Temp:Abs-Feuchte:Windchill:Wind:
Aussen-T/F 2151 08-02-2010 05:51:12 -0.3 C 3.23 g/m*3 -0.3 C 0 km/h
2152 08-02-2010 06:16:12 -0.4 C 3.25 g/m*3 -0.4 C 0 km/h
2153 08-02-2010 06:41:12 -0.3 C 3.23 g/m*3 -0.3 C 0 km/h
2154 08-02-2010 07:06:12 -0.5 C 3.18 g/m*3 -0.5 C 0 km/h
2155 08-02-2010 07:31:12 -0.6 C 3.16 g/m*3 -0.6 C 0 km/h
2156 08-02-2010 07:56:12 -0.8 C 3.07 g/m*3 -0.8 C 0 km/h
2157 08-02-2010 08:21:13 -0.9 C 3.05 g/m*3 -0.9 C 0 km/h
2158 08-02-2010 08:46:13 -0.9 C 3 g/m*3 -0.9 C 0 km/h
2159 08-02-2010 09:11:13 -0.7 C 3 g/m*3 -0.7 C 0 km/h
2160 08-02-2010 09:36:13 -0.8 C 2.93 g/m*3 -0.8 C 0 km/h
2161 08-02-2010 10:01:13 -0.6 C 2.93 g/m*3 -0.6 C 0 km/h
2162 08-02-2010 10:26:13 -0.6 C 2.88 g/m*3 -0.6 C 0 km/h
2163 08-02-2010 10:51:13 -0.5 C 2.9 g/m*3 -0.5 C 0 km/h
2164 08-02-2010 11:16:13 -0.5 C 2.86 g/m*3 -0.5 C 0 km/h
2165 08-02-2010 11:41:13 -0.2 C 2.72 g/m*3 -0.2 C 0 km/h
2166 08-02-2010 12:06:13 -0.3 C 2.66 g/m*3 -0.3 C 0 km/h
2167 08-02-2010 12:31:13 -0.4 C 2.5 g/m*3 -0.4 C 0 km/h
2168 08-02-2010 12:56:13 0.3 C 2.57 g/m*3 0.3 C 0 km/h
2169 08-02-2010 13:21:13 0.5 C 2.56 g/m*3 0.5 C 0 km/h
2170 08-02-2010 13:46:13 0.8 C 2.66 g/m*3 0.8 C 0 km/h
2171 08-02-2010 14:11:13 0.6 C 2.63 g/m*3 0.6 C 0 km/h
2172 08-02-2010 14:36:13 0.5 C 2.66 g/m*3 0.5 C 0 km/h
2173 08-02-2010 15:01:13 -0.2 C 2.63 g/m*3 -0.2 C 0 km/h
2174 08-02-2010 15:26:13 -0.6 C 2.6 g/m*3 -0.6 C 0 km/h
2175 08-02-2010 15:51:13 -1.1 C 2.51 g/m*3 -1.1 C 0 km/h
Sensor: Nr:Datum:Temp:Abs-Feuchte:Windchill:Wind:
Aussen-T/F 2176 08-02-2010 16:16:13 -1.1 C 2.6 g/m*3 -1.1 C 0 km/h
2177 08-02-2010 16:41:13 -1.4 C 2.55 g/m*3 -1.4 C 0 km/h
2178 08-02-2010 17:06:13 -1.9 C 2.55 g/m*3 -1.9 C 0 km/h
2179 08-02-2010 17:31:14 -2.1 C 2.51 g/m*3 -2.1 C 0 km/h
2180 08-02-2010 17:56:14 -2.3 C 2.48 g/m*3 -2.3 C 0 km/h
2181 08-02-2010 18:21:14 -2.3 C 2.52 g/m*3 -2.3 C 0 km/h
2182 08-02-2010 18:46:14 -2.4 C 2.5 g/m*3 -2.4 C 0 km/h
2183 08-02-2010 19:11:14 -2.4 C 2.5 g/m*3 -2.4 C 0 km/h
2184 08-02-2010 19:36:14 -2.5 C 2.48 g/m*3 -2.5 C 0 km/h
2185 08-02-2010 20:01:14 -2.6 C 2.46 g/m*3 -2.6 C 0 km/h
2186 08-02-2010 20:26:14 -2.6 C 2.46 g/m*3 -2.6 C 0 km/h
2187 08-02-2010 20:51:14 -2.6 C 2.51 g/m*3 -2.6 C 0 km/h
2188 08-02-2010 21:16:14 -2.6 C 2.51 g/m*3 -2.6 C 0 km/h
2189 08-02-2010 21:41:14 -2.6 C 2.51 g/m*3 -2.6 C 0 km/h
2190 08-02-2010 22:06:14 -2.5 C 2.52 g/m*3 -2.5 C 0 km/h
2191 08-02-2010 22:31:14 -2.7 C 2.45 g/m*3 -2.7 C 0 km/h
2192 08-02-2010 22:56:14 -2.8 C 2.39 g/m*3 -2.8 C 0 km/h
2193 08-02-2010 23:21:14 -3.1 C 2.34 g/m*3 -3.1 C 0 km/h
2194 08-02-2010 23:46:14 -3.1 C 2.34 g/m*3 -3.1 C 0 km/h
2195 09-02-2010 00:11:14 -3.3 C 2.31 g/m*3 -3.3 C 0 km/h
2196 09-02-2010 00:36:14 -3.4 C 2.33 g/m*3 -3.4 C 0 km/h
2197 09-02-2010 01:01:14 -3.3 C 2.38 g/m*3 -3.3 C 0 km/h
2198 09-02-2010 01:26:14 -3.2 C 2.36 g/m*3 -3.2 C 0 km/h
2199 09-02-2010 01:51:14 -3.3 C 2.35 g/m*3 -3.3 C 0 km/h
2200 09-02-2010 02:16:14 -3.2 C 2.36 g/m*3 -3.2 C 0 km/h
Sensor: Nr:Datum:Temp:Abs-Feuchte:Windchill:Wind:
Aussen-T/F 2201 09-02-2010 02:41:15 -3.2 C 2.32 g/m*3 -3.2 C 0 km/h
2202 09-02-2010 03:06:15 -3.2 C 2.32 g/m*3 -3.2 C 0 km/h
2203 09-02-2010 03:31:15 -3.4 C 2.29 g/m*3 -3.4 C 0 km/h
2204 09-02-2010 03:56:15 -3.4 C 2.29 g/m*3 -3.4 C 0 km/h
2205 09-02-2010 04:21:15 -3.4 C 2.29 g/m*3 -3.4 C 0 km/h
2206 09-02-2010 04:46:15 -3.5 C 2.27 g/m*3 -3.5 C 0 km/h
2207 09-02-2010 05:11:15 -3.5 C 2.27 g/m*3 -3.5 C 0 km/h
2208 09-02-2010 05:36:15 -3.5 C 2.27 g/m*3 -3.5 C 0 km/h
2209 09-02-2010 06:01:15 -3.7 C 2.28 g/m*3 -3.7 C 0 km/h
2210 09-02-2010 06:26:15 -3.7 C 2.32 g/m*3 -3.7 C 0 km/h
2211 09-02-2010 06:51:15 -3.7 C 2.32 g/m*3 -3.7 C 0 km/h
2212 09-02-2010 07:16:15 -3.8 C 2.26 g/m*3 -3.8 C 0 km/h
2213 09-02-2010 07:41:15 -3.8 C 2.3 g/m*3 -3.8 C 0 km/h
2214 09-02-2010 08:06:15 -3.9 C 2.28 g/m*3 -3.9 C 0 km/h
2215 09-02-2010 08:31:15 -3.9 C 2.28 g/m*3 -3.9 C 0 km/h
2216 09-02-2010 08:56:15 -4.1 C 2.25 g/m*3 -4.1 C 0 km/h
2217 09-02-2010 09:21:15 -4 C 2.27 g/m*3 -4 C 0 km/h
2218 09-02-2010 09:46:15 -3.9 C 2.32 g/m*3 -3.9 C 0 km/h
2219 09-02-2010 10:11:15 -4 C 2.38 g/m*3 -4 C 0 km/h
2220 09-02-2010 10:36:15 -3.6 C 2.52 g/m*3 -3.6 C 0 km/h
2221 09-02-2010 11:01:15 -3.2 C 2.56 g/m*3 -3.2 C 0 km/h
2222 09-02-2010 11:26:15 -3.4 C 2.37 g/m*3 -3.4 C 0 km/h
2223 09-02-2010 11:51:16 -3.5 C 2.35 g/m*3 -3.5 C 0 km/h
2224 09-02-2010 12:16:16 -3.4 C 2.25 g/m*3 -3.4 C 0 km/h
2225 09-02-2010 12:41:16 -3.1 C 2.18 g/m*3 -3.1 C 0 km/h
Sensor: Nr:Datum:Temp:Abs-Feuchte:Windchill:Wind:
Aussen-T/F 2226 09-02-2010 13:06:16 -2.8 C 2.23 g/m*3 -2.8 C 0 km/h
2227 09-02-2010 13:31:16 -2.8 C 2.11 g/m*3 -2.8 C 0 km/h
2228 09-02-2010 13:56:16 -3 C 2.04 g/m*3 -3 C 0 km/h
2229 09-02-2010 14:21:16 -3.4 C 2.02 g/m*3 -3.4 C 0 km/h
2230 09-02-2010 14:46:16 -3.5 C 2.01 g/m*3 -3.5 C 0 km/h
2231 09-02-2010 15:11:16 -3.5 C 1.97 g/m*3 -3.5 C 0 km/h
2232 09-02-2010 15:36:16 -3.6 C 2 g/m*3 -3.6 C 0 km/h
2233 09-02-2010 16:01:16 -3.8 C 1.97 g/m*3 -3.8 C 0 km/h
2234 09-02-2010 16:26:16 -3.6 C 2 g/m*3 -3.6 C 0 km/h
2235 09-02-2010 16:51:16 -3.5 C 1.97 g/m*3 -3.5 C 0 km/h
2236 09-02-2010 17:16:16 -3.9 C 2.03 g/m*3 -3.9 C 0 km/h
2237 09-02-2010 17:41:16 -4 C 2.09 g/m*3 -4 C 0 km/h
2238 09-02-2010 18:06:16 -4.1 C 2.14 g/m*3 -4.1 C 0 km/h
2239 09-02-2010 18:31:16 -4.1 C 2.14 g/m*3 -4.1 C 0 km/h
2240 09-02-2010 18:56:16 -4.2 C 2.09 g/m*3 -4.2 C 0 km/h
2241 09-02-2010 19:21:16 -4.1 C 2.18 g/m*3 -4.1 C 0 km/h
2242 09-02-2010 19:46:16 -4.1 C 2.18 g/m*3 -4.1 C 0 km/h
2243 09-02-2010 20:11:16 -4.5 C 2.08 g/m*3 -4.5 C 0 km/h
2244 09-02-2010 20:36:16 -4.6 C 2.1 g/m*3 -4.6 C 0 km/h
2245 09-02-2010 21:01:17 -4.6 C 1.93 g/m*3 -4.6 C 0 km/h
2246 09-02-2010 21:26:17 -4.6 C 1.75 g/m*3 -4.6 C 0 km/h
2247 09-02-2010 21:51:17 -4.7 C 1.77 g/m*3 -4.7 C 0 km/h
2248 09-02-2010 22:16:17 -4.6 C 1.82 g/m*3 -4.6 C 0 km/h
2249 09-02-2010 22:41:17 -4.5 C 1.87 g/m*3 -4.5 C 0 km/h
2250 09-02-2010 23:06:17 -4.6 C 1.93 g/m*3 -4.6 C 0 km/h
Sensor: Nr:Datum:Temp:Abs-Feuchte:Windchill:Wind:
Aussen-T/F 2251 09-02-2010 23:31:17 -4.5 C 1.94 g/m*3 -4.5 C 0 km/h
2252 09-02-2010 23:56:17 -4.5 C 1.94 g/m*3 -4.5 C 0 km/h
2253 10-02-2010 00:21:17 -4.6 C 2.07 g/m*3 -4.6 C 0 km/h
2254 10-02-2010 00:46:17 -4.7 C 2.12 g/m*3 -4.7 C 0 km/h
2255 10-02-2010 01:11:17 -4.7 C 2.12 g/m*3 -4.7 C 0 km/h
2256 10-02-2010 01:36:17 -4.7 C 2.16 g/m*3 -4.7 C 0 km/h
2257 10-02-2010 02:01:17 -4.7 C 2.23 g/m*3 -4.7 C 0 km/h
2258 10-02-2010 02:26:17 -4.6 C 2.28 g/m*3 -4.6 C 0 km/h
2259 10-02-2010 02:51:17 -4.7 C 2.3 g/m*3 -4.7 C 0 km/h
2260 10-02-2010 03:16:17 -4.7 C 2.33 g/m*3 -4.7 C 0 km/h
2261 10-02-2010 03:41:17 -4.9 C 2.33 g/m*3 -4.9 C 0 km/h
2262 10-02-2010 04:06:17 -4.9 C 2.3 g/m*3 -4.9 C 0 km/h
2263 10-02-2010 04:31:17 -5 C 2.32 g/m*3 -5 C 0 km/h
2264 10-02-2010 04:56:17 -5 C 2.35 g/m*3 -5 C 0 km/h
2265 10-02-2010 05:21:17 -5 C 2.38 g/m*3 -5 C 0 km/h
2266 10-02-2010 05:46:17 -5 C 2.35 g/m*3 -5 C 0 km/h
2267 10-02-2010 06:11:18 -5 C 2.35 g/m*3 -5 C 0 km/h
2268 10-02-2010 06:36:18 -5.2 C 2.32 g/m*3 -5.2 C 0 km/h
2269 10-02-2010 07:01:18 -5.4 C 2.28 g/m*3 -5.4 C 0 km/h
2270 10-02-2010 07:26:18 -5.6 C 2.31 g/m*3 -5.6 C 0 km/h
2271 10-02-2010 07:51:18 -5.4 C 2.38 g/m*3 -5.4 C 0 km/h
2272 10-02-2010 08:16:18 -5.5 C 2.36 g/m*3 -5.5 C 0 km/h
2273 10-02-2010 08:41:18 -5.3 C 2.33 g/m*3 -5.3 C 0 km/h
2274 10-02-2010 09:06:18 -5 C 2.42 g/m*3 -5 C 0 km/h
2275 10-02-2010 09:31:18 -4.7 C 2.4 g/m*3 -4.7 C 0 km/h
Sensor: Nr:Datum:Temp:Abs-Feuchte:Windchill:Wind:
Aussen-T/F 2276 10-02-2010 09:56:18 -4.7 C 2.4 g/m*3 -4.7 C 0 km/h
2277 10-02-2010 10:21:18 -4.4 C 2.45 g/m*3 -4.4 C 0 km/h
2278 10-02-2010 10:46:18 -4.4 C 2.35 g/m*3 -4.4 C 0 km/h
2279 10-02-2010 11:11:18 -4 C 2.41 g/m*3 -4 C 0 km/h
2280 10-02-2010 11:36:18 -3.7 C 2.35 g/m*3 -3.7 C 0 km/h
2281 10-02-2010 12:01:18 -3.7 C 2.39 g/m*3 -3.7 C 0 km/h
2282 10-02-2010 12:26:18 -3.2 C 2.32 g/m*3 -3.2 C 0 km/h
2283 10-02-2010 12:51:18 -3.4 C 2.37 g/m*3 -3.4 C 0 km/h
2284 10-02-2010 13:16:18 -3.2 C 2.52 g/m*3 -3.2 C 0 km/h
2285 10-02-2010 13:41:18 -2.6 C 2.26 g/m*3 -2.6 C 0 km/h
2286 10-02-2010 14:06:18 -3.2 C 2.21 g/m*3 -3.2 C 0 km/h
2287 10-02-2010 14:31:18 -3.3 C 2.27 g/m*3 -3.3 C 0 km/h
2288 10-02-2010 14:56:18 -3.2 C 2.25 g/m*3 -3.2 C 0 km/h
2289 10-02-2010 15:21:18 -3.3 C 2.42 g/m*3 -3.3 C 0 km/h
2290 10-02-2010 15:46:19 -3 C 2.24 g/m*3 -3 C 0 km/h
2291 10-02-2010 16:11:19 -3.4 C 2.29 g/m*3 -3.4 C 0 km/h
2292 10-02-2010 16:36:19 -3.5 C 2.27 g/m*3 -3.5 C 0 km/h
2293 10-02-2010 17:01:19 -3.4 C 2.29 g/m*3 -3.4 C 0 km/h
2294 10-02-2010 17:26:19 -3.8 C 2.3 g/m*3 -3.8 C 0 km/h
2295 10-02-2010 17:51:19 -4.4 C 2.42 g/m*3 -4.4 C 0 km/h
2296 10-02-2010 18:16:19 -5.2 C 2.32 g/m*3 -5.2 C 0 km/h
2297 10-02-2010 18:41:19 -5.2 C 2.45 g/m*3 -5.2 C 0 km/h
2298 10-02-2010 19:06:19 -5.3 C 2.37 g/m*3 -5.3 C 0 km/h
2299 10-02-2010 19:31:19 -6 C 2.28 g/m*3 -6 C 0 km/h
2300 10-02-2010 19:56:19 -6.2 C 2.31 g/m*3 -6.2 C 0 km/h
Sensor: Nr:Datum:Temp:Abs-Feuchte:Windchill:Wind:
Aussen-T/F 2301 10-02-2010 20:21:19 -6.5 C 2.29 g/m*3 -6.5 C 0 km/h
2302 10-02-2010 20:46:19 -6.3 C 2.35 g/m*3 -6.3 C 0 km/h
2303 10-02-2010 21:11:19 -6.1 C 2.39 g/m*3 -6.1 C 0 km/h
2304 10-02-2010 21:36:19 -6.6 C 2.27 g/m*3 -6.6 C 0 km/h
2305 10-02-2010 22:01:19 -6.3 C 2.35 g/m*3 -6.3 C 0 km/h
2306 10-02-2010 22:26:19 -6.5 C 2.26 g/m*3 -6.5 C 0 km/h
2307 10-02-2010 22:51:19 -6.9 C 2.16 g/m*3 -6.9 C 0 km/h
2308 10-02-2010 23:16:19 -7.4 C 2.09 g/m*3 -7.4 C 0 km/h
2309 10-02-2010 23:41:19 -7 C 2.18 g/m*3 -7 C 0 km/h
2310 11-02-2010 00:06:20 -6.5 C 2.29 g/m*3 -6.5 C 0 km/h
2311 11-02-2010 00:31:20 -6.5 C 2.17 g/m*3 -6.5 C 0 km/h
2312 11-02-2010 00:56:20 -6.6 C 2.12 g/m*3 -6.6 C 0 km/h
2313 11-02-2010 01:21:20 -7.5 C 1.96 g/m*3 -7.5 C 0 km/h
2314 11-02-2010 01:46:20 -8.1 C 1.9 g/m*3 -8.1 C 0 km/h
2315 11-02-2010 02:11:20 -7.7 C 2.04 g/m*3 -7.7 C 0 km/h
2316 11-02-2010 02:36:20 -7.4 C 2.09 g/m*3 -7.4 C 0 km/h
2317 11-02-2010 03:01:20 -7.2 C 2.12 g/m*3 -7.2 C 0 km/h
2318 11-02-2010 03:26:20 -6.9 C 2.14 g/m*3 -6.9 C 0 km/h
2319 11-02-2010 03:51:20 -6.8 C 2.12 g/m*3 -6.8 C 0 km/h
2320 11-02-2010 04:16:20 -6.8 C 2.09 g/m*3 -6.8 C 0 km/h
2321 11-02-2010 04:41:20 -6.4 C 2.18 g/m*3 -6.4 C 0 km/h
2322 11-02-2010 05:06:20 -6.2 C 2.18 g/m*3 -6.2 C 0 km/h
2323 11-02-2010 05:31:20 -6.1 C 2.23 g/m*3 -6.1 C 0 km/h
2324 11-02-2010 05:56:20 -6 C 2.31 g/m*3 -6 C 0 km/h
2325 11-02-2010 06:21:20 -5.9 C 2.36 g/m*3 -5.9 C 0 km/h
Sensor: Nr:Datum:Temp:Abs-Feuchte:Windchill:Wind:
Aussen-T/F 2326 11-02-2010 06:46:20 -5.8 C 2.44 g/m*3 -5.8 C 0 km/h
2327 11-02-2010 07:11:20 -5.7 C 2.46 g/m*3 -5.7 C 0 km/h
2328 11-02-2010 07:36:20 -5.6 C 2.51 g/m*3 -5.6 C 0 km/h
2329 11-02-2010 08:01:20 -5.5 C 2.56 g/m*3 -5.5 C 0 km/h
2330 11-02-2010 08:26:20 -5.4 C 2.58 g/m*3 -5.4 C 0 km/h
2331 11-02-2010 08:51:20 -5.2 C 2.62 g/m*3 -5.2 C 0 km/h
2332 11-02-2010 09:16:20 -4.9 C 2.64 g/m*3 -4.9 C 0 km/h
2333 11-02-2010 09:41:21 -4.5 C 2.68 g/m*3 -4.5 C 0 km/h
2334 11-02-2010 10:06:21 -4 C 2.74 g/m*3 -4 C 0 km/h
2335 11-02-2010 10:31:21 -3.7 C 2.77 g/m*3 -3.7 C 0 km/h
2336 11-02-2010 10:56:21 -3.3 C 2.77 g/m*3 -3.3 C 0 km/h
2337 11-02-2010 11:21:21 -2.9 C 2.77 g/m*3 -2.9 C 0 km/h
2338 11-02-2010 11:46:21 -2.7 C 2.81 g/m*3 -2.7 C 0 km/h
2339 11-02-2010 12:11:21 -2.5 C 2.89 g/m*3 -2.5 C 0 km/h
2340 11-02-2010 12:36:21 -2 C 2.99 g/m*3 -2 C 0 km/h
2341 11-02-2010 13:01:21 -1.5 C 3.1 g/m*3 -1.5 C 0 km/h
2342 11-02-2010 13:26:21 -1.1 C 3.05 g/m*3 -1.1 C 0 km/h
2343 11-02-2010 13:51:21 -1.3 C 2.92 g/m*3 -1.3 C 0 km/h
2344 11-02-2010 14:16:21 -1.1 C 3.1 g/m*3 -1.1 C 0 km/h
2345 11-02-2010 14:41:21 -1.2 C 2.94 g/m*3 -1.2 C 0 km/h
2346 11-02-2010 15:06:21 -1.2 C 2.9 g/m*3 -1.2 C 0 km/h
2347 11-02-2010 15:31:21 -1.6 C 2.86 g/m*3 -1.6 C 0 km/h
2348 11-02-2010 15:56:21 -1.3 C 2.88 g/m*3 -1.3 C 0 km/h
2349 11-02-2010 16:21:21 -1.4 C 2.9 g/m*3 -1.4 C 0 km/h
2350 11-02-2010 16:46:21 -1.6 C 2.9 g/m*3 -1.6 C 0 km/h
Sensor: Nr:Datum:Temp:Abs-Feuchte:Windchill:Wind:
Aussen-T/F 2351 11-02-2010 17:11:21 -1.7 C 2.84 g/m*3 -1.7 C 0 km/h
2352 11-02-2010 17:36:21 -1.7 C 2.76 g/m*3 -1.7 C 0 km/h
2353 11-02-2010 18:01:21 -1.8 C 2.74 g/m*3 -1.8 C 0 km/h
2354 11-02-2010 18:26:21 -1.8 C 2.74 g/m*3 -1.8 C 0 km/h
2355 11-02-2010 18:51:22 -1.8 C 2.69 g/m*3 -1.8 C 0 km/h
2356 11-02-2010 19:16:22 -1.8 C 2.65 g/m*3 -1.8 C 0 km/h
2357 11-02-2010 19:41:22 -1.8 C 2.65 g/m*3 -1.8 C 0 km/h
2358 11-02-2010 20:06:22 -1.8 C 2.65 g/m*3 -1.8 C 0 km/h
2359 11-02-2010 20:31:22 -1.8 C 2.69 g/m*3 -1.8 C 0 km/h
2360 11-02-2010 20:56:22 -1.8 C 2.74 g/m*3 -1.8 C 0 km/h
2361 11-02-2010 21:21:22 -2.1 C 2.85 g/m*3 -2.1 C 0 km/h
2362 11-02-2010 21:46:22 -2.2 C 2.95 g/m*3 -2.2 C 0 km/h
2363 11-02-2010 22:11:22 -2.5 C 3.05 g/m*3 -2.5 C 0 km/h
2364 11-02-2010 22:36:22 -2.5 C 3.09 g/m*3 -2.5 C 0 km/h
2365 11-02-2010 23:01:22 -2.5 C 3.13 g/m*3 -2.5 C 0 km/h
2366 11-02-2010 23:26:22 -2.6 C 3.15 g/m*3 -2.6 C 0 km/h
2367 11-02-2010 23:51:22 -2.5 C 3.17 g/m*3 -2.5 C 0 km/h
2368 12-02-2010 00:16:22 -2.6 C 3.19 g/m*3 -2.6 C 0 km/h
2369 12-02-2010 00:41:22 -2.7 C 3.21 g/m*3 -2.7 C 0 km/h
2370 12-02-2010 01:06:22 -2.7 C 3.21 g/m*3 -2.7 C 0 km/h
2371 12-02-2010 01:31:22 -2.7 C 3.21 g/m*3 -2.7 C 0 km/h
2372 12-02-2010 01:56:22 -2.6 C 3.19 g/m*3 -2.6 C 0 km/h
2373 12-02-2010 02:21:22 -2.6 C 3.19 g/m*3 -2.6 C 0 km/h
2374 12-02-2010 02:46:22 -2.6 C 3.15 g/m*3 -2.6 C 0 km/h
2375 12-02-2010 03:11:22 -2.6 C 3.19 g/m*3 -2.6 C 0 km/h
Sensor: Nr:Datum:Temp:Abs-Feuchte:Windchill:Wind:
Aussen-T/F 2376 12-02-2010 03:36:22 -2.7 C 3.17 g/m*3 -2.7 C 0 km/h
2377 12-02-2010 04:01:23 -2.6 C 3.23 g/m*3 -2.6 C 0 km/h
2378 12-02-2010 04:26:23 -2.6 C 3.19 g/m*3 -2.6 C 0 km/h
2379 12-02-2010 04:51:23 -2.6 C 3.19 g/m*3 -2.6 C 0 km/h
2380 12-02-2010 05:16:23 -2.6 C 3.19 g/m*3 -2.6 C 0 km/h
2381 12-02-2010 05:41:23 -2.5 C 3.21 g/m*3 -2.5 C 0 km/h
2382 12-02-2010 06:06:23 -2.6 C 3.15 g/m*3 -2.6 C 0 km/h
2383 12-02-2010 06:31:23 -2.5 C 3.17 g/m*3 -2.5 C 0 km/h
2384 12-02-2010 06:56:23 -2.6 C 3.19 g/m*3 -2.6 C 0 km/h
2385 12-02-2010 07:21:23 -2.7 C 3.17 g/m*3 -2.7 C 0 km/h
2386 12-02-2010 07:46:23 -2.8 C 3.07 g/m*3 -2.8 C 0 km/h
2387 12-02-2010 08:11:23 -2.7 C 3.01 g/m*3 -2.7 C 0 km/h
2388 12-02-2010 08:36:23 -2.6 C 3.03 g/m*3 -2.6 C 0 km/h
2389 12-02-2010 09:01:23 -2.6 C 3.03 g/m*3 -2.6 C 0 km/h
2390 12-02-2010 09:26:23 -2.5 C 3.01 g/m*3 -2.5 C 0 km/h
2391 12-02-2010 09:51:23 -2.3 C 2.97 g/m*3 -2.3 C 0 km/h
2392 12-02-2010 10:16:23 -2.1 C 2.93 g/m*3 -2.1 C 0 km/h
2393 12-02-2010 10:41:23 -1.9 C 2.84 g/m*3 -1.9 C 0 km/h
2394 12-02-2010 11:06:23 -1.2 C 2.9 g/m*3 -1.2 C 0 km/h
2395 12-02-2010 11:31:23 -1.3 C 2.74 g/m*3 -1.3 C 0 km/h
2396 12-02-2010 11:56:23 -1 C 2.71 g/m*3 -1 C 0 km/h
2397 12-02-2010 12:21:23 -1.1 C 2.69 g/m*3 -1.1 C 0 km/h
2398 12-02-2010 12:46:23 -1.4 C 2.77 g/m*3 -1.4 C 0 km/h
2399 12-02-2010 13:11:24 -1.2 C 2.85 g/m*3 -1.2 C 0 km/h
2400 12-02-2010 13:36:24 -1.2 C 2.9 g/m*3 -1.2 C 0 km/h
Sensor: Nr:Datum:Temp:Abs-Feuchte:Windchill:Wind:
Aussen-T/F 2401 12-02-2010 14:01:24 -1.1 C 2.92 g/m*3 -1.1 C 0 km/h
2402 12-02-2010 14:26:24 -0.7 C 2.95 g/m*3 -0.7 C 0 km/h
2403 12-02-2010 14:51:24 -0.5 C 2.95 g/m*3 -0.5 C 0 km/h
2404 12-02-2010 15:16:24 -0.8 C 2.84 g/m*3 -0.8 C 0 km/h
2405 12-02-2010 15:41:24 -0.8 C 2.89 g/m*3 -0.8 C 0 km/h
2406 12-02-2010 16:06:24 -0.9 C 2.91 g/m*3 -0.9 C 0 km/h
2407 12-02-2010 16:31:24 -1.2 C 2.85 g/m*3 -1.2 C 0 km/h
2408 12-02-2010 16:56:24 -1.2 C 2.76 g/m*3 -1.2 C 0 km/h
2409 12-02-2010 17:21:24 -1.4 C 2.73 g/m*3 -1.4 C 0 km/h
2410 12-02-2010 17:46:24 -1.9 C 2.76 g/m*3 -1.9 C 0 km/h
2411 12-02-2010 18:11:24 -2.1 C 2.72 g/m*3 -2.1 C 0 km/h
2412 12-02-2010 18:36:24 -2.2 C 2.78 g/m*3 -2.2 C 0 km/h
2413 12-02-2010 19:01:24 -2.4 C 2.66 g/m*3 -2.4 C 0 km/h
2414 12-02-2010 19:26:24 -2.5 C 2.69 g/m*3 -2.5 C 0 km/h
2415 12-02-2010 19:51:24 -2.5 C 2.73 g/m*3 -2.5 C 0 km/h
2416 12-02-2010 20:16:24 -2.6 C 2.71 g/m*3 -2.6 C 0 km/h
2417 12-02-2010 20:41:24 -2.6 C 2.75 g/m*3 -2.6 C 0 km/h
2418 12-02-2010 21:06:24 -2.6 C 2.71 g/m*3 -2.6 C 0 km/h
2419 12-02-2010 21:31:24 -2.7 C 2.73 g/m*3 -2.7 C 0 km/h
2420 12-02-2010 21:56:25 -2.8 C 2.71 g/m*3 -2.8 C 0 km/h
2421 12-02-2010 22:21:25 -2.8 C 2.75 g/m*3 -2.8 C 0 km/h
2422 12-02-2010 22:46:25 -2.9 C 2.73 g/m*3 -2.9 C 0 km/h
2423 12-02-2010 23:11:25 -3 C 2.71 g/m*3 -3 C 0 km/h
2424 12-02-2010 23:36:25 -3.2 C 2.67 g/m*3 -3.2 C 0 km/h
2425 13-02-2010 00:01:25 -3.2 C 2.71 g/m*3 -3.2 C 0 km/h
Sensor: Nr:Datum:Temp:Abs-Feuchte:Windchill:Wind:
Aussen-T/F 2426 13-02-2010 00:26:25 -3.4 C 2.75 g/m*3 -3.4 C 0 km/h
2427 13-02-2010 00:51:25 -3.7 C 2.73 g/m*3 -3.7 C 0 km/h
2428 13-02-2010 01:16:25 -3.9 C 2.76 g/m*3 -3.9 C 0 km/h
2429 13-02-2010 01:41:25 -4 C 2.78 g/m*3 -4 C 0 km/h
2430 13-02-2010 02:06:25 -3.9 C 2.8 g/m*3 -3.9 C 0 km/h
2431 13-02-2010 02:31:25 -4 C 2.74 g/m*3 -4 C 0 km/h
2432 13-02-2010 02:56:25 -4.1 C 2.69 g/m*3 -4.1 C 0 km/h
2433 13-02-2010 03:21:25 -4.2 C 2.7 g/m*3 -4.2 C 0 km/h
2434 13-02-2010 03:46:25 -4.2 C 2.74 g/m*3 -4.2 C 0 km/h
2435 13-02-2010 04:11:25 -4.2 C 2.74 g/m*3 -4.2 C 0 km/h
2436 13-02-2010 04:36:25 -4.1 C 2.8 g/m*3 -4.1 C 0 km/h
2437 13-02-2010 05:01:25 -4.1 C 2.8 g/m*3 -4.1 C 0 km/h
2438 13-02-2010 05:26:25 -4 C 2.82 g/m*3 -4 C 0 km/h
2439 13-02-2010 05:51:25 -3.8 C 2.86 g/m*3 -3.8 C 0 km/h
2440 13-02-2010 06:16:26 -3.9 C 2.84 g/m*3 -3.9 C 0 km/h
2441 13-02-2010 06:41:26 -3.8 C 2.86 g/m*3 -3.8 C 0 km/h
2442 13-02-2010 07:06:26 -3.7 C 2.84 g/m*3 -3.7 C 0 km/h
2443 13-02-2010 07:31:26 -3.8 C 2.78 g/m*3 -3.8 C 0 km/h
2444 13-02-2010 07:56:26 -3.8 C 2.82 g/m*3 -3.8 C 0 km/h
2445 13-02-2010 08:21:26 -3.6 C 2.86 g/m*3 -3.6 C 0 km/h
2446 13-02-2010 08:46:26 -3.2 C 2.9 g/m*3 -3.2 C 0 km/h
2447 13-02-2010 09:11:26 -2.9 C 2.89 g/m*3 -2.9 C 0 km/h
2448 13-02-2010 09:36:26 -2.6 C 2.91 g/m*3 -2.6 C 0 km/h
2449 13-02-2010 10:01:26 -2.7 C 2.73 g/m*3 -2.7 C 0 km/h
2450 13-02-2010 10:26:26 -2.4 C 2.7 g/m*3 -2.4 C 0 km/h
Sensor: Nr:Datum:Temp:Abs-Feuchte:Windchill:Wind:
Aussen-T/F 2451 13-02-2010 10:51:26 -2.3 C 2.64 g/m*3 -2.3 C 0 km/h
2452 13-02-2010 11:16:26 -1.9 C 2.76 g/m*3 -1.9 C 0 km/h
2453 13-02-2010 11:41:26 -1.5 C 2.66 g/m*3 -1.5 C 0 km/h
2454 13-02-2010 12:06:26 -1.3 C 2.7 g/m*3 -1.3 C 0 km/h
2455 13-02-2010 12:31:26 -0.5 C 2.86 g/m*3 -0.5 C 0 km/h
2456 13-02-2010 12:56:26 -1.2 C 2.67 g/m*3 -1.2 C 0 km/h
2457 13-02-2010 13:21:26 -1.4 C 2.73 g/m*3 -1.4 C 0 km/h
2458 13-02-2010 13:46:26 -1 C 2.76 g/m*3 -1 C 0 km/h
2459 13-02-2010 14:11:26 -1.1 C 2.51 g/m*3 -1.1 C 0 km/h
2460 13-02-2010 14:36:26 0 C 2.76 g/m*3 0 C 0 km/h
2461 13-02-2010 15:01:27 -0.3 C 2.56 g/m*3 -0.3 C 0 km/h
2462 13-02-2010 15:26:27 -0.5 C 2.57 g/m*3 -0.5 C 0 km/h
2463 13-02-2010 15:51:27 -0.7 C 2.54 g/m*3 -0.7 C 0 km/h
2464 13-02-2010 16:16:27 -0.9 C 2.55 g/m*3 -0.9 C 0 km/h
2465 13-02-2010 16:41:27 -1 C 2.58 g/m*3 -1 C 0 km/h
2466 13-02-2010 17:06:27 -1.4 C 2.68 g/m*3 -1.4 C 0 km/h
2467 13-02-2010 17:31:27 -1.9 C 2.8 g/m*3 -1.9 C 0 km/h
2468 13-02-2010 17:56:27 -2 C 2.91 g/m*3 -2 C 0 km/h
2469 13-02-2010 18:21:27 -2 C 2.95 g/m*3 -2 C 0 km/h
2470 13-02-2010 18:46:27 -2.1 C 2.97 g/m*3 -2.1 C 0 km/h
2471 13-02-2010 19:11:27 -2.2 C 2.99 g/m*3 -2.2 C 0 km/h
2472 13-02-2010 19:36:27 -2.1 C 3.01 g/m*3 -2.1 C 0 km/h
2473 13-02-2010 20:01:27 -2.2 C 2.99 g/m*3 -2.2 C 0 km/h
2474 13-02-2010 20:26:27 -2.3 C 3.01 g/m*3 -2.3 C 0 km/h
2475 13-02-2010 20:51:27 -2.4 C 2.99 g/m*3 -2.4 C 0 km/h
Sensor: Nr:Datum:Temp:Abs-Feuchte:Windchill:Wind:
Aussen-T/F 2476 13-02-2010 21:16:27 -2.4 C 2.99 g/m*3 -2.4 C 0 km/h
2477 13-02-2010 21:41:27 -2.4 C 2.99 g/m*3 -2.4 C 0 km/h
2478 13-02-2010 22:06:27 -2.5 C 2.97 g/m*3 -2.5 C 0 km/h
2479 13-02-2010 22:31:27 -2.6 C 2.99 g/m*3 -2.6 C 0 km/h
2480 13-02-2010 22:56:27 -2.5 C 3.05 g/m*3 -2.5 C 0 km/h
2481 13-02-2010 23:21:28 -2.7 C 3.05 g/m*3 -2.7 C 0 km/h
2482 13-02-2010 23:46:28 -2.8 C 3.03 g/m*3 -2.8 C 0 km/h
2483 14-02-2010 00:11:28 -2.9 C 3.01 g/m*3 -2.9 C 0 km/h
2484 14-02-2010 00:36:28 -3.1 C 3 g/m*3 -3.1 C 0 km/h
2485 14-02-2010 01:01:28 -3.2 C 2.98 g/m*3 -3.2 C 0 km/h
2486 14-02-2010 01:26:28 -3.3 C 2.96 g/m*3 -3.3 C 0 km/h
2487 14-02-2010 01:51:28 -3.4 C 2.94 g/m*3 -3.4 C 0 km/h
2488 14-02-2010 02:16:28 -3.4 C 2.98 g/m*3 -3.4 C 0 km/h
2489 14-02-2010 02:41:28 -3.4 C 2.98 g/m*3 -3.4 C 0 km/h
2490 14-02-2010 03:06:28 -3.4 C 3.02 g/m*3 -3.4 C 0 km/h
2491 14-02-2010 03:31:28 -3.4 C 3.02 g/m*3 -3.4 C 0 km/h
2492 14-02-2010 03:56:28 -3.6 C 2.97 g/m*3 -3.6 C 0 km/h
2493 14-02-2010 04:21:28 -3.5 C 2.99 g/m*3 -3.5 C 0 km/h
2494 14-02-2010 04:46:28 -3.6 C 2.97 g/m*3 -3.6 C 0 km/h
2495 14-02-2010 05:11:28 -3.7 C 2.95 g/m*3 -3.7 C 0 km/h
2496 14-02-2010 05:36:28 -3.6 C 3.01 g/m*3 -3.6 C 0 km/h
2497 14-02-2010 06:01:28 -3.7 C 2.99 g/m*3 -3.7 C 0 km/h
2498 14-02-2010 06:26:28 -3.7 C 2.99 g/m*3 -3.7 C 0 km/h
2499 14-02-2010 06:51:28 -3.7 C 2.99 g/m*3 -3.7 C 0 km/h
2500 14-02-2010 07:16:28 -3.4 C 3.05 g/m*3 -3.4 C 0 km/h
Sensor: Nr:Datum:Temp:Abs-Feuchte:Windchill:Wind:
Aussen-T/F 2501 14-02-2010 07:41:28 -3.6 C 3.01 g/m*3 -3.6 C 0 km/h
2502 14-02-2010 08:06:29 -3.5 C 3.03 g/m*3 -3.5 C 0 km/h
2503 14-02-2010 08:31:29 -3.5 C 3.03 g/m*3 -3.5 C 0 km/h
2504 14-02-2010 08:56:29 -3.3 C 3.08 g/m*3 -3.3 C 0 km/h
2505 14-02-2010 09:21:29 -3.2 C 3.1 g/m*3 -3.2 C 0 km/h
2506 14-02-2010 09:46:29 -3.1 C 3.12 g/m*3 -3.1 C 0 km/h
2507 14-02-2010 10:11:29 -2.8 C 3.19 g/m*3 -2.8 C 0 km/h
2508 14-02-2010 10:36:29 -2.4 C 3.24 g/m*3 -2.4 C 0 km/h
2509 14-02-2010 11:01:29 -2.1 C 3.22 g/m*3 -2.1 C 0 km/h
2510 14-02-2010 11:26:29 -1.9 C 3.23 g/m*3 -1.9 C 0 km/h
2511 14-02-2010 11:51:29 -1.5 C 3.23 g/m*3 -1.5 C 0 km/h
2512 14-02-2010 12:16:29 -1.1 C 3.19 g/m*3 -1.1 C 0 km/h
2513 14-02-2010 12:41:29 -0.6 C 3.07 g/m*3 -0.6 C 0 km/h
2514 14-02-2010 13:06:29 0.2 C 3.14 g/m*3 0.2 C 0 km/h
2515 14-02-2010 13:31:29 0.6 C 3.03 g/m*3 0.6 C 0 km/h
2516 14-02-2010 13:56:29 1 C 3.01 g/m*3 1 C 0 km/h
2517 14-02-2010 14:21:29 1.4 C 3.09 g/m*3 1.4 C 0 km/h
2518 14-02-2010 14:46:29 1.4 C 3.04 g/m*3 1.4 C 0 km/h
2519 14-02-2010 15:11:29 0.8 C 2.92 g/m*3 0.8 C 0 km/h
2520 14-02-2010 15:36:29 0.7 C 3 g/m*3 0.7 C 0 km/h
2521 14-02-2010 16:01:29 0.1 C 2.98 g/m*3 0.1 C 0 km/h
2522 14-02-2010 16:26:30 -0.3 C 2.99 g/m*3 -0.3 C 0 km/h
2523 14-02-2010 16:51:30 -0.5 C 3.09 g/m*3 -0.5 C 0 km/h
2524 14-02-2010 17:16:30 -0.7 C 3.14 g/m*3 -0.7 C 0 km/h
2525 14-02-2010 17:41:30 -0.9 C 3.19 g/m*3 -0.9 C 0 km/h
Sensor: Nr:Datum:Temp:Abs-Feuchte:Windchill:Wind:
Aussen-T/F 2526 14-02-2010 18:06:30 -1.1 C 3.23 g/m*3 -1.1 C 0 km/h
2527 14-02-2010 18:31:30 -1.3 C 3.23 g/m*3 -1.3 C 0 km/h
2528 14-02-2010 18:56:30 -1.5 C 3.27 g/m*3 -1.5 C 0 km/h
2529 14-02-2010 19:21:30 -1.7 C 3.27 g/m*3 -1.7 C 0 km/h
2530 14-02-2010 19:46:30 -1.8 C 3.29 g/m*3 -1.8 C 0 km/h
2531 14-02-2010 20:11:30 -1.7 C 3.36 g/m*3 -1.7 C 0 km/h
2532 14-02-2010 20:36:30 -1.9 C 3.31 g/m*3 -1.9 C 0 km/h
2533 14-02-2010 21:01:30 -2.2 C 3.24 g/m*3 -2.2 C 0 km/h
2534 14-02-2010 21:26:30 -2.4 C 3.16 g/m*3 -2.4 C 0 km/h
2535 14-02-2010 21:51:30 -2.6 C 3.11 g/m*3 -2.6 C 0 km/h
2536 14-02-2010 22:16:30 -2.9 C 3.01 g/m*3 -2.9 C 0 km/h
2537 14-02-2010 22:41:30 -3 C 3.02 g/m*3 -3 C 0 km/h
2538 14-02-2010 23:06:30 -3 C 2.99 g/m*3 -3 C 0 km/h
2539 14-02-2010 23:31:30 -3 C 2.99 g/m*3 -3 C 0 km/h
2540 14-02-2010 23:56:30 -3 C 2.99 g/m*3 -3 C 0 km/h
2541 15-02-2010 00:21:30 -3 C 2.99 g/m*3 -3 C 0 km/h
2542 15-02-2010 00:46:30 -3 C 2.99 g/m*3 -3 C 0 km/h
2543 15-02-2010 01:11:31 -3 C 2.99 g/m*3 -3 C 0 km/h
2544 15-02-2010 01:36:31 -2.9 C 2.97 g/m*3 -2.9 C 0 km/h
2545 15-02-2010 02:01:31 -2.8 C 2.99 g/m*3 -2.8 C 0 km/h
2546 15-02-2010 02:26:31 -2.7 C 3.01 g/m*3 -2.7 C 0 km/h
2547 15-02-2010 02:51:31 -2.6 C 3.03 g/m*3 -2.6 C 0 km/h
2548 15-02-2010 03:16:31 -2.6 C 2.99 g/m*3 -2.6 C 0 km/h
2549 15-02-2010 03:41:31 -2.6 C 2.99 g/m*3 -2.6 C 0 km/h
2550 15-02-2010 04:06:31 -2.6 C 2.99 g/m*3 -2.6 C 0 km/h
Sensor: Nr:Datum:Temp:Abs-Feuchte:Windchill:Wind:
Aussen-T/F 2551 15-02-2010 04:31:31 -2.6 C 3.03 g/m*3 -2.6 C 0 km/h
2552 15-02-2010 04:56:31 -2.6 C 3.03 g/m*3 -2.6 C 0 km/h
2553 15-02-2010 05:21:31 -2.6 C 3.07 g/m*3 -2.6 C 0 km/h
2554 15-02-2010 05:46:31 -2.6 C 3.11 g/m*3 -2.6 C 0 km/h
2555 15-02-2010 06:11:31 -2.7 C 3.05 g/m*3 -2.7 C 0 km/h
2556 15-02-2010 06:36:31 -2.8 C 3.03 g/m*3 -2.8 C 0 km/h
2557 15-02-2010 07:01:31 -2.9 C 3.01 g/m*3 -2.9 C 0 km/h
2558 15-02-2010 07:26:31 -3.2 C 2.9 g/m*3 -3.2 C 0 km/h
2559 15-02-2010 07:51:31 -3.1 C 2.96 g/m*3 -3.1 C 0 km/h
2560 15-02-2010 08:16:31 -3.1 C 2.96 g/m*3 -3.1 C 0 km/h
2561 15-02-2010 08:41:31 -3 C 2.91 g/m*3 -3 C 0 km/h
2562 15-02-2010 09:06:31 -2.7 C 2.93 g/m*3 -2.7 C 0 km/h
2563 15-02-2010 09:31:31 -2.3 C 2.97 g/m*3 -2.3 C 0 km/h
2564 15-02-2010 09:56:32 -1.8 C 3.04 g/m*3 -1.8 C 0 km/h
2565 15-02-2010 10:21:32 -1.4 C 3.03 g/m*3 -1.4 C 0 km/h
2566 15-02-2010 10:46:32 -0.2 C 3.11 g/m*3 -0.2 C 0 km/h
2567 15-02-2010 11:11:32 -0.3 C 3.04 g/m*3 -0.3 C 0 km/h
2568 15-02-2010 11:36:32 -0.2 C 3.11 g/m*3 -0.2 C 0 km/h
2569 15-02-2010 12:01:32 0.3 C 3.07 g/m*3 0.3 C 0 km/h
2570 15-02-2010 12:26:32 0.9 C 3.2 g/m*3 0.9 C 0 km/h
2571 15-02-2010 12:51:32 1.2 C 3.21 g/m*3 1.2 C 0 km/h
2572 15-02-2010 13:16:32 1.6 C 3.24 g/m*3 1.6 C 0 km/h
2573 15-02-2010 13:41:32 1.8 C 3.29 g/m*3 1.8 C 0 km/h
2574 15-02-2010 14:06:32 2.2 C 3.21 g/m*3 2.2 C 0 km/h
2575 15-02-2010 14:31:32 1.4 C 3.2 g/m*3 1.4 C 0 km/h
Sensor: Nr:Datum:Temp:Abs-Feuchte:Windchill:Wind:
Aussen-T/F 2576 15-02-2010 14:56:32 1.6 C 3.41 g/m*3 1.6 C 0 km/h
2577 15-02-2010 15:21:32 1.8 C 3.45 g/m*3 1.8 C 0 km/h
2578 15-02-2010 15:46:32 1.8 C 3.4 g/m*3 1.8 C 0 km/h
2579 15-02-2010 16:11:32 1.5 C 3.38 g/m*3 1.5 C 0 km/h
2580 15-02-2010 16:36:32 1.3 C 3.44 g/m*3 1.3 C 0 km/h
2581 15-02-2010 17:01:32 0.7 C 3.46 g/m*3 0.7 C 0 km/h
2582 15-02-2010 17:26:32 0.3 C 3.46 g/m*3 0.3 C 0 km/h
2583 15-02-2010 17:51:32 -0.2 C 3.39 g/m*3 -0.2 C 0 km/h
2584 15-02-2010 18:16:33 -0.4 C 3.44 g/m*3 -0.4 C 0 km/h
2585 15-02-2010 18:41:33 -0.6 C 3.44 g/m*3 -0.6 C 0 km/h
2586 15-02-2010 19:06:33 -0.9 C 3.46 g/m*3 -0.9 C 0 km/h
2587 15-02-2010 19:31:33 -1 C 3.44 g/m*3 -1 C 0 km/h
2588 15-02-2010 19:56:33 -1 C 3.48 g/m*3 -1 C 0 km/h
2589 15-02-2010 20:21:33 -1.2 C 3.43 g/m*3 -1.2 C 0 km/h
2590 15-02-2010 20:46:33 -1.3 C 3.41 g/m*3 -1.3 C 0 km/h
2591 15-02-2010 21:11:33 -1.2 C 3.43 g/m*3 -1.2 C 0 km/h
2592 15-02-2010 21:36:33 -1.2 C 3.48 g/m*3 -1.2 C 0 km/h
2593 15-02-2010 22:01:33 -1 C 3.57 g/m*3 -1 C 0 km/h
2594 15-02-2010 22:26:33 -1 C 3.53 g/m*3 -1 C 0 km/h
2595 15-02-2010 22:51:33 -1.2 C 3.48 g/m*3 -1.2 C 0 km/h
2596 15-02-2010 23:16:33 -1.2 C 3.48 g/m*3 -1.2 C 0 km/h
2597 15-02-2010 23:41:33 -1.3 C 3.45 g/m*3 -1.3 C 0 km/h
2598 16-02-2010 00:06:33 -1.4 C 3.43 g/m*3 -1.4 C 0 km/h
2599 16-02-2010 00:31:33 -2.1 C 3.22 g/m*3 -2.1 C 0 km/h
2600 16-02-2010 00:56:33 -2.7 C 3.13 g/m*3 -2.7 C 0 km/h
Sensor: Nr:Datum:Temp:Abs-Feuchte:Windchill:Wind:
Aussen-T/F 2601 16-02-2010 01:21:33 -2.9 C 3.13 g/m*3 -2.9 C 0 km/h
2602 16-02-2010 01:46:33 -2.9 C 3.16 g/m*3 -2.9 C 0 km/h
2603 16-02-2010 02:11:33 -2.9 C 3.16 g/m*3 -2.9 C 0 km/h
2604 16-02-2010 02:36:33 -3.2 C 3.1 g/m*3 -3.2 C 0 km/h
2605 16-02-2010 03:01:34 -3.3 C 3.08 g/m*3 -3.3 C 0 km/h
2606 16-02-2010 03:26:34 -3.4 C 3.09 g/m*3 -3.4 C 0 km/h
2607 16-02-2010 03:51:34 -3.1 C 3.16 g/m*3 -3.1 C 0 km/h
2608 16-02-2010 04:16:34 -2.9 C 3.2 g/m*3 -2.9 C 0 km/h
2609 16-02-2010 04:41:34 -2.7 C 3.29 g/m*3 -2.7 C 0 km/h
2610 16-02-2010 05:06:34 -2.7 C 3.25 g/m*3 -2.7 C 0 km/h
2611 16-02-2010 05:31:34 -2.7 C 3.25 g/m*3 -2.7 C 0 km/h
2612 16-02-2010 05:56:34 -2.6 C 3.27 g/m*3 -2.6 C 0 km/h
2613 16-02-2010 06:21:34 -2.3 C 3.34 g/m*3 -2.3 C 0 km/h
2614 16-02-2010 06:46:34 -2.3 C 3.3 g/m*3 -2.3 C 0 km/h
2615 16-02-2010 07:11:34 -2.5 C 3.26 g/m*3 -2.5 C 0 km/h
2616 16-02-2010 07:36:34 -2.8 C 3.19 g/m*3 -2.8 C 0 km/h
2617 16-02-2010 08:01:34 -2.8 C 3.19 g/m*3 -2.8 C 0 km/h
2618 16-02-2010 08:26:34 -2.5 C 3.3 g/m*3 -2.5 C 0 km/h
2619 16-02-2010 08:51:34 -1.9 C 3.4 g/m*3 -1.9 C 0 km/h
2620 16-02-2010 09:16:34 -1.4 C 3.47 g/m*3 -1.4 C 0 km/h
2621 16-02-2010 09:41:34 -0.7 C 3.51 g/m*3 -0.7 C 0 km/h
2622 16-02-2010 10:06:34 -0.6 C 3.35 g/m*3 -0.6 C 0 km/h
2623 16-02-2010 10:31:34 0.1 C 3.42 g/m*3 0.1 C 0 km/h
2624 16-02-2010 10:56:34 -0.1 C 3.27 g/m*3 -0.1 C 0 km/h
2625 16-02-2010 11:21:34 0.3 C 3.31 g/m*3 0.3 C 0 km/h
Sensor: Nr:Datum:Temp:Abs-Feuchte:Windchill:Wind:
Aussen-T/F 2626 16-02-2010 11:46:35 0.4 C 3.19 g/m*3 0.4 C 0 km/h
2627 16-02-2010 12:11:35 1.2 C 3.31 g/m*3 1.2 C 0 km/h
2628 16-02-2010 12:36:35 2.4 C 2.91 g/m*3 2.4 C 0 km/h
2629 16-02-2010 13:01:35 2.8 C 2.76 g/m*3 2.8 C 0 km/h
2630 16-02-2010 13:26:35 2.9 C 2.6 g/m*3 2.9 C 0 km/h
2631 16-02-2010 13:51:35 2.8 C 2.7 g/m*3 2.8 C 0 km/h
2632 16-02-2010 14:16:35 3.5 C 2.64 g/m*3 3.5 C 0 km/h
2633 16-02-2010 14:41:35 3.4 C 2.57 g/m*3 3.4 C 0 km/h
2634 16-02-2010 15:06:35 3.2 C 2.53 g/m*3 3.2 C 0 km/h
2635 16-02-2010 15:31:35 3.9 C 2.4 g/m*3 3.9 C 0 km/h
2636 16-02-2010 15:56:35 4.5 C 2.43 g/m*3 4.5 C 0 km/h
2637 16-02-2010 16:21:35 4.4 C 2.42 g/m*3 4.4 C 0 km/h
2638 16-02-2010 16:46:35 4.1 C 2.43 g/m*3 4.1 C 0 km/h
2639 16-02-2010 17:11:35 2.8 C 2.58 g/m*3 2.8 C 0 km/h
2640 16-02-2010 17:36:35 1.1 C 2.61 g/m*3 1.1 C 0 km/h
2641 16-02-2010 18:01:35 -0.2 C 2.63 g/m*3 -0.2 C 0 km/h
2642 16-02-2010 18:26:35 -1.4 C 2.73 g/m*3 -1.4 C 0 km/h
2643 16-02-2010 18:51:35 -2 C 2.74 g/m*3 -2 C 0 km/h
2644 16-02-2010 19:16:35 -2.5 C 2.73 g/m*3 -2.5 C 0 km/h
2645 16-02-2010 19:41:35 -2.7 C 2.77 g/m*3 -2.7 C 0 km/h
2646 16-02-2010 20:06:36 -3 C 2.75 g/m*3 -3 C 0 km/h
2647 16-02-2010 20:31:36 -3.2 C 2.75 g/m*3 -3.2 C 0 km/h
2648 16-02-2010 20:56:36 -3.6 C 2.67 g/m*3 -3.6 C 0 km/h
2649 16-02-2010 21:21:36 -3.8 C 2.67 g/m*3 -3.8 C 0 km/h
2650 16-02-2010 21:46:36 -4.1 C 2.62 g/m*3 -4.1 C 0 km/h
Sensor: Nr:Datum:Temp:Abs-Feuchte:Windchill:Wind:
Aussen-T/F 2651 16-02-2010 22:11:36 -4.2 C 2.63 g/m*3 -4.2 C 0 km/h
2652 16-02-2010 22:36:36 -4.5 C 2.58 g/m*3 -4.5 C 0 km/h
2653 16-02-2010 23:01:36 -4.7 C 2.54 g/m*3 -4.7 C 0 km/h
2654 16-02-2010 23:26:36 -4.9 C 2.5 g/m*3 -4.9 C 0 km/h
2655 16-02-2010 23:51:36 -5.1 C 2.47 g/m*3 -5.1 C 0 km/h
2656 17-02-2010 00:16:36 -5.4 C 2.41 g/m*3 -5.4 C 0 km/h
2657 17-02-2010 00:41:36 -5.7 C 2.36 g/m*3 -5.7 C 0 km/h
2658 17-02-2010 01:06:36 -6 C 2.34 g/m*3 -6 C 0 km/h
2659 17-02-2010 01:31:36 -6.2 C 2.31 g/m*3 -6.2 C 0 km/h
2660 17-02-2010 01:56:36 -6.5 C 2.26 g/m*3 -6.5 C 0 km/h
2661 17-02-2010 02:21:36 -6.6 C 2.27 g/m*3 -6.6 C 0 km/h
2662 17-02-2010 02:46:36 -6.8 C 2.24 g/m*3 -6.8 C 0 km/h
2663 17-02-2010 03:11:36 -6.9 C 2.22 g/m*3 -6.9 C 0 km/h
2664 17-02-2010 03:36:36 -6.2 C 2.37 g/m*3 -6.2 C 0 km/h
2665 17-02-2010 04:01:36 -5.8 C 2.44 g/m*3 -5.8 C 0 km/h
2666 17-02-2010 04:26:36 -5.5 C 2.5 g/m*3 -5.5 C 0 km/h
2667 17-02-2010 04:51:37 -5.3 C 2.5 g/m*3 -5.3 C 0 km/h
2668 17-02-2010 05:16:37 -5.2 C 2.48 g/m*3 -5.2 C 0 km/h
2669 17-02-2010 05:41:37 -4.9 C 2.54 g/m*3 -4.9 C 0 km/h
2670 17-02-2010 06:06:37 -4.9 C 2.54 g/m*3 -4.9 C 0 km/h
2671 17-02-2010 06:31:37 -4.7 C 2.57 g/m*3 -4.7 C 0 km/h
2672 17-02-2010 06:56:37 -4.5 C 2.61 g/m*3 -4.5 C 0 km/h
2673 17-02-2010 07:21:37 -4.4 C 2.6 g/m*3 -4.4 C 0 km/h
2674 17-02-2010 07:46:37 -4.1 C 2.62 g/m*3 -4.1 C 0 km/h
2675 17-02-2010 08:11:37 -3.8 C 2.67 g/m*3 -3.8 C 0 km/h
Sensor: Nr:Datum:Temp:Abs-Feuchte:Windchill:Wind:
Aussen-T/F 2676 17-02-2010 08:36:37 -3.4 C 2.71 g/m*3 -3.4 C 0 km/h
2677 17-02-2010 09:01:37 -3.1 C 2.65 g/m*3 -3.1 C 0 km/h
2678 17-02-2010 09:26:37 -2.9 C 2.49 g/m*3 -2.9 C 0 km/h
2679 17-02-2010 09:51:37 -2.7 C 2.53 g/m*3 -2.7 C 0 km/h
2680 17-02-2010 10:16:37 -2.7 C 2.53 g/m*3 -2.7 C 0 km/h
2681 17-02-2010 10:41:37 -2.2 C 2.54 g/m*3 -2.2 C 0 km/h
2682 17-02-2010 11:06:37 -1.4 C 2.73 g/m*3 -1.4 C 0 km/h
2683 17-02-2010 11:31:37 -0.6 C 2.79 g/m*3 -0.6 C 0 km/h
2684 17-02-2010 11:56:37 1 C 2.91 g/m*3 1 C 0 km/h
2685 17-02-2010 12:21:37 2.7 C 2.8 g/m*3 2.7 C 0 km/h
2686 17-02-2010 12:46:37 3.5 C 2.71 g/m*3 3.5 C 0 km/h
2687 17-02-2010 13:11:38 2.9 C 2.72 g/m*3 2.9 C 0 km/h
2688 17-02-2010 13:36:38 2.8 C 2.7 g/m*3 2.8 C 0 km/h
2689 17-02-2010 14:01:38 2.7 C 2.97 g/m*3 2.7 C 0 km/h
2690 17-02-2010 14:26:38 2.1 C 3.3 g/m*3 2.1 C 0 km/h
2691 17-02-2010 14:51:38 2.1 C 3.58 g/m*3 2.1 C 0 km/h
2692 17-02-2010 15:16:38 1.3 C 3.81 g/m*3 1.3 C 0 km/h
2693 17-02-2010 15:41:38 1.2 C 4 g/m*3 1.2 C 0 km/h
2694 17-02-2010 16:06:38 1.3 C 4.13 g/m*3 1.3 C 0 km/h
2695 17-02-2010 16:31:38 1 C 4.15 g/m*3 1 C 0 km/h
2696 17-02-2010 16:56:38 0.9 C 4.23 g/m*3 0.9 C 0 km/h
2697 17-02-2010 17:21:38 0.7 C 4.17 g/m*3 0.7 C 0 km/h
2698 17-02-2010 17:46:38 0.6 C 4.19 g/m*3 0.6 C 0 km/h
2699 17-02-2010 18:11:38 0.5 C 4.21 g/m*3 0.5 C 0 km/h
2700 17-02-2010 18:36:38 0.5 C 4.31 g/m*3 0.5 C 0 km/h
Sensor: Nr:Datum:Temp:Abs-Feuchte:Windchill:Wind:
Aussen-T/F 2701 17-02-2010 19:01:38 0.5 C 4.36 g/m*3 0.5 C 0 km/h
2702 17-02-2010 19:26:38 0.5 C 4.36 g/m*3 0.5 C 0 km/h
2703 17-02-2010 19:51:38 0.5 C 4.41 g/m*3 0.5 C 0 km/h
2704 17-02-2010 20:16:38 0.7 C 4.53 g/m*3 0.7 C 0 km/h
2705 17-02-2010 20:41:38 0.7 C 4.53 g/m*3 0.7 C 0 km/h
2706 17-02-2010 21:06:38 0.7 C 4.53 g/m*3 0.7 C 0 km/h
2707 17-02-2010 21:31:38 0.8 C 4.51 g/m*3 0.8 C 0 km/h
2708 17-02-2010 21:56:39 0.8 C 4.56 g/m*3 0.8 C 0 km/h
2709 17-02-2010 22:21:39 0.8 C 4.51 g/m*3 0.8 C 0 km/h
2710 17-02-2010 22:46:39 0.8 C 4.51 g/m*3 0.8 C 0 km/h
2711 17-02-2010 23:11:39 0.8 C 4.51 g/m*3 0.8 C 0 km/h
2712 17-02-2010 23:36:39 0.8 C 4.51 g/m*3 0.8 C 0 km/h
2713 18-02-2010 00:01:39 0.8 C 4.51 g/m*3 0.8 C 0 km/h
2714 18-02-2010 00:26:39 0.9 C 4.54 g/m*3 0.9 C 0 km/h
2715 18-02-2010 00:51:39 0.9 C 4.54 g/m*3 0.9 C 0 km/h
2716 18-02-2010 01:16:39 1 C 4.57 g/m*3 1 C 0 km/h
2717 18-02-2010 01:41:39 1 C 4.57 g/m*3 1 C 0 km/h
2718 18-02-2010 02:06:39 1 C 4.57 g/m*3 1 C 0 km/h
2719 18-02-2010 02:31:39 1.2 C 4.63 g/m*3 1.2 C 0 km/h
2720 18-02-2010 02:56:39 1 C 4.57 g/m*3 1 C 0 km/h
2721 18-02-2010 03:21:39 1.2 C 4.63 g/m*3 1.2 C 0 km/h
2722 18-02-2010 03:46:39 1 C 4.57 g/m*3 1 C 0 km/h
2723 18-02-2010 04:11:39 1 C 4.62 g/m*3 1 C 0 km/h
2724 18-02-2010 04:36:39 1 C 4.62 g/m*3 1 C 0 km/h
2725 18-02-2010 05:01:39 1.2 C 4.68 g/m*3 1.2 C 0 km/h
Sensor: Nr:Datum:Temp:Abs-Feuchte:Windchill:Wind:
Aussen-T/F 2726 18-02-2010 05:26:39 1 C 4.62 g/m*3 1 C 0 km/h
2727 18-02-2010 05:51:39 1.1 C 4.65 g/m*3 1.1 C 0 km/h
2728 18-02-2010 06:16:40 1.1 C 4.65 g/m*3 1.1 C 0 km/h
2729 18-02-2010 06:41:40 1.2 C 4.74 g/m*3 1.2 C 0 km/h
2730 18-02-2010 07:06:40 1.1 C 4.7 g/m*3 1.1 C 0 km/h
2731 18-02-2010 07:31:40 1.1 C 4.7 g/m*3 1.1 C 0 km/h
2732 18-02-2010 07:56:40 1.1 C 4.7 g/m*3 1.1 C 0 km/h
2733 18-02-2010 08:21:40 1.1 C 4.76 g/m*3 1.1 C 0 km/h
2734 18-02-2010 08:46:40 1.4 C 4.85 g/m*3 1.4 C 0 km/h
2735 18-02-2010 09:11:40 1.7 C 5.01 g/m*3 1.7 C 0 km/h
2736 18-02-2010 09:36:40 2 C 5.06 g/m*3 2 C 0 km/h
2737 18-02-2010 10:01:40 2.6 C 5.32 g/m*3 2.6 C 0 km/h
2738 18-02-2010 10:26:40 3.6 C 5.63 g/m*3 3.6 C 0 km/h
2739 18-02-2010 10:51:40 3.8 C 5.58 g/m*3 3.8 C 0 km/h
2740 18-02-2010 11:16:40 4.1 C 5.25 g/m*3 4.1 C 0 km/h
2741 18-02-2010 11:41:40 4.4 C 5.03 g/m*3 4.4 C 0 km/h
2742 18-02-2010 12:06:40 4.7 C 4.86 g/m*3 4.7 C 0 km/h
2743 18-02-2010 12:31:40 5.1 C 4.65 g/m*3 5.1 C 0 km/h
2744 18-02-2010 12:56:40 5.8 C 4.58 g/m*3 5.8 C 0 km/h
2745 18-02-2010 13:21:40 6.8 C 4.36 g/m*3 6.8 C 0 km/h
2746 18-02-2010 13:46:40 7.4 C 4.14 g/m*3 7.4 C 0 km/h
2747 18-02-2010 14:11:40 8 C 4.13 g/m*3 8 C 0 km/h
2748 18-02-2010 14:36:41 8.5 C 4.1 g/m*3 8.5 C 0 km/h
2749 18-02-2010 15:01:41 9.1 C 3.73 g/m*3 9.1 C 0 km/h
2750 18-02-2010 15:26:41 9.5 C 3.64 g/m*3 9.5 C 0 km/h
Sensor: Nr:Datum:Temp:Abs-Feuchte:Windchill:Wind:
Aussen-T/F 2751 18-02-2010 15:51:41 10.1 C 3.59 g/m*3 10.1 C 0 km/h
2752 18-02-2010 16:16:41 9.6 C 3.57 g/m*3 9.6 C 0 km/h
2753 18-02-2010 16:41:41 9.3 C 3.59 g/m*3 9.3 C 0 km/h
2754 18-02-2010 17:06:41 7.5 C 3.36 g/m*3 7.5 C 0 km/h
2755 18-02-2010 17:31:41 6.3 C 3.55 g/m*3 6.3 C 0 km/h
2756 18-02-2010 17:56:41 5.6 C 3.68 g/m*3 5.6 C 0 km/h
2757 18-02-2010 18:21:41 4 C 3.88 g/m*3 4 C 0 km/h
2758 18-02-2010 18:46:41 3.2 C 3.98 g/m*3 3.2 C 0 km/h
2759 18-02-2010 19:11:41 2.6 C 4.11 g/m*3 2.6 C 0 km/h
2760 18-02-2010 19:36:41 2.5 C 4.2 g/m*3 2.5 C 0 km/h
2761 18-02-2010 20:01:41 2.1 C 4.08 g/m*3 2.1 C 0 km/h
2762 18-02-2010 20:26:41 2 C 4.17 g/m*3 2 C 0 km/h
2763 18-02-2010 20:51:41 1.6 C 4.16 g/m*3 1.6 C 0 km/h
2764 18-02-2010 21:16:41 1.4 C 4.21 g/m*3 1.4 C 0 km/h
2765 18-02-2010 21:41:41 1.4 C 4.21 g/m*3 1.4 C 0 km/h
2766 18-02-2010 22:06:41 1.7 C 4.3 g/m*3 1.7 C 0 km/h
2767 18-02-2010 22:31:41 2 C 4.33 g/m*3 2 C 0 km/h
2768 18-02-2010 22:56:42 1.9 C 4.36 g/m*3 1.9 C 0 km/h
2769 18-02-2010 23:21:42 1.7 C 4.3 g/m*3 1.7 C 0 km/h
2770 18-02-2010 23:46:42 1.9 C 4.53 g/m*3 1.9 C 0 km/h
2771 19-02-2010 00:11:42 2.1 C 4.59 g/m*3 2.1 C 0 km/h
2772 19-02-2010 00:36:42 1.8 C 4.55 g/m*3 1.8 C 0 km/h
2773 19-02-2010 01:01:42 2 C 4.67 g/m*3 2 C 0 km/h
2774 19-02-2010 01:26:42 2 C 4.67 g/m*3 2 C 0 km/h
2775 19-02-2010 01:51:42 2.1 C 4.76 g/m*3 2.1 C 0 km/h
Sensor: Nr:Datum:Temp:Abs-Feuchte:Windchill:Wind:
Aussen-T/F 2776 19-02-2010 02:16:42 2.1 C 4.7 g/m*3 2.1 C 0 km/h
2777 19-02-2010 02:41:42 2 C 4.67 g/m*3 2 C 0 km/h
2778 19-02-2010 03:06:42 1.8 C 4.66 g/m*3 1.8 C 0 km/h
2779 19-02-2010 03:31:42 1.8 C 4.71 g/m*3 1.8 C 0 km/h
2780 19-02-2010 03:56:42 1.6 C 4.7 g/m*3 1.6 C 0 km/h
2781 19-02-2010 04:21:42 1.6 C 4.7 g/m*3 1.6 C 0 km/h
2782 19-02-2010 04:46:42 1.6 C 4.7 g/m*3 1.6 C 0 km/h
2783 19-02-2010 05:11:42 1.7 C 4.79 g/m*3 1.7 C 0 km/h
2784 19-02-2010 05:36:42 1.8 C 4.77 g/m*3 1.8 C 0 km/h
2785 19-02-2010 06:01:42 1.9 C 4.8 g/m*3 1.9 C 0 km/h
2786 19-02-2010 06:26:42 2.1 C 4.76 g/m*3 2.1 C 0 km/h
2787 19-02-2010 06:51:42 2 C 4.67 g/m*3 2 C 0 km/h
2788 19-02-2010 07:16:42 1.7 C 4.63 g/m*3 1.7 C 0 km/h
2789 19-02-2010 07:41:43 1.5 C 4.57 g/m*3 1.5 C 0 km/h
2790 19-02-2010 08:06:43 1.5 C 4.62 g/m*3 1.5 C 0 km/h
2791 19-02-2010 08:31:43 1.6 C 4.65 g/m*3 1.6 C 0 km/h
2792 19-02-2010 08:56:43 2.1 C 4.81 g/m*3 2.1 C 0 km/h
2793 19-02-2010 09:21:43 2.5 C 4.83 g/m*3 2.5 C 0 km/h
2794 19-02-2010 09:46:43 3.1 C 4.91 g/m*3 3.1 C 0 km/h
2795 19-02-2010 10:11:43 3.7 C 5.05 g/m*3 3.7 C 0 km/h
2796 19-02-2010 10:36:02 4.6 C 5.1 g/m*3 4.6 C 0 km/h
2797 19-02-2010 11:01:02 5.3 C 5.06 g/m*3 5.3 C 0 km/h
2798 19-02-2010 11:26:01 6 C 4.79 g/m*3 6 C 0 km/h
2799 19-02-2010 11:51:02 6.5 C 4.72 g/m*3 6.5 C 0 km/h
2800 19-02-2010 12:16:02 7 C 4.49 g/m*3 7 C 0 km/h
Sensor: Nr:Datum:Temp:Abs-Feuchte:Windchill:Wind:
Aussen-T/F 2801 19-02-2010 12:41:02 7.6 C 4.27 g/m*3 7.6 C 0 km/h
2802 19-02-2010 13:06:02 7.6 C 4.11 g/m*3 7.6 C 0 km/h
2803 19-02-2010 13:31:02 7.7 C 4.05 g/m*3 7.7 C 0 km/h
2804 19-02-2010 13:56:02 7.6 C 3.95 g/m*3 7.6 C 0 km/h
2805 19-02-2010 14:21:01 7.5 C 4 g/m*3 7.5 C 0 km/h
2806 19-02-2010 14:46:02 7.5 C 3.92 g/m*3 7.5 C 0 km/h
2807 19-02-2010 15:11:03 7.8 C 3.67 g/m*3 7.8 C 0 km/h
2808 19-02-2010 15:36:02 7.2 C 3.53 g/m*3 7.2 C 0 km/h
2809 19-02-2010 16:01:02 6.3 C 3.33 g/m*3 6.3 C 0 km/h
2810 19-02-2010 16:26:01 6.1 C 3.29 g/m*3 6.1 C 0 km/h
2811 19-02-2010 16:51:01 5.5 C 3.23 g/m*3 5.5 C 0 km/h
2812 19-02-2010 17:16:02 5 C 3.06 g/m*3 5 C 0 km/h
2813 19-02-2010 17:41:02 5.1 C 3.01 g/m*3 5.1 C 0 km/h
2814 19-02-2010 18:06:02 4.5 C 3.02 g/m*3 4.5 C 0 km/h
2815 19-02-2010 18:31:02 4.1 C 3.07 g/m*3 4.1 C 0 km/h
2816 19-02-2010 18:56:01 3.7 C 3.18 g/m*3 3.7 C 0 km/h
2817 19-02-2010 19:21:01 3.6 C 3.22 g/m*3 3.6 C 0 km/h
2818 19-02-2010 19:46:02 3.6 C 3.28 g/m*3 3.6 C 0 km/h
2819 19-02-2010 20:11:02 3.3 C 3.34 g/m*3 3.3 C 0 km/h
2820 19-02-2010 20:36:02 3.3 C 3.46 g/m*3 3.3 C 0 km/h
2821 19-02-2010 21:14:02 3.3 C 3.52 g/m*3 3.3 C 0 km/h
2822 19-02-2010 21:26:02 3.2 C 3.56 g/m*3 3.2 C 0 km/h
2823 19-02-2010 21:38:01 3.2 C 3.5 g/m*3 3.2 C 0 km/h
2824 19-02-2010 21:50:01 3.1 C 3.53 g/m*3 3.1 C 0 km/h
2825 19-02-2010 22:02:02 2.8 C 3.52 g/m*3 2.8 C 0 km/h
Sensor: Nr:Datum:Temp:Abs-Feuchte:Windchill:Wind:
Aussen-T/F 2826 19-02-2010 22:14:02 2.6 C 3.53 g/m*3 2.6 C 0 km/h
2827 19-02-2010 22:26:01 2.6 C 3.47 g/m*3 2.6 C 0 km/h
2828 19-02-2010 22:38:02 2.4 C 3.43 g/m*3 2.4 C 0 km/h
2829 19-02-2010 22:50:01 2.2 C 3.38 g/m*3 2.2 C 0 km/h
2830 19-02-2010 23:02:02 2.1 C 3.36 g/m*3 2.1 C 0 km/h
2831 19-02-2010 23:14:02 2.5 C 3.22 g/m*3 2.5 C 0 km/h
2832 19-02-2010 23:26:01 2.5 C 3.16 g/m*3 2.5 C 0 km/h
2833 19-02-2010 23:38:02 2.2 C 3.21 g/m*3 2.2 C 0 km/h
2834 19-02-2010 23:50:01 1.6 C 3.24 g/m*3 1.6 C 0 km/h
2835 20-02-2010 00:02:02 1.5 C 3.33 g/m*3 1.5 C 0 km/h
2836 20-02-2010 00:14:02 1.4 C 3.31 g/m*3 1.4 C 0 km/h
2837 20-02-2010 00:26:02 1.2 C 3.37 g/m*3 1.2 C 0 km/h
2838 20-02-2010 00:38:01 1.1 C 3.4 g/m*3 1.1 C 0 km/h
2839 20-02-2010 00:50:02 0.7 C 3.41 g/m*3 0.7 C 0 km/h
2840 20-02-2010 01:02:01 0.4 C 3.39 g/m*3 0.4 C 0 km/h
2841 20-02-2010 01:14:01 0.1 C 3.42 g/m*3 0.1 C 0 km/h
2842 20-02-2010 01:26:01 -0.1 C 3.46 g/m*3 -0.1 C 0 km/h
2843 20-02-2010 01:38:02 -0.1 C 3.51 g/m*3 -0.1 C 0 km/h
2844 20-02-2010 01:50:02 -0.1 C 3.56 g/m*3 -0.1 C 0 km/h
2845 20-02-2010 02:02:02 -0.2 C 3.58 g/m*3 -0.2 C 0 km/h
2846 20-02-2010 02:14:02 -0.3 C 3.56 g/m*3 -0.3 C 0 km/h
2847 20-02-2010 02:26:02 -0.3 C 3.61 g/m*3 -0.3 C 0 km/h
2848 20-02-2010 02:38:02 -0.4 C 3.58 g/m*3 -0.4 C 0 km/h
2849 20-02-2010 02:50:01 -0.4 C 3.58 g/m*3 -0.4 C 0 km/h
2850 20-02-2010 03:02:01 -0.4 C 3.58 g/m*3 -0.4 C 0 km/h
Sensor: Nr:Datum:Temp:Abs-Feuchte:Windchill:Wind:
Aussen-T/F 2851 20-02-2010 03:14:01 -0.7 C 3.46 g/m*3 -0.7 C 0 km/h
2852 20-02-2010 03:26:01 -0.7 C 3.51 g/m*3 -0.7 C 0 km/h
2853 20-02-2010 03:38:02 -0.8 C 3.48 g/m*3 -0.8 C 0 km/h
2854 20-02-2010 03:50:02 -1 C 3.44 g/m*3 -1 C 0 km/h
2855 20-02-2010 04:02:01 -0.9 C 3.51 g/m*3 -0.9 C 0 km/h
2856 20-02-2010 04:14:01 -0.7 C 3.55 g/m*3 -0.7 C 0 km/h
2857 20-02-2010 04:26:01 -0.7 C 3.51 g/m*3 -0.7 C 0 km/h
2858 20-02-2010 04:38:02 -0.4 C 3.58 g/m*3 -0.4 C 0 km/h
2859 20-02-2010 04:50:01 -0.2 C 3.58 g/m*3 -0.2 C 0 km/h
2860 20-02-2010 05:02:01 -0.1 C 3.61 g/m*3 -0.1 C 0 km/h
2861 20-02-2010 05:14:01 -0.2 C 3.54 g/m*3 -0.2 C 0 km/h
2862 20-02-2010 05:26:01 -0.2 C 3.58 g/m*3 -0.2 C 0 km/h
2863 20-02-2010 05:38:02 -0.2 C 3.58 g/m*3 -0.2 C 0 km/h
2864 20-02-2010 05:50:01 0 C 3.63 g/m*3 0 C 0 km/h
2865 20-02-2010 06:02:02 -0.2 C 3.58 g/m*3 -0.2 C 0 km/h
2866 20-02-2010 06:14:02 0.1 C 3.71 g/m*3 0.1 C 0 km/h
2867 20-02-2010 06:26:01 0.4 C 3.79 g/m*3 0.4 C 0 km/h
2868 20-02-2010 06:38:01 0.3 C 3.76 g/m*3 0.3 C 0 km/h
2869 20-02-2010 06:50:01 0 C 3.68 g/m*3 0 C 0 km/h
2870 20-02-2010 07:02:01 -0.2 C 3.68 g/m*3 -0.2 C 0 km/h
2871 20-02-2010 07:14:02 -0.5 C 3.65 g/m*3 -0.5 C 0 km/h
2872 20-02-2010 07:26:01 -0.6 C 3.67 g/m*3 -0.6 C 0 km/h
2873 20-02-2010 07:38:01 -0.6 C 3.72 g/m*3 -0.6 C 0 km/h
2874 20-02-2010 07:50:01 -0.6 C 3.76 g/m*3 -0.6 C 0 km/h
2875 20-02-2010 08:02:02 -0.2 C 3.92 g/m*3 -0.2 C 0 km/h
Sensor: Nr:Datum:Temp:Abs-Feuchte:Windchill:Wind:
Aussen-T/F 2876 20-02-2010 08:14:02 0.1 C 3.95 g/m*3 0.1 C 0 km/h
2877 20-02-2010 08:26:01 0.4 C 3.98 g/m*3 0.4 C 0 km/h
2878 20-02-2010 08:38:01 0.7 C 3.97 g/m*3 0.7 C 0 km/h
2879 20-02-2010 08:50:01 1 C 3.94 g/m*3 1 C 0 km/h
2880 20-02-2010 09:02:02 1.2 C 3.95 g/m*3 1.2 C 0 km/h
2881 20-02-2010 09:14:02 1.4 C 3.89 g/m*3 1.4 C 0 km/h
2882 20-02-2010 09:26:01 1.5 C 3.87 g/m*3 1.5 C 0 km/h
2883 20-02-2010 09:38:01 1.2 C 3.79 g/m*3 1.2 C 0 km/h
2884 20-02-2010 09:50:01 1.2 C 3.74 g/m*3 1.2 C 0 km/h
2885 20-02-2010 10:02:01 1.3 C 3.76 g/m*3 1.3 C 0 km/h
2886 20-02-2010 10:14:01 1.4 C 3.73 g/m*3 1.4 C 0 km/h
2887 20-02-2010 10:26:01 1.5 C 3.71 g/m*3 1.5 C 0 km/h
2888 20-02-2010 10:38:01 1.7 C 3.76 g/m*3 1.7 C 0 km/h
2889 20-02-2010 10:50:01 1.8 C 3.73 g/m*3 1.8 C 0 km/h
2890 20-02-2010 11:02:01 2.1 C 3.75 g/m*3 2.1 C 0 km/h
2891 20-02-2010 11:14:01 3 C 3.63 g/m*3 3 C 0 km/h
2892 20-02-2010 11:26:01 3.3 C 3.58 g/m*3 3.3 C 0 km/h
2893 20-02-2010 11:38:01 3.7 C 3.61 g/m*3 3.7 C 0 km/h
2894 20-02-2010 11:50:01 4.1 C 3.46 g/m*3 4.1 C 0 km/h
2895 20-02-2010 12:02:01 4.1 C 3.33 g/m*3 4.1 C 0 km/h
2896 20-02-2010 12:14:01 3.9 C 3.47 g/m*3 3.9 C 0 km/h
2897 20-02-2010 12:26:02 4.1 C 3.39 g/m*3 4.1 C 0 km/h
2898 20-02-2010 12:38:01 3.8 C 3.45 g/m*3 3.8 C 0 km/h
2899 20-02-2010 12:50:01 4.2 C 3.41 g/m*3 4.2 C 0 km/h
2900 20-02-2010 13:02:01 4.2 C 3.22 g/m*3 4.2 C 0 km/h
Sensor: Nr:Datum:Temp:Abs-Feuchte:Windchill:Wind:
Aussen-T/F 2901 20-02-2010 13:14:01 4.3 C 3.18 g/m*3 4.3 C 0 km/h
2902 20-02-2010 13:26:02 4.5 C 3.22 g/m*3 4.5 C 0 km/h
2903 20-02-2010 13:38:01 4.5 C 3.16 g/m*3 4.5 C 0 km/h
2904 20-02-2010 13:50:02 4.3 C 3.11 g/m*3 4.3 C 0 km/h
2905 20-02-2010 14:02:01 4.2 C 3.22 g/m*3 4.2 C 0 km/h
2906 20-02-2010 14:14:01 4.5 C 3.22 g/m*3 4.5 C 0 km/h
2907 20-02-2010 14:26:02 4.9 C 3.24 g/m*3 4.9 C 0 km/h
2908 20-02-2010 14:38:01 4.7 C 3.2 g/m*3 4.7 C 0 km/h
2909 20-02-2010 14:50:01 4.5 C 3.22 g/m*3 4.5 C 0 km/h
2910 20-02-2010 15:02:01 4.4 C 3.2 g/m*3 4.4 C 0 km/h
2911 20-02-2010 15:14:01 4.8 C 3.22 g/m*3 4.8 C 0 km/h
2912 20-02-2010 15:26:02 4.9 C 3.17 g/m*3 4.9 C 0 km/h
2913 20-02-2010 15:38:01 5.1 C 3.15 g/m*3 5.1 C 0 km/h
2914 20-02-2010 15:50:02 5.1 C 3.08 g/m*3 5.1 C 0 km/h
2915 20-02-2010 16:02:01 5 C 3.06 g/m*3 5 C 0 km/h
2916 20-02-2010 16:14:01 4.9 C 3.11 g/m*3 4.9 C 0 km/h
2917 20-02-2010 16:26:02 5 C 3.06 g/m*3 5 C 0 km/h
2918 20-02-2010 16:38:01 5.2 C 3.1 g/m*3 5.2 C 0 km/h
2919 20-02-2010 16:50:02 4.9 C 3.04 g/m*3 4.9 C 0 km/h
2920 20-02-2010 17:02:01 4.5 C 3.09 g/m*3 4.5 C 0 km/h
2921 20-02-2010 17:14:01 4.9 C 3.11 g/m*3 4.9 C 0 km/h
2922 20-02-2010 17:26:01 4.8 C 3.08 g/m*3 4.8 C 0 km/h
2923 20-02-2010 17:38:01 4.2 C 3.16 g/m*3 4.2 C 0 km/h
2924 20-02-2010 17:50:02 3.6 C 3.47 g/m*3 3.6 C 0 km/h
2925 20-02-2010 18:02:01 2.9 C 3.54 g/m*3 2.9 C 0 km/h
Sensor: Nr:Datum:Temp:Abs-Feuchte:Windchill:Wind:
Aussen-T/F 2926 20-02-2010 18:14:01 2.5 C 3.56 g/m*3 2.5 C 0 km/h
2927 20-02-2010 18:26:02 2.5 C 3.56 g/m*3 2.5 C 0 km/h
2928 20-02-2010 18:38:01 2.7 C 3.55 g/m*3 2.7 C 0 km/h
2929 20-02-2010 18:50:02 2.6 C 3.47 g/m*3 2.6 C 0 km/h
2930 20-02-2010 19:02:01 2.2 C 3.44 g/m*3 2.2 C 0 km/h
2931 20-02-2010 19:14:01 2 C 3.45 g/m*3 2 C 0 km/h
2932 20-02-2010 19:26:01 1.8 C 3.45 g/m*3 1.8 C 0 km/h
2933 20-02-2010 19:38:02 2 C 3.45 g/m*3 2 C 0 km/h
2934 20-02-2010 19:50:01 1.5 C 3.44 g/m*3 1.5 C 0 km/h
2935 20-02-2010 20:02:01 1.3 C 3.44 g/m*3 1.3 C 0 km/h
2936 20-02-2010 20:14:01 0.9 C 3.45 g/m*3 0.9 C 0 km/h
2937 20-02-2010 20:26:01 0.8 C 3.48 g/m*3 0.8 C 0 km/h
2938 20-02-2010 20:38:02 0.6 C 3.43 g/m*3 0.6 C 0 km/h
2939 20-02-2010 20:50:01 0.7 C 3.41 g/m*3 0.7 C 0 km/h
2940 20-02-2010 21:02:02 0.7 C 3.41 g/m*3 0.7 C 0 km/h
2941 20-02-2010 21:14:02 0.8 C 3.33 g/m*3 0.8 C 0 km/h
2942 20-02-2010 21:26:01 0.8 C 3.28 g/m*3 0.8 C 0 km/h
2943 20-02-2010 21:38:02 0.7 C 3.3 g/m*3 0.7 C 0 km/h
2944 20-02-2010 21:50:01 1 C 3.32 g/m*3 1 C 0 km/h
2945 20-02-2010 22:02:02 1.1 C 3.34 g/m*3 1.1 C 0 km/h
2946 20-02-2010 22:14:02 0.9 C 3.35 g/m*3 0.9 C 0 km/h
2947 20-02-2010 22:26:01 0.7 C 3.36 g/m*3 0.7 C 0 km/h
2948 20-02-2010 22:38:02 0.4 C 3.34 g/m*3 0.4 C 0 km/h
2949 20-02-2010 22:50:01 0.4 C 3.39 g/m*3 0.4 C 0 km/h
2950 20-02-2010 23:02:02 0.5 C 3.41 g/m*3 0.5 C 0 km/h
Sensor: Nr:Datum:Temp:Abs-Feuchte:Windchill:Wind:
Aussen-T/F 2951 20-02-2010 23:14:02 0.6 C 3.48 g/m*3 0.6 C 0 km/h
2952 20-02-2010 23:26:01 0.9 C 3.56 g/m*3 0.9 C 0 km/h
2953 20-02-2010 23:38:01 1.4 C 3.63 g/m*3 1.4 C 0 km/h
2954 20-02-2010 23:50:01 1.5 C 3.6 g/m*3 1.5 C 0 km/h
2955 21-02-2010 00:02:01 1.6 C 3.62 g/m*3 1.6 C 0 km/h
2956 21-02-2010 00:14:01 1.8 C 3.67 g/m*3 1.8 C 0 km/h
2957 21-02-2010 00:26:01 2.1 C 3.64 g/m*3 2.1 C 0 km/h
2958 21-02-2010 00:38:02 2.2 C 3.66 g/m*3 2.2 C 0 km/h
2959 21-02-2010 00:50:01 2.1 C 3.64 g/m*3 2.1 C 0 km/h
2960 21-02-2010 01:02:02 2.1 C 3.64 g/m*3 2.1 C 0 km/h
2961 21-02-2010 01:14:02 2 C 3.61 g/m*3 2 C 0 km/h
2962 21-02-2010 01:26:01 1.7 C 3.59 g/m*3 1.7 C 0 km/h
2963 21-02-2010 01:38:02 1.7 C 3.59 g/m*3 1.7 C 0 km/h
2964 21-02-2010 01:50:01 1.7 C 3.54 g/m*3 1.7 C 0 km/h
2965 21-02-2010 02:02:02 1.6 C 3.57 g/m*3 1.6 C 0 km/h
2966 21-02-2010 02:14:02 1.6 C 3.57 g/m*3 1.6 C 0 km/h
2967 21-02-2010 02:26:01 1.7 C 3.59 g/m*3 1.7 C 0 km/h
2968 21-02-2010 02:38:01 1.8 C 3.62 g/m*3 1.8 C 0 km/h
2969 21-02-2010 02:50:01 1.7 C 3.7 g/m*3 1.7 C 0 km/h
2970 21-02-2010 03:02:01 1.5 C 3.81 g/m*3 1.5 C 0 km/h
2971 21-02-2010 03:14:02 1.3 C 3.87 g/m*3 1.3 C 0 km/h
2972 21-02-2010 03:26:02 1 C 3.89 g/m*3 1 C 0 km/h
2973 21-02-2010 03:38:01 0.6 C 3.89 g/m*3 0.6 C 0 km/h
2974 21-02-2010 03:50:01 0.4 C 3.93 g/m*3 0.4 C 0 km/h
2975 21-02-2010 04:02:02 0.4 C 3.98 g/m*3 0.4 C 0 km/h
Sensor: Nr:Datum:Temp:Abs-Feuchte:Windchill:Wind:
Aussen-T/F 2976 21-02-2010 04:14:02 0.4 C 4.08 g/m*3 0.4 C 0 km/h
2977 21-02-2010 04:26:01 0.3 C 4.11 g/m*3 0.3 C 0 km/h
2978 21-02-2010 04:38:01 0.4 C 4.18 g/m*3 0.4 C 0 km/h
2979 21-02-2010 04:50:01 0.4 C 4.23 g/m*3 0.4 C 0 km/h
2980 21-02-2010 05:02:01 0.5 C 4.31 g/m*3 0.5 C 0 km/h
2981 21-02-2010 05:14:01 0.4 C 4.33 g/m*3 0.4 C 0 km/h
2982 21-02-2010 05:26:01 0.5 C 4.36 g/m*3 0.5 C 0 km/h
2983 21-02-2010 05:38:01 0.5 C 4.41 g/m*3 0.5 C 0 km/h
2984 21-02-2010 05:50:01 0.6 C 4.44 g/m*3 0.6 C 0 km/h
2985 21-02-2010 06:02:01 0.6 C 4.49 g/m*3 0.6 C 0 km/h
2986 21-02-2010 06:14:01 0.7 C 4.53 g/m*3 0.7 C 0 km/h
2987 21-02-2010 06:26:02 0.7 C 4.53 g/m*3 0.7 C 0 km/h
2988 21-02-2010 06:38:01 0.8 C 4.56 g/m*3 0.8 C 0 km/h
2989 21-02-2010 06:50:02 0.8 C 4.56 g/m*3 0.8 C 0 km/h
2990 21-02-2010 07:02:01 0.9 C 4.54 g/m*3 0.9 C 0 km/h
2991 21-02-2010 07:14:01 0.9 C 4.48 g/m*3 0.9 C 0 km/h
2992 21-02-2010 07:26:02 0.8 C 4.45 g/m*3 0.8 C 0 km/h
2993 21-02-2010 07:38:01 0.8 C 4.4 g/m*3 0.8 C 0 km/h
2994 21-02-2010 07:50:01 0.8 C 4.35 g/m*3 0.8 C 0 km/h
2995 21-02-2010 08:02:02 1.3 C 4.45 g/m*3 1.3 C 0 km/h
2996 21-02-2010 08:14:02 1.2 C 4.42 g/m*3 1.2 C 0 km/h
2997 21-02-2010 08:26:01 1.4 C 4.37 g/m*3 1.4 C 0 km/h
2998 21-02-2010 08:38:01 1.6 C 4.38 g/m*3 1.6 C 0 km/h
2999 21-02-2010 08:50:01 1.5 C 4.4 g/m*3 1.5 C 0 km/h
3000 21-02-2010 09:02:01 1.6 C 4.43 g/m*3 1.6 C 0 km/h
Sensor: Nr:Datum:Temp:Abs-Feuchte:Windchill:Wind:
Aussen-T/F 3001 21-02-2010 09:14:02 1.7 C 4.46 g/m*3 1.7 C 0 km/h
3002 21-02-2010 09:26:01 2 C 4.5 g/m*3 2 C 0 km/h
3003 21-02-2010 09:38:01 2.1 C 4.48 g/m*3 2.1 C 0 km/h
3004 21-02-2010 09:50:01 2.3 C 4.48 g/m*3 2.3 C 0 km/h
3005 21-02-2010 10:02:02 2.5 C 4.48 g/m*3 2.5 C 0 km/h
3006 21-02-2010 10:14:02 2.8 C 4.52 g/m*3 2.8 C 0 km/h
3007 21-02-2010 10:26:01 2.9 C 4.49 g/m*3 2.9 C 0 km/h
3008 21-02-2010 10:38:02 3 C 4.34 g/m*3 3 C 0 km/h
3009 21-02-2010 10:50:02 3.1 C 4.37 g/m*3 3.1 C 0 km/h
3010 21-02-2010 11:02:01 3.2 C 4.4 g/m*3 3.2 C 0 km/h
3011 21-02-2010 11:14:01 3.7 C 4.42 g/m*3 3.7 C 0 km/h
3012 21-02-2010 11:26:01 3.8 C 4.33 g/m*3 3.8 C 0 km/h
3013 21-02-2010 11:38:02 4 C 4.26 g/m*3 4 C 0 km/h
3014 21-02-2010 11:50:01 4.2 C 4.25 g/m*3 4.2 C 0 km/h
3015 21-02-2010 12:02:01 4.4 C 4.05 g/m*3 4.4 C 0 km/h
3016 21-02-2010 12:14:01 4.5 C 3.81 g/m*3 4.5 C 0 km/h
3017 21-02-2010 12:26:02 4.8 C 3.82 g/m*3 4.8 C 0 km/h
3018 21-02-2010 12:38:01 5 C 3.94 g/m*3 5 C 0 km/h
3019 21-02-2010 12:50:01 5.1 C 3.9 g/m*3 5.1 C 0 km/h
3020 21-02-2010 13:02:01 4.9 C 3.78 g/m*3 4.9 C 0 km/h
3021 21-02-2010 13:14:01 4.7 C 3.86 g/m*3 4.7 C 0 km/h
3022 21-02-2010 13:26:01 4.7 C 3.93 g/m*3 4.7 C 0 km/h
3023 21-02-2010 13:38:01 4.7 C 4.06 g/m*3 4.7 C 0 km/h
3024 21-02-2010 13:50:01 5.2 C 4.06 g/m*3 5.2 C 0 km/h
3025 21-02-2010 14:02:02 5.7 C 4.06 g/m*3 5.7 C 0 km/h
Sensor: Nr:Datum:Temp:Abs-Feuchte:Windchill:Wind:
Aussen-T/F 3026 21-02-2010 14:14:02 5.3 C 3.95 g/m*3 5.3 C 0 km/h
3027 21-02-2010 14:26:01 5.3 C 3.95 g/m*3 5.3 C 0 km/h
3028 21-02-2010 14:38:01 5.2 C 4.06 g/m*3 5.2 C 0 km/h
3029 21-02-2010 14:50:01 5.2 C 4.06 g/m*3 5.2 C 0 km/h
3030 21-02-2010 15:02:01 5.4 C 4.12 g/m*3 5.4 C 0 km/h
3031 21-02-2010 15:14:01 6.1 C 4.09 g/m*3 6.1 C 0 km/h
3032 21-02-2010 15:26:01 6.3 C 4.07 g/m*3 6.3 C 0 km/h
3033 21-02-2010 15:38:01 6.4 C 4.1 g/m*3 6.4 C 0 km/h
3034 21-02-2010 15:50:02 6.3 C 4.15 g/m*3 6.3 C 0 km/h
3035 21-02-2010 16:02:01 6.4 C 4.17 g/m*3 6.4 C 0 km/h
3036 21-02-2010 16:14:01 6.5 C 4.12 g/m*3 6.5 C 0 km/h
3037 21-02-2010 16:26:02 6.5 C 4.2 g/m*3 6.5 C 0 km/h
3038 21-02-2010 16:38:01 6.2 C 4.04 g/m*3 6.2 C 0 km/h
3039 21-02-2010 16:50:01 7.2 C 4.24 g/m*3 7.2 C 0 km/h
3040 21-02-2010 17:02:02 6.5 C 3.97 g/m*3 6.5 C 0 km/h
3041 21-02-2010 17:14:02 5.9 C 4.11 g/m*3 5.9 C 0 km/h
3042 21-02-2010 17:26:01 5.6 C 4.1 g/m*3 5.6 C 0 km/h
3043 21-02-2010 17:38:02 5.3 C 4.16 g/m*3 5.3 C 0 km/h
3044 21-02-2010 17:50:01 5.1 C 4.17 g/m*3 5.1 C 0 km/h
3045 21-02-2010 18:02:02 4.8 C 4.29 g/m*3 4.8 C 0 km/h
3046 21-02-2010 18:14:02 4.6 C 4.3 g/m*3 4.6 C 0 km/h
3047 21-02-2010 18:26:01 4.4 C 4.31 g/m*3 4.4 C 0 km/h
3048 21-02-2010 18:38:01 3.8 C 4.27 g/m*3 3.8 C 0 km/h
3049 21-02-2010 18:50:01 3.4 C 4.28 g/m*3 3.4 C 0 km/h
3050 21-02-2010 19:02:02 3 C 4.22 g/m*3 3 C 0 km/h
Sensor: Nr:Datum:Temp:Abs-Feuchte:Windchill:Wind:
Aussen-T/F 3051 21-02-2010 19:14:02 2.9 C 4.37 g/m*3 2.9 C 0 km/h
3052 21-02-2010 19:26:01 2.8 C 4.4 g/m*3 2.8 C 0 km/h
3053 21-02-2010 19:38:01 2.8 C 4.46 g/m*3 2.8 C 0 km/h
3054 21-02-2010 19:50:01 2.7 C 4.49 g/m*3 2.7 C 0 km/h
3055 21-02-2010 20:02:01 2.5 C 4.43 g/m*3 2.5 C 0 km/h
3056 21-02-2010 20:14:01 2.4 C 4.4 g/m*3 2.4 C 0 km/h
3057 21-02-2010 20:26:01 2.7 C 4.6 g/m*3 2.7 C 0 km/h
3058 21-02-2010 20:38:01 2.8 C 4.63 g/m*3 2.8 C 0 km/h
3059 21-02-2010 20:50:01 3 C 4.58 g/m*3 3 C 0 km/h
3060 21-02-2010 21:02:01 3 C 4.58 g/m*3 3 C 0 km/h
3061 21-02-2010 21:14:01 3 C 4.58 g/m*3 3 C 0 km/h
3062 21-02-2010 21:26:02 2.9 C 4.61 g/m*3 2.9 C 0 km/h
3063 21-02-2010 21:38:01 2.8 C 4.58 g/m*3 2.8 C 0 km/h
3064 21-02-2010 21:50:02 2.7 C 4.6 g/m*3 2.7 C 0 km/h
3065 21-02-2010 22:02:01 2.6 C 4.57 g/m*3 2.6 C 0 km/h
3066 21-02-2010 22:14:01 2.4 C 4.51 g/m*3 2.4 C 0 km/h
3067 21-02-2010 22:26:02 2.3 C 4.54 g/m*3 2.3 C 0 km/h
3068 21-02-2010 22:38:01 2.1 C 4.53 g/m*3 2.1 C 0 km/h
3069 21-02-2010 22:50:02 2.1 C 4.53 g/m*3 2.1 C 0 km/h
3070 21-02-2010 23:02:01 2.2 C 4.62 g/m*3 2.2 C 0 km/h
3071 21-02-2010 23:14:01 2.1 C 4.59 g/m*3 2.1 C 0 km/h
3072 21-02-2010 23:26:02 2 C 4.56 g/m*3 2 C 0 km/h
3073 21-02-2010 23:38:01 2 C 4.56 g/m*3 2 C 0 km/h
3074 21-02-2010 23:50:02 1.9 C 4.58 g/m*3 1.9 C 0 km/h
3075 22-02-2010 00:02:01 1.9 C 4.58 g/m*3 1.9 C 0 km/h
Sensor: Nr:Datum:Temp:Abs-Feuchte:Windchill:Wind:
Aussen-T/F 3076 22-02-2010 00:14:01 1.8 C 4.55 g/m*3 1.8 C 0 km/h
3077 22-02-2010 00:26:01 1.7 C 4.57 g/m*3 1.7 C 0 km/h
3078 22-02-2010 00:38:02 1.7 C 4.57 g/m*3 1.7 C 0 km/h
3079 22-02-2010 00:50:01 1.6 C 4.54 g/m*3 1.6 C 0 km/h
3080 22-02-2010 01:02:02 1.6 C 4.54 g/m*3 1.6 C 0 km/h
3081 22-02-2010 01:14:02 1.5 C 4.51 g/m*3 1.5 C 0 km/h
3082 22-02-2010 01:26:01 1.3 C 4.45 g/m*3 1.3 C 0 km/h
3083 22-02-2010 01:38:02 1.3 C 4.45 g/m*3 1.3 C 0 km/h
3084 22-02-2010 01:50:01 1.3 C 4.45 g/m*3 1.3 C 0 km/h
3085 22-02-2010 02:02:02 1.3 C 4.45 g/m*3 1.3 C 0 km/h
3086 22-02-2010 02:14:02 1.3 C 4.45 g/m*3 1.3 C 0 km/h
3087 22-02-2010 02:26:01 1 C 4.36 g/m*3 1 C 0 km/h
3088 22-02-2010 02:38:01 1 C 4.36 g/m*3 1 C 0 km/h
3089 22-02-2010 02:50:01 1 C 4.41 g/m*3 1 C 0 km/h
3090 22-02-2010 03:02:01 1.1 C 4.44 g/m*3 1.1 C 0 km/h
3091 22-02-2010 03:14:02 1.1 C 4.44 g/m*3 1.1 C 0 km/h
3092 22-02-2010 03:26:02 1 C 4.41 g/m*3 1 C 0 km/h
3093 22-02-2010 03:38:01 1.1 C 4.44 g/m*3 1.1 C 0 km/h
3094 22-02-2010 03:50:01 1.1 C 4.49 g/m*3 1.1 C 0 km/h
3095 22-02-2010 04:02:02 1.4 C 4.59 g/m*3 1.4 C 0 km/h
3096 22-02-2010 04:14:02 1.1 C 4.44 g/m*3 1.1 C 0 km/h
3097 22-02-2010 04:26:01 1 C 4.41 g/m*3 1 C 0 km/h
3098 22-02-2010 04:38:02 1.1 C 4.49 g/m*3 1.1 C 0 km/h
3099 22-02-2010 04:50:01 1.1 C 4.49 g/m*3 1.1 C 0 km/h
3100 22-02-2010 05:02:02 1.1 C 4.49 g/m*3 1.1 C 0 km/h
Sensor: Nr:Datum:Temp:Abs-Feuchte:Windchill:Wind:
Aussen-T/F 3101 22-02-2010 05:14:02 1.2 C 4.53 g/m*3 1.2 C 0 km/h
3102 22-02-2010 05:26:01 1.4 C 4.59 g/m*3 1.4 C 0 km/h
3103 22-02-2010 05:38:01 1.4 C 4.59 g/m*3 1.4 C 0 km/h
3104 22-02-2010 05:50:01 1.5 C 4.62 g/m*3 1.5 C 0 km/h
3105 22-02-2010 06:02:01 1.5 C 4.62 g/m*3 1.5 C 0 km/h
3106 22-02-2010 06:14:02 1.5 C 4.62 g/m*3 1.5 C 0 km/h
3107 22-02-2010 06:26:01 1.5 C 4.62 g/m*3 1.5 C 0 km/h
3108 22-02-2010 06:38:01 1.6 C 4.65 g/m*3 1.6 C 0 km/h
3109 22-02-2010 06:50:01 1.6 C 4.65 g/m*3 1.6 C 0 km/h
3110 22-02-2010 07:02:01 1.6 C 4.65 g/m*3 1.6 C 0 km/h
3111 22-02-2010 07:14:01 1.8 C 4.77 g/m*3 1.8 C 0 km/h
3112 22-02-2010 07:26:02 2.2 C 4.9 g/m*3 2.2 C 0 km/h
3113 22-02-2010 07:38:01 2.3 C 4.93 g/m*3 2.3 C 0 km/h
3114 22-02-2010 07:50:02 2.5 C 5 g/m*3 2.5 C 0 km/h
3115 22-02-2010 08:02:01 2.7 C 5.07 g/m*3 2.7 C 0 km/h
3116 22-02-2010 08:14:01 3 C 5.11 g/m*3 3 C 0 km/h
3117 22-02-2010 08:26:02 3.2 C 5.12 g/m*3 3.2 C 0 km/h
3118 22-02-2010 08:38:01 3.5 C 5.16 g/m*3 3.5 C 0 km/h
3119 22-02-2010 08:50:02 3.8 C 5.21 g/m*3 3.8 C 0 km/h
3120 22-02-2010 09:02:01 4.2 C 5.22 g/m*3 4.2 C 0 km/h
3121 22-02-2010 09:14:01 4.5 C 5.32 g/m*3 4.5 C 0 km/h
3122 22-02-2010 09:26:01 4.8 C 5.3 g/m*3 4.8 C 0 km/h
3123 22-02-2010 09:38:01 5.1 C 5.27 g/m*3 5.1 C 0 km/h
3124 22-02-2010 09:50:02 5.3 C 5.2 g/m*3 5.3 C 0 km/h
3125 22-02-2010 10:02:01 5.7 C 5.19 g/m*3 5.7 C 0 km/h
Sensor: Nr:Datum:Temp:Abs-Feuchte:Windchill:Wind:
Aussen-T/F 3126 22-02-2010 10:14:01 6.3 C 5.18 g/m*3 6.3 C 0 km/h
3127 22-02-2010 10:26:01 6.9 C 5.08 g/m*3 6.9 C 0 km/h
3128 22-02-2010 10:38:02 7.2 C 5.02 g/m*3 7.2 C 0 km/h
3129 22-02-2010 10:50:01 7.6 C 5.08 g/m*3 7.6 C 0 km/h
3130 22-02-2010 11:02:01 7.7 C 5.19 g/m*3 7.7 C 0 km/h
3131 22-02-2010 11:14:01 8 C 5.21 g/m*3 8 C 0 km/h
3132 22-02-2010 11:26:02 8.5 C 5.21 g/m*3 8.5 C 0 km/h
3133 22-02-2010 11:38:01 8.9 C 5.26 g/m*3 8.9 C 0 km/h
3134 22-02-2010 11:50:02 8.7 C 5.19 g/m*3 8.7 C 0 km/h
3135 22-02-2010 12:02:01 8.6 C 5.33 g/m*3 8.6 C 0 km/h
3136 22-02-2010 12:14:01 8.4 C 5.51 g/m*3 8.4 C 0 km/h
3137 22-02-2010 12:26:02 8.8 C 5.74 g/m*3 8.8 C 0 km/h
3138 22-02-2010 12:38:01 9.7 C 5.81 g/m*3 9.7 C 0 km/h
3139 22-02-2010 12:50:02 10.3 C 5.55 g/m*3 10.3 C 0 km/h
3140 22-02-2010 13:02:01 10.6 C 5.37 g/m*3 10.6 C 0 km/h
3141 22-02-2010 13:14:01 11.2 C 5.27 g/m*3 11.2 C 0 km/h
3142 22-02-2010 13:26:01 11.7 C 5.12 g/m*3 11.7 C 0 km/h
3143 22-02-2010 13:38:02 11.4 C 5.13 g/m*3 11.4 C 0 km/h
3144 22-02-2010 13:50:01 11.8 C 5.26 g/m*3 11.8 C 0 km/h
3145 22-02-2010 14:02:02 11.9 C 5.08 g/m*3 11.9 C 0 km/h
3146 22-02-2010 14:14:02 12.7 C 5.01 g/m*3 12.7 C 0 km/h
3147 22-02-2010 14:26:01 12.2 C 5.07 g/m*3 12.2 C 0 km/h
3148 22-02-2010 14:38:02 12.5 C 5.06 g/m*3 12.5 C 0 km/h
3149 22-02-2010 14:50:01 12.2 C 5.07 g/m*3 12.2 C 0 km/h
3150 22-02-2010 15:02:02 12.3 C 5.1 g/m*3 12.3 C 0 km/h
Sensor: Nr:Datum:Temp:Abs-Feuchte:Windchill:Wind:
Aussen-T/F 3151 22-02-2010 15:14:02 12.7 C 5.12 g/m*3 12.7 C 0 km/h
3152 22-02-2010 15:26:01 13.3 C 5.2 g/m*3 13.3 C 0 km/h
3153 22-02-2010 15:38:02 13.4 C 5 g/m*3 13.4 C 0 km/h
3154 22-02-2010 15:50:01 12.7 C 5.23 g/m*3 12.7 C 0 km/h
3155 22-02-2010 16:02:02 12.4 C 5.14 g/m*3 12.4 C 0 km/h
3156 22-02-2010 16:14:02 11.9 C 5.3 g/m*3 11.9 C 0 km/h
3157 22-02-2010 16:26:01 11.5 C 5.37 g/m*3 11.5 C 0 km/h
3158 22-02-2010 16:38:01 11.4 C 5.44 g/m*3 11.4 C 0 km/h
3159 22-02-2010 16:50:01 11.8 C 5.58 g/m*3 11.8 C 0 km/h
3160 22-02-2010 17:02:01 12.1 C 5.47 g/m*3 12.1 C 0 km/h
3161 22-02-2010 17:14:01 11.8 C 5.47 g/m*3 11.8 C 0 km/h
3162 22-02-2010 17:26:01 11.3 C 5.51 g/m*3 11.3 C 0 km/h
3163 22-02-2010 17:38:01 10.7 C 5.6 g/m*3 10.7 C 0 km/h
3164 22-02-2010 17:50:01 10.4 C 5.69 g/m*3 10.4 C 0 km/h
3165 22-02-2010 18:02:01 10.1 C 5.67 g/m*3 10.1 C 0 km/h
3166 22-02-2010 18:14:01 9.9 C 5.79 g/m*3 9.9 C 0 km/h
3167 22-02-2010 18:26:02 9.7 C 5.72 g/m*3 9.7 C 0 km/h
3168 22-02-2010 18:38:01 9.4 C 5.7 g/m*3 9.4 C 0 km/h
3169 22-02-2010 18:50:02 9.2 C 5.8 g/m*3 9.2 C 0 km/h
3170 22-02-2010 19:02:01 9 C 5.73 g/m*3 9 C 0 km/h
3171 22-02-2010 19:14:01 8.9 C 5.87 g/m*3 8.9 C 0 km/h
3172 22-02-2010 19:26:02 8.9 C 5.87 g/m*3 8.9 C 0 km/h
3173 22-02-2010 19:38:01 9 C 5.82 g/m*3 9 C 0 km/h
3174 22-02-2010 19:50:02 9.1 C 5.77 g/m*3 9.1 C 0 km/h
3175 22-02-2010 20:02:02 9.1 C 5.68 g/m*3 9.1 C 0 km/h
Sensor: Nr:Datum:Temp:Abs-Feuchte:Windchill:Wind:
Aussen-T/F 3176 22-02-2010 20:14:02 9.2 C 5.63 g/m*3 9.2 C 0 km/h
3177 22-02-2010 20:26:01 9.5 C 5.64 g/m*3 9.5 C 0 km/h
3178 22-02-2010 20:38:02 9.4 C 5.52 g/m*3 9.4 C 0 km/h
3179 22-02-2010 20:50:02 9 C 5.47 g/m*3 9 C 0 km/h
3180 22-02-2010 21:02:01 8.7 C 5.53 g/m*3 8.7 C 0 km/h
3181 22-02-2010 21:14:01 8.9 C 5.52 g/m*3 8.9 C 0 km/h
3182 22-02-2010 21:26:01 8.8 C 5.48 g/m*3 8.8 C 0 km/h
3183 22-02-2010 21:38:02 8.9 C 5.52 g/m*3 8.9 C 0 km/h
3184 22-02-2010 21:50:01 8.9 C 5.52 g/m*3 8.9 C 0 km/h
3185 22-02-2010 22:02:02 9.1 C 5.5 g/m*3 9.1 C 0 km/h
3186 22-02-2010 22:14:02 9.5 C 5.55 g/m*3 9.5 C 0 km/h
3187 22-02-2010 22:28:08 10.1 C 5.67 g/m*3 10.1 C 0 km/h
3188 22-02-2010 22:40:08 11.1 C 5.54 g/m*3 11.1 C 0 km/h
3189 22-02-2010 22:52:08 11.5 C 5.47 g/m*3 11.5 C 0 km/h
3190 22-02-2010 23:04:08 12 C 5.33 g/m*3 12 C 0 km/h
3191 22-02-2010 23:16:08 12.1 C 5.36 g/m*3 12.1 C 0 km/h
3192 22-02-2010 23:28:08 12.1 C 5.47 g/m*3 12.1 C 0 km/h
3193 22-02-2010 23:40:08 12 C 5.44 g/m*3 12 C 0 km/h
3194 22-02-2010 23:52:08 12.2 C 5.5 g/m*3 12.2 C 0 km/h
3195 23-02-2010 00:04:08 12.1 C 5.47 g/m*3 12.1 C 0 km/h
3196 23-02-2010 00:16:08 12.1 C 5.47 g/m*3 12.1 C 0 km/h
3197 23-02-2010 00:28:08 12.2 C 5.5 g/m*3 12.2 C 0 km/h
3198 23-02-2010 00:40:08 12.2 C 5.4 g/m*3 12.2 C 0 km/h
3199 23-02-2010 00:52:08 12.1 C 5.36 g/m*3 12.1 C 0 km/h
3200 23-02-2010 01:04:08 11.8 C 5.47 g/m*3 11.8 C 0 km/h
Sensor: Nr:Datum:Temp:Abs-Feuchte:Windchill:Wind:
Aussen-T/F 3201 23-02-2010 01:16:08 11.5 C 5.58 g/m*3 11.5 C 0 km/h
3202 23-02-2010 01:28:08 11.4 C 5.75 g/m*3 11.4 C 0 km/h
3203 23-02-2010 01:40:08 11.4 C 5.75 g/m*3 11.4 C 0 km/h
3204 23-02-2010 01:52:08 11.4 C 5.85 g/m*3 11.4 C 0 km/h
3205 23-02-2010 02:04:08 11.2 C 5.78 g/m*3 11.2 C 0 km/h
3206 23-02-2010 02:16:08 11.2 C 5.88 g/m*3 11.2 C 0 km/h
3207 23-02-2010 02:28:08 10.6 C 6.25 g/m*3 10.6 C 0 km/h
3208 23-02-2010 02:40:08 10.4 C 6.46 g/m*3 10.4 C 0 km/h
3209 23-02-2010 02:52:08 9.6 C 6.78 g/m*3 9.6 C 0 km/h
3210 23-02-2010 03:04:09 9.3 C 6.83 g/m*3 9.3 C 0 km/h
3211 23-02-2010 03:16:09 9.2 C 6.97 g/m*3 9.2 C 0 km/h
3212 23-02-2010 03:28:09 9.1 C 6.92 g/m*3 9.1 C 0 km/h
3213 23-02-2010 03:40:09 9.1 C 7.01 g/m*3 9.1 C 0 km/h
3214 23-02-2010 03:52:09 8.9 C 7.1 g/m*3 8.9 C 0 km/h
3215 23-02-2010 04:04:09 8.6 C 7.13 g/m*3 8.6 C 0 km/h
3216 23-02-2010 04:16:09 8.6 C 7.22 g/m*3 8.6 C 0 km/h
3217 23-02-2010 04:28:09 8.5 C 7.17 g/m*3 8.5 C 0 km/h
3218 23-02-2010 04:40:09 8.6 C 7.22 g/m*3 8.6 C 0 km/h
3219 23-02-2010 04:52:09 8.5 C 7.17 g/m*3 8.5 C 0 km/h
3220 23-02-2010 05:04:09 8.4 C 7.04 g/m*3 8.4 C 0 km/h
3221 23-02-2010 05:16:09 8.5 C 7.17 g/m*3 8.5 C 0 km/h
3222 23-02-2010 05:28:09 8.3 C 7.08 g/m*3 8.3 C 0 km/h
3223 23-02-2010 05:40:09 8.5 C 7.17 g/m*3 8.5 C 0 km/h
3224 23-02-2010 05:52:09 8.5 C 7.09 g/m*3 8.5 C 0 km/h
3225 23-02-2010 06:04:09 8.5 C 7.09 g/m*3 8.5 C 0 km/h
Sensor: Nr:Datum:Temp:Abs-Feuchte:Windchill:Wind:
Aussen-T/F 3226 23-02-2010 06:16:09 8.5 C 7.09 g/m*3 8.5 C 0 km/h
3227 23-02-2010 06:28:09 8.5 C 7.09 g/m*3 8.5 C 0 km/h
3228 23-02-2010 06:40:09 8.5 C 7.09 g/m*3 8.5 C 0 km/h
3229 23-02-2010 06:52:09 8.5 C 7.09 g/m*3 8.5 C 0 km/h
3230 23-02-2010 07:04:09 8.4 C 7.04 g/m*3 8.4 C 0 km/h
3231 23-02-2010 07:16:08 8.2 C 6.95 g/m*3 8.2 C 0 km/h
3232 23-02-2010 07:28:08 8.1 C 6.99 g/m*3 8.1 C 0 km/h
3233 23-02-2010 07:40:08 8.2 C 7.03 g/m*3 8.2 C 0 km/h
3234 23-02-2010 07:52:01 8.2 C 7.03 g/m*3 8.2 C 0 km/h
3235 23-02-2010 08:04:02 8.3 C 7.16 g/m*3 8.3 C 0 km/h
3236 23-02-2010 08:16:01 8.5 C 7.26 g/m*3 8.5 C 0 km/h
3237 23-02-2010 08:28:01 8.6 C 7.22 g/m*3 8.6 C 0 km/h
3238 23-02-2010 08:40:02 8.8 C 7.31 g/m*3 8.8 C 0 km/h
3239 23-02-2010 08:52:02 8.9 C 7.27 g/m*3 8.9 C 0 km/h
3240 23-02-2010 09:04:02 9 C 7.23 g/m*3 9 C 0 km/h
3241 23-02-2010 09:16:01 9.1 C 7.28 g/m*3 9.1 C 0 km/h
3242 23-02-2010 09:28:01 9.1 C 7.1 g/m*3 9.1 C 0 km/h
3243 23-02-2010 09:40:02 9.1 C 7.01 g/m*3 9.1 C 0 km/h